Provisional Data: Quittapahilla Creek near Syner, PA


Please select a monitoring station.
Please select start date.
Please select start date.

Toggle Unit: C/F Toggle Unit: C/F
Sample Time Temperature (C) Temperature (F) Specific Conductivity (mS/cm) pH   Turbidity (NTU+) DO (mg/L)
6/22/2021 12:00:00 AM 19.16 66.488 0.656 8.16 3.09 7.28
6/22/2021 12:15:00 AM 19.12 66.416 0.656 8.15 4.73 7.25
6/22/2021 12:30:00 AM 19.09 66.362 0.657 8.14 3.12 7.22
6/22/2021 12:45:00 AM 19.05 66.29 0.657 8.14 3.43 7.2
6/22/2021 1:00:00 AM 19.02 66.236 0.657 8.12 3.24 7.18
6/22/2021 1:15:00 AM 18.98 66.164 0.657 8.12 4.34 7.16
6/22/2021 1:30:00 AM 18.95 66.11 0.657 8.12 2.8 7.15
6/22/2021 1:45:00 AM 18.91 66.038 0.657 8.11 2.76 7.12
6/22/2021 2:00:00 AM 18.88 65.984 0.657 8.12 2.44 7.11
6/22/2021 2:15:00 AM 18.84 65.912 0.657 8.1 4.34 7.08
6/22/2021 2:30:00 AM 18.8 65.84 0.658 8.1 4 7.08
6/22/2021 2:45:00 AM 18.75 65.75 0.658 8.09 4.31 7.07
6/22/2021 3:00:00 AM 18.7 65.66 0.658 8.09 4.34 7.05
6/22/2021 3:15:00 AM 18.65 65.57 0.658 8.08 11.11 7.05
6/22/2021 3:30:00 AM 18.61 65.498 0.658 8.08 3.86 7.06
6/22/2021 3:45:00 AM 18.62 65.516 0.659 8.08 4.31 7.02
6/22/2021 4:00:00 AM 18.65 65.57 0.66 8.08 62.05 6.97
6/22/2021 4:15:00 AM 18.66 65.588 0.66 8.07 18.09 6.94
6/22/2021 4:30:00 AM 18.65 65.57 0.66 8.07 5.9 6.99
6/22/2021 4:45:00 AM 18.63 65.534 0.66 8.06 6.06 6.98
6/22/2021 5:00:00 AM 18.6 65.48 0.66 8.06 5.46 6.98
6/22/2021 5:15:00 AM 18.57 65.426 0.66 8.05 4 6.98
6/22/2021 5:30:00 AM 18.54 65.372 0.66 8.05 4.14 6.98
6/22/2021 5:45:00 AM 18.52 65.336 0.66 8.05 3.46 6.97
6/22/2021 6:00:00 AM 18.49 65.282 0.66 8.06 2.94 6.98
6/22/2021 6:15:00 AM 18.47 65.246 0.66 8.05 4.17 6.97
6/22/2021 6:30:00 AM 18.45 65.21 0.66 8.05 3.35 6.98
6/22/2021 6:45:00 AM 18.43 65.174 0.66 8.05 3.06 7
6/22/2021 7:00:00 AM 18.41 65.138 0.66 8.05 1.74 7.03
6/22/2021 7:15:00 AM 18.39 65.102 0.661 8.05 2.33 7.04
6/22/2021 7:30:00 AM 18.35 65.03 0.662 8.05 2.1 7.06
6/22/2021 7:45:00 AM 18.29 64.922 0.662 8.04 2.25 7.09
6/22/2021 8:00:00 AM 18.22 64.796 0.662 8.04 1.82 7.14
6/22/2021 8:15:00 AM 18.16 64.688 0.662 8.04 2 7.16
6/22/2021 8:30:00 AM 18.12 64.616 0.662 8.03 2 7.21
6/22/2021 8:45:00 AM 18.08 64.544 0.661 8.04 1.38 7.29
6/22/2021 9:00:00 AM 18.04 64.472 0.659 8.05 1.46 7.35
6/22/2021 9:15:00 AM 18.01 64.418 0.656 8.06 1.63 7.43
6/22/2021 9:30:00 AM 17.98 64.364 0.654 8.06 2.03 7.49
6/22/2021 9:45:00 AM 17.94 64.292 0.652 8.07 2.55 7.5
6/22/2021 10:00:00 AM 17.91 64.238 0.65 8.08 2.93 7.54
6/22/2021 10:15:00 AM 17.88 64.184 0.649 8.08 4.1 7.56
6/22/2021 10:30:00 AM 17.84 64.112 0.647 8.08 3.24 7.66
6/22/2021 10:45:00 AM 17.82 64.076 0.645 8.08 4.52 7.76
6/22/2021 11:00:00 AM 17.8 64.04 0.643 8.09 2.21 7.86
6/22/2021 11:15:00 AM 17.77 63.986 0.638 8.1 2.57 7.95
6/22/2021 11:30:00 AM 17.76 63.968 0.635 8.11 3.09 8.06
6/22/2021 11:45:00 AM 17.76 63.968 0.633 8.12 2.86 8.26
6/22/2021 12:00:00 PM 17.74 63.932 0.63 8.14 3.86 8.4
6/22/2021 12:15:00 PM 17.73 63.914 0.63 8.15 4.38 8.53
6/22/2021 12:30:00 PM 17.72 63.896 0.629 8.16 4.5 8.65
6/22/2021 12:45:00 PM 17.71 63.878 0.628 8.16 4.76 8.72
6/22/2021 1:00:00 PM 17.71 63.878 0.628 8.17 12.31 8.78
6/22/2021 1:15:00 PM 17.7 63.86 0.628 8.18 4.32 8.83
6/22/2021 1:30:00 PM 17.7 63.86 0.628 8.18 4.29 8.89
6/22/2021 1:45:00 PM 17.71 63.878 0.629 8.2 18 8.93
6/22/2021 2:00:00 PM 17.71 63.878 0.629 8.21 3.51 9.06
6/22/2021 2:15:00 PM 17.72 63.896 0.629 8.22 4.3 9.15
6/22/2021 2:30:00 PM 17.73 63.914 0.629 8.23 3.12 9.31
6/22/2021 2:45:00 PM 17.74 63.932 0.629 8.24 5.09 9.41
6/22/2021 3:00:00 PM 17.73 63.914 0.63 8.25 3.07 9.47
6/22/2021 3:15:00 PM 17.74 63.932 0.63 8.26 2.93 9.59
6/22/2021 3:30:00 PM 17.74 63.932 0.628 8.28 4.04 9.65
6/22/2021 3:45:00 PM 17.74 63.932 0.623 8.28 4.12 9.63
6/22/2021 4:00:00 PM 17.74 63.932 0.615 8.28 2.9 9.53
6/22/2021 4:15:00 PM 17.76 63.968 0.607 8.28 3.89 9.48
6/22/2021 4:30:00 PM 17.79 64.022 0.601 8.26 2.09 9.52
6/22/2021 4:45:00 PM 17.8 64.04 0.596 8.26 4.34 9.53
6/22/2021 5:00:00 PM 17.8 64.04 0.59 8.25 6.86 9.55
6/22/2021 5:15:00 PM 17.79 64.022 0.586 8.26 6.96 9.47
6/22/2021 5:30:00 PM 17.76 63.968 0.584 8.25 6.16 9.34
6/22/2021 5:45:00 PM 17.7 63.86 0.585 8.22 5.13 9.16
6/22/2021 6:00:00 PM 17.63 63.734 0.589 8.2 7.63 9.03
6/22/2021 6:15:00 PM 17.57 63.626 0.596 8.19 6.35 8.96
6/22/2021 6:30:00 PM 17.52 63.536 0.603 8.17 6.42 8.95
6/22/2021 6:45:00 PM 17.48 63.464 0.61 8.17 8.46 8.96
6/22/2021 7:00:00 PM 17.44 63.392 0.615 8.16 5.35 8.95
6/22/2021 7:15:00 PM 17.41 63.338 0.619 8.17 3.54 8.89
6/22/2021 7:30:00 PM 17.37 63.266 0.621 8.16 3.67 8.8
6/22/2021 7:45:00 PM 17.34 63.212 0.621 8.16 3.87 8.69
6/22/2021 8:00:00 PM 17.31 63.158 0.621 8.15 5.78 8.55
6/22/2021 8:15:00 PM 17.29 63.122 0.62 8.14 4.86 8.44
6/22/2021 8:30:00 PM 17.28 63.104 0.618 8.13 5.76 8.3
6/22/2021 8:45:00 PM 17.27 63.086 0.618 8.13 5.59 8.19
6/22/2021 9:00:00 PM 17.26 63.068 0.619 8.13 6.43 8.09
6/22/2021 9:15:00 PM 17.24 63.032 0.621 8.11 5.22 7.98
6/22/2021 9:30:00 PM 17.22 62.996 0.624 8.11 15.75 7.88
6/22/2021 9:45:00 PM 17.19 62.942 0.626 8.1 5.2 7.83
6/22/2021 10:00:00 PM 17.15 62.87 0.629 8.11 4.1 7.77
6/22/2021 10:15:00 PM 17.1 62.78 0.63 8.07 6.37 7.74
6/22/2021 10:30:00 PM 17.05 62.69 0.629 8.08 8.23 7.66
6/22/2021 10:45:00 PM 16.99 62.582 0.627 8.08 4.39 7.66
6/22/2021 11:00:00 PM 16.93 62.474 0.625 8.08 4.53 7.62
6/22/2021 11:15:00 PM 16.87 62.366 0.62 8.07 5.69 7.57
6/22/2021 11:30:00 PM 16.81 62.258 0.613 8.05 6.41 7.54
6/22/2021 11:45:00 PM 16.75 62.15 0.605 8.04 5.44 7.49
6/23/2021 12:00:00 AM 16.69 62.042 0.597 8.02 8.87 7.44
6/23/2021 12:15:00 AM 16.64 61.952 0.587 8.03 6.19 7.4
6/23/2021 12:30:00 AM 16.58 61.844 0.577 8.03 5.84 7.36
6/23/2021 12:45:00 AM 16.53 61.754 0.568 8 6.79 7.33
6/23/2021 1:00:00 AM 16.49 61.682 0.56 7.98 5.48 7.31
6/23/2021 1:15:00 AM 16.44 61.592 0.552 7.97 5.63 7.28
6/23/2021 1:30:00 AM 16.4 61.52 0.545 7.95 6.52 7.28
6/23/2021 1:45:00 AM 16.35 61.43 0.539 7.94 6.98 7.27
6/23/2021 2:00:00 AM 16.3 61.34 0.536 7.93 7.88 7.26
6/23/2021 2:15:00 AM 16.25 61.25 0.533 7.92 5.51 7.27
6/23/2021 2:30:00 AM 16.2 61.16 0.531 7.91 6.12 7.29
6/23/2021 2:45:00 AM 16.15 61.07 0.531 7.91 10.38 7.29
6/23/2021 3:00:00 AM 16.09 60.962 0.531 7.91 5.87 7.32
6/23/2021 3:15:00 AM 16.04 60.872 0.532 7.9 5.25 7.34
6/23/2021 3:30:00 AM 15.98 60.764 0.534 7.91 5.1 7.36
6/23/2021 3:45:00 AM 15.93 60.674 0.536 7.91 4.89 7.38
6/23/2021 4:00:00 AM 15.87 60.566 0.538 7.91 7.43 7.41
6/23/2021 4:15:00 AM 15.82 60.476 0.541 7.92 8.24 7.44
6/23/2021 4:30:00 AM 15.76 60.368 0.543 7.92 5.65 7.46
6/23/2021 4:45:00 AM 15.7 60.26 0.546 7.93 5.35 7.5
6/23/2021 5:00:00 AM 15.64 60.152 0.549 7.92 7.35 7.53
6/23/2021 5:15:00 AM 15.58 60.044 0.552 7.92 5.08 7.55
6/23/2021 5:30:00 AM 15.52 59.936 0.554 7.93 5.44 7.57
6/23/2021 5:45:00 AM 15.46 59.828 0.556 7.92 5.94 7.61
6/23/2021 6:00:00 AM 15.41 59.738 0.559 7.92 4.96 7.65
6/23/2021 6:15:00 AM 15.35 59.63 0.562 7.93 4.82 7.69
6/23/2021 6:30:00 AM 15.31 59.558 0.565 7.94 5.17 7.75
6/23/2021 6:45:00 AM 15.27 59.486 0.568 7.95 3.65 7.82
6/23/2021 7:00:00 AM 15.24 59.432 0.57 7.94 6.76 7.91
6/23/2021 7:15:00 AM 15.22 59.396 0.574 7.96 3.65 8.02
6/23/2021 7:30:00 AM 15.22 59.396 0.576 7.97 3.04 8.17
6/23/2021 7:45:00 AM 15.23 59.414 0.579 7.98 11.74 8.32
6/23/2021 8:00:00 AM 15.26 59.468 0.581 8 2.88 8.53
6/23/2021 8:15:00 AM 15.3 59.54 0.583 8.02 2.88 8.74
6/23/2021 8:30:00 AM 15.36 59.648 0.585 8.05 4.01 8.98
6/23/2021 8:45:00 AM 15.44 59.792 0.586 8.06 2.7 9.23
6/23/2021 9:00:00 AM 15.53 59.954 0.587 8.09 3.39 9.49
6/23/2021 9:15:00 AM 15.64 60.152 0.588 8.11 2.56 9.72
6/23/2021 9:30:00 AM 15.74 60.332 0.59 8.14 3.03 9.94
6/23/2021 9:45:00 AM 15.86 60.548 0.591 8.17 2.46 10.14
6/23/2021 10:00:00 AM 15.99 60.782 0.592 8.19 1.93 10.34
6/23/2021 10:15:00 AM 16.12 61.016 0.594 8.21 3.02 10.55
6/23/2021 10:30:00 AM 16.26 61.268 0.596 8.24 2.13 10.73
6/23/2021 10:45:00 AM 16.38 61.484 0.598 8.26 2.23 10.91
6/23/2021 11:00:00 AM 16.51 61.718 0.6 8.29 2.21 11.06
6/23/2021 11:15:00 AM 16.66 61.988 0.602 8.3 1.83 11.21
6/23/2021 11:30:00 AM 16.79 62.222 0.604 8.32 2.61 11.35
6/23/2021 11:45:00 AM 16.93 62.474 0.606 8.33 1.77 11.48
6/23/2021 12:00:00 PM 17.07 62.726 0.608 8.34 1.76 11.61
6/23/2021 12:15:00 PM 17.2 62.96 0.61 8.36 2.16 11.72
6/23/2021 12:30:00 PM 17.34 63.212 0.612 8.39 2.03 11.87
6/23/2021 12:45:00 PM 17.46 63.428 0.614 8.4 2.31 11.96
6/23/2021 1:00:00 PM 17.54 63.572 0.616 8.39 1.66 12.02
6/23/2021 1:15:00 PM 17.55 63.59 0.617 8.37 2.31 11.93
6/23/2021 1:30:00 PM 17.59 63.662 0.619 8.4 1.91 11.86
6/23/2021 1:45:00 PM 17.73 63.914 0.621 8.41 3.19 11.95
6/23/2021 2:00:00 PM 17.88 64.184 0.623 8.44 2.37 12.14
6/23/2021 2:15:00 PM 17.95 64.31 0.625 8.45 2.54 12.18
6/23/2021 2:30:00 PM 18 64.4 0.627 8.46 2.32 12.15
6/23/2021 2:45:00 PM 18.07 64.526 0.629 8.47 1.88 12.19
6/23/2021 3:00:00 PM 18.18 64.724 0.63 8.48 2.8 12.27
6/23/2021 3:15:00 PM 18.21 64.778 0.631 8.49 3.49 12.25
6/23/2021 3:30:00 PM 18.21 64.778 0.633 8.49 2.99 12.2
6/23/2021 3:45:00 PM 18.26 64.868 0.633 8.49 2.19 12.2
6/23/2021 4:00:00 PM 18.22 64.796 0.633 8.49 2.45 12.1
6/23/2021 4:15:00 PM 18.17 64.706 0.634 8.48 6.21 12.01
6/23/2021 4:30:00 PM 18.11 64.598 0.635 8.47 2.17 11.88
6/23/2021 4:45:00 PM 18.04 64.472 0.635 8.46 2.78 11.74
6/23/2021 5:00:00 PM 18.03 64.454 0.636 8.46 1.97 11.68
6/23/2021 5:15:00 PM 18.02 64.436 0.636 8.46 1.59 11.59
6/23/2021 5:30:00 PM 18.01 64.418 0.637 8.45 3.6 11.51
6/23/2021 5:45:00 PM 17.95 64.31 0.637 8.45 4.01 11.3
6/23/2021 6:00:00 PM 17.88 64.184 0.637 8.44 1.99 11.08
6/23/2021 6:15:00 PM 17.81 64.058 0.638 8.43 2.14 10.87
6/23/2021 6:30:00 PM 17.74 63.932 0.638 8.41 2.56 10.68
6/23/2021 6:45:00 PM 17.67 63.806 0.638 8.39 2.83 10.48
6/23/2021 7:00:00 PM 17.59 63.662 0.638 8.37 2.21 10.27
6/23/2021 7:15:00 PM 17.51 63.518 0.638 8.35 2.29 10.05
6/23/2021 7:30:00 PM 17.44 63.392 0.638 8.34 2.04 9.84
6/23/2021 7:45:00 PM 17.38 63.284 0.638 8.31 3.25 9.65
6/23/2021 8:00:00 PM 17.32 63.176 0.638 8.3 2.77 9.48
6/23/2021 8:15:00 PM 17.28 63.104 0.639 8.29 3.97 9.34
6/23/2021 8:30:00 PM 17.24 63.032 0.639 8.27 1.84 9.19
6/23/2021 8:45:00 PM 17.2 62.96 0.639 8.27 5.14 9.05
6/23/2021 9:00:00 PM 17.16 62.888 0.639 8.26 2.85 8.92
6/23/2021 9:15:00 PM 17.11 62.798 0.64 8.24 2.53 8.82
6/23/2021 9:30:00 PM 17.06 62.708 0.641 8.22 3.2 8.72
6/23/2021 9:45:00 PM 17.01 62.618 0.641 8.21 4.01 8.63
6/23/2021 10:00:00 PM 16.95 62.51 0.642 8.2 2.3 8.55
6/23/2021 10:15:00 PM 16.89 62.402 0.642 8.19 3.82 8.48
6/23/2021 10:30:00 PM 16.84 62.312 0.643 8.19 3.17 8.42
6/23/2021 10:45:00 PM 16.79 62.222 0.643 8.17 3.34 8.35
6/23/2021 11:00:00 PM 16.74 62.132 0.643 8.17 3.96 8.3
6/23/2021 11:15:00 PM 16.7 62.06 0.644 8.15 3.31 8.24
6/23/2021 11:30:00 PM 16.66 61.988 0.644 8.15 7.33 8.21
6/23/2021 11:45:00 PM 16.63 61.934 0.645 8.14 4.81 8.17
6/24/2021 12:00:00 AM 16.59 61.862 0.646 8.13 7.5 8.15
6/24/2021 12:15:00 AM 16.56 61.808 0.646 8.12 4.7 8.1
6/24/2021 12:30:00 AM 16.53 61.754 0.646 8.13 3.18 8.08
6/24/2021 12:45:00 AM 16.49 61.682 0.646 8.13 3.48 8.06
6/24/2021 1:00:00 AM 16.45 61.61 0.647 8.1 4.28 8.03
6/24/2021 1:15:00 AM 16.41 61.538 0.647 8.11 2.67 8.01
6/24/2021 1:30:00 AM 16.37 61.466 0.647 8.11 3.43 8
6/24/2021 1:45:00 AM 16.32 61.376 0.648 8.1 5.17 7.99
6/24/2021 2:00:00 AM 16.27 61.286 0.648 8.09 2.97 7.97
6/24/2021 2:15:00 AM 16.23 61.214 0.649 8.08 3.31 7.95
6/24/2021 2:30:00 AM 16.18 61.124 0.65 8.09 3.65 7.93
6/24/2021 2:45:00 AM 16.14 61.052 0.65 8.08 4.44 7.93
6/24/2021 3:00:00 AM 16.09 60.962 0.652 8.08 3.45 7.93
6/24/2021 3:15:00 AM 16.05 60.89 0.652 8.07 5.12 7.92
6/24/2021 3:30:00 AM 16.01 60.818 0.653 8.07 4.02 7.91
6/24/2021 3:45:00 AM 15.96 60.728 0.654 8.06 3.26 7.91
6/24/2021 4:00:00 AM 15.92 60.656 0.654 8.06 4.56 7.91
6/24/2021 4:15:00 AM 15.88 60.584 0.655 8.06 4.76 7.91
6/24/2021 4:30:00 AM 15.85 60.53 0.655 8.06 4.43 7.91
6/24/2021 4:45:00 AM 15.81 60.458 0.655 8.06 3.81 7.92
6/24/2021 5:00:00 AM 15.77 60.386 0.655 8.05 4.51 7.92
6/24/2021 5:15:00 AM 15.74 60.332 0.655 8.06 4.67 7.93
6/24/2021 5:30:00 AM 15.7 60.26 0.655 8.06 2.62 7.93
6/24/2021 5:45:00 AM 15.67 60.206 0.654 8.06 48 7.93
6/24/2021 6:00:00 AM 15.63 60.134 0.654 8.04 5.17 7.95
6/24/2021 6:15:00 AM 15.6 60.08 0.654 8.06 4.54 8
6/24/2021 6:30:00 AM 15.58 60.044 0.649 8.06 8.44 8.05
6/24/2021 6:45:00 AM 15.56 60.008 0.654 8.05 2.2 8.13
6/24/2021 7:00:00 AM 15.55 59.99 0.654 8.07 2.72 8.22
6/24/2021 7:15:00 AM 15.55 59.99 0.654 8.07 1.43 8.34
6/24/2021 7:30:00 AM 15.55 59.99 0.654 8.07 1.48 8.46
6/24/2021 7:45:00 AM 15.56 60.008 0.654 8.08 1.22 8.63
6/24/2021 8:00:00 AM 15.59 60.062 0.654 8.1 2.32 8.82
6/24/2021 8:15:00 AM 15.64 60.152 0.654 8.11 1.53 9.03
6/24/2021 8:30:00 AM 15.7 60.26 0.655 8.14 1.57 9.24
6/24/2021 8:45:00 AM 15.79 60.422 0.655 8.16 1.97 9.5
6/24/2021 9:00:00 AM 15.89 60.602 0.655 8.18 1.92 9.75
6/24/2021 9:15:00 AM 16 60.8 0.654 8.2 1.86 10
6/24/2021 9:30:00 AM 16.12 61.016 0.654 8.21 2.03 10.24
6/24/2021 9:45:00 AM 16.25 61.25 0.653 8.24 1.34 10.46
6/24/2021 10:00:00 AM 16.39 61.502 0.653 8.27 1.36 10.67
6/24/2021 10:15:00 AM 16.53 61.754 0.653 8.3 1.96 10.86
6/24/2021 10:30:00 AM 16.67 62.006 0.653 8.33 2.1 11.03
6/24/2021 10:45:00 AM 16.78 62.204 0.653 8.35 1.27 11.18
6/24/2021 11:00:00 AM 16.93 62.474 0.653 8.36 1.19 11.34
6/24/2021 11:15:00 AM 17.08 62.744 0.653 8.39 1.13 11.5
6/24/2021 11:30:00 AM 17.25 63.05 0.653 8.42 1.14 11.7
6/24/2021 11:45:00 AM 17.39 63.302 0.653 8.45 1.46 11.85
6/24/2021 12:00:00 PM 17.5 63.5 0.653 8.45 1.52 11.92
6/24/2021 12:15:00 PM 17.67 63.806 0.652 8.48 1.59 12.08
6/24/2021 12:30:00 PM 17.83 64.094 0.652 8.5 1.03 12.22
6/24/2021 12:45:00 PM 17.98 64.364 0.652 8.52 1.93 12.38
6/24/2021 1:00:00 PM 18.14 64.652 0.651 8.54 0.85 12.52
6/24/2021 1:15:00 PM 18.22 64.796 0.651 8.55 1.13 12.54
6/24/2021 1:30:00 PM 18.27 64.886 0.652 8.56 1.59 12.5
6/24/2021 1:45:00 PM 18.27 64.886 0.653 8.56 0.97 12.45
6/24/2021 2:00:00 PM 18.41 65.138 0.654 8.58 0.81 12.62
6/24/2021 2:15:00 PM 18.55 65.39 0.654 8.59 0.97 12.76
6/24/2021 2:30:00 PM 18.67 65.606 0.655 8.59 1.22 12.87
6/24/2021 2:45:00 PM 18.78 65.804 0.656 8.62 1.05 12.92
6/24/2021 3:00:00 PM 18.85 65.93 0.656 8.62 1.28 12.91
6/24/2021 3:15:00 PM 18.85 65.93 0.657 8.62 1.02 12.84
6/24/2021 3:30:00 PM 18.88 65.984 0.658 8.63 0.95 12.82
6/24/2021 3:45:00 PM 18.86 65.948 0.658 8.62 1.13 12.7
6/24/2021 4:00:00 PM 18.84 65.912 0.659 8.61 1.75 12.63
6/24/2021 4:15:00 PM 18.79 65.82201 0.659 8.61 1.73 12.5
6/24/2021 4:30:00 PM 18.73 65.714 0.659 8.6 1.18 12.28
6/24/2021 4:45:00 PM 18.72 65.696 0.658 8.59 1.56 12.15
6/24/2021 5:00:00 PM 18.68 65.624 0.657 8.59 1.55 11.99
6/24/2021 5:15:00 PM 18.66 65.588 0.646 8.57 3.8 11.87
6/24/2021 5:30:00 PM 18.62 65.516 0.634 8.56 1.06 11.76
6/24/2021 5:45:00 PM 18.56 65.408 0.625 8.55 1.15 11.58
6/24/2021 6:00:00 PM 18.49 65.282 0.652 8.54 1.31 11.31
6/24/2021 6:15:00 PM 18.43 65.174 0.655 8.51 1.7 11.1
6/24/2021 6:30:00 PM 18.38 65.084 0.655 8.49 1.1 10.88
6/24/2021 6:45:00 PM 18.33 64.994 0.655 8.48 1.51 10.64
6/24/2021 7:00:00 PM 18.28 64.904 0.655 8.46 0.82 10.43
6/24/2021 7:15:00 PM 18.24 64.832 0.654 8.43 0.96 10.2
6/24/2021 7:30:00 PM 18.2 64.76 0.656 8.41 1.01 9.98
6/24/2021 7:45:00 PM 18.16 64.688 0.656 8.39 1.49 9.77
6/24/2021 8:00:00 PM 18.13 64.634 0.657 8.38 1.5 9.59
6/24/2021 8:15:00 PM 18.09 64.562 0.657 8.35 1.87 9.4
6/24/2021 8:30:00 PM 18.05 64.49 0.657 8.33 1.38 9.23
6/24/2021 8:45:00 PM 18 64.4 0.636 8.32 1.42 9.08
6/24/2021 9:00:00 PM 17.96 64.328 0.656 8.31 1.17 8.92
6/24/2021 9:15:00 PM 17.91 64.238 0.657 8.3 2.34 8.79
6/24/2021 9:30:00 PM 17.86 64.148 0.658 8.28 2.45 8.66
6/24/2021 9:45:00 PM 17.8 64.04 0.658 8.27 1.92 8.55
6/24/2021 10:00:00 PM 17.73 63.914 0.656 8.25 2.37 8.44
6/24/2021 10:15:00 PM 17.67 63.806 0.658 8.24 1.97 8.37
6/24/2021 10:30:00 PM 17.6 63.68 0.658 8.22 11.42 8.29
6/24/2021 10:45:00 PM 17.54 63.572 0.659 8.21 3.56 8.22
6/24/2021 11:00:00 PM 17.48 63.464 0.659 8.2 4.25 8.17
6/24/2021 11:15:00 PM 17.41 63.338 0.659 8.19 2.76 8.12
6/24/2021 11:30:00 PM 17.35 63.23 0.66 8.18 1.69 8.07
6/24/2021 11:45:00 PM 17.3 63.14 0.66 8.17 3.57 8.03
6/25/2021 12:00:00 AM 17.24 63.032 0.66 8.17 4.69 7.99
6/25/2021 12:15:00 AM 17.19 62.942 0.66 8.16 2.17 7.95
6/25/2021 12:30:00 AM 17.14 62.852 0.66 8.15 3.25 7.91
6/25/2021 12:45:00 AM 17.08 62.744 0.66 8.15 3.37 7.9
6/25/2021 1:00:00 AM 17.03 62.654 0.66 8.13 3.49 7.87
6/25/2021 1:15:00 AM 16.97 62.546 0.66 8.12 3.39 7.86
6/25/2021 1:30:00 AM 16.92 62.456 0.659 8.12 2.42 7.83
6/25/2021 1:45:00 AM 16.86 62.348 0.66 8.11 3.23 7.81
6/25/2021 2:00:00 AM 16.81 62.258 0.66 8.12 1.79 7.79
6/25/2021 2:15:00 AM 16.76 62.168 0.659 8.11 4.7 7.77
6/25/2021 2:30:00 AM 16.7 62.06 0.66 8.11 2.81 7.75
6/25/2021 2:45:00 AM 16.64 61.952 0.66 8.1 2.39 7.72
6/25/2021 3:00:00 AM 16.57 61.826 0.662 8.09 2.93 7.7
6/25/2021 3:15:00 AM 16.5 61.7 0.663 8.09 3.3 7.67
6/25/2021 3:30:00 AM 16.44 61.592 0.664 8.08 6.84 7.65
6/25/2021 3:45:00 AM 16.38 61.484 0.665 8.08 5.39 7.66
6/25/2021 4:00:00 AM 16.32 61.376 0.666 8.09 3.54 7.65
6/25/2021 4:15:00 AM 16.27 61.286 0.666 8.08 4.28 7.65
6/25/2021 4:30:00 AM 16.23 61.214 0.666 8.07 6.45 7.65
6/25/2021 4:45:00 AM 16.2 61.16 0.665 8.07 2.92 7.67
6/25/2021 5:00:00 AM 16.17 61.106 0.664 8.08 11.6 7.71
6/25/2021 5:15:00 AM 16.14 61.052 0.663 8.06 4.13 7.72
6/25/2021 5:30:00 AM 16.1 60.98 0.663 8.07 5.97 7.74
6/25/2021 5:45:00 AM 16.07 60.926 0.662 8.07 4.21 7.75
6/25/2021 6:00:00 AM 16.03 60.854 0.662 8.08 4.04 7.77
6/25/2021 6:15:00 AM 15.99 60.782 0.662 8.07 2.43 7.81
6/25/2021 6:30:00 AM 15.96 60.728 0.662 8.07 3.64 7.86
6/25/2021 6:45:00 AM 15.94 60.692 0.661 8.07 1.8 7.94
6/25/2021 7:00:00 AM 15.91 60.638 0.661 8.06 2.75 8.03
6/25/2021 7:15:00 AM 15.9 60.62 0.661 8.08 2.34 8.12
6/25/2021 7:30:00 AM 15.9 60.62 0.66 8.1 2.61 8.27
6/25/2021 7:45:00 AM 15.92 60.656 0.66 8.11 2.49 8.46
6/25/2021 8:00:00 AM 15.96 60.728 0.66 8.13 1.34 8.67
6/25/2021 8:15:00 AM 16 60.8 0.66 8.15 1.53 8.9
6/25/2021 8:30:00 AM 16.07 60.926 0.66 8.16 1.56 9.16
6/25/2021 8:45:00 AM 16.15 61.07 0.66 8.18 2.03 9.44
6/25/2021 9:00:00 AM 16.24 61.232 0.66 8.22 1.28 9.74
6/25/2021 9:15:00 AM 16.35 61.43 0.66 8.25 1.31 10.01
6/25/2021 9:30:00 AM 16.46 61.628 0.66 8.27 1.7 10.27
6/25/2021 9:45:00 AM 16.56 61.808 0.66 8.3 1.42 10.5
6/25/2021 10:00:00 AM 16.67 62.006 0.659 8.32 2.17 10.71
6/25/2021 10:15:00 AM 16.8 62.24 0.659 8.35 0.96 10.94
6/25/2021 10:30:00 AM 16.93 62.474 0.658 8.38 0.96 11.17
6/25/2021 10:45:00 AM 17.07 62.726 0.657 8.4 0.91 11.37
6/25/2021 11:00:00 AM 17.22 62.996 0.657 8.42 0.96 11.57
6/25/2021 11:15:00 AM 17.37 63.266 0.656 8.45 1.07 11.76
6/25/2021 11:30:00 AM 17.5 63.5 0.656 8.48 0.85 11.92
6/25/2021 11:45:00 AM 17.6 63.68 0.655 8.49 1.25 11.98
6/25/2021 12:00:00 PM 17.77 63.986 0.655 8.51 2.15 12.17
6/25/2021 12:15:00 PM 17.92 64.256 0.655 8.53 1.65 12.33
6/25/2021 12:30:00 PM 18.05 64.49 0.654 8.55 1.06 12.43
6/25/2021 12:45:00 PM 18.18 64.724 0.653 8.56 1.03 12.54
6/25/2021 1:00:00 PM 18.34 65.012 0.653 8.59 0.97 12.66
6/25/2021 1:15:00 PM 18.5 65.3 0.653 8.6 1.57 12.78
6/25/2021 1:30:00 PM 18.63 65.534 0.653 8.61 1.15 12.86
6/25/2021 1:45:00 PM 18.77 65.786 0.653 8.62 20.94 12.89
6/25/2021 2:00:00 PM 18.9 66.02 0.652 8.64 0.8 12.96
6/25/2021 2:15:00 PM 19.01 66.218 0.653 8.65 1.23 12.99
6/25/2021 2:30:00 PM 19.09 66.362 0.653 8.65 0.72 13
6/25/2021 2:45:00 PM 19.13 66.434 0.653 8.66 3.06 13.02
6/25/2021 3:00:00 PM 19.16 66.488 0.653 8.66 2.05 12.98
6/25/2021 3:15:00 PM 19.16 66.488 0.653 8.66 1.74 12.94
6/25/2021 3:30:00 PM 19.12 66.416 0.653 8.65 1.06 12.87
6/25/2021 3:45:00 PM 19.07 66.326 0.653 8.66 1.43 12.78
6/25/2021 4:00:00 PM 19.01 66.218 0.654 8.64 7.61 12.67
6/25/2021 4:15:00 PM 18.98 66.164 0.653 8.64 1.31 12.59
6/25/2021 4:30:00 PM 18.98 66.164 0.654 8.64 6.12 12.57
6/25/2021 4:45:00 PM 18.97 66.146 0.654 8.65 2.32 12.46
6/25/2021 5:00:00 PM 18.96 66.128 0.653 8.64 1.02 12.35
6/25/2021 5:15:00 PM 18.98 66.164 0.653 8.64 3.09 12.22
6/25/2021 5:30:00 PM 18.99 66.182 0.654 8.63 0.94 12.03
6/25/2021 5:45:00 PM 18.98 66.164 0.655 8.61 1.77 11.82
6/25/2021 6:00:00 PM 18.95 66.11 0.655 8.61 1.58 11.58
6/25/2021 6:15:00 PM 18.91 66.038 0.656 8.58 1.25 11.34
6/25/2021 6:30:00 PM 18.86 65.948 0.657 8.56 1.27 11.09
6/25/2021 6:45:00 PM 18.78 65.804 0.658 8.53 1.08 10.81
6/25/2021 7:00:00 PM 18.69 65.642 0.658 8.51 1.51 10.49
6/25/2021 7:15:00 PM 18.62 65.516 0.659 8.48 1.1 10.26
6/25/2021 7:30:00 PM 18.54 65.372 0.66 8.44 1.47 10.02
6/25/2021 7:45:00 PM 18.48 65.264 0.659 8.43 0.94 9.8
6/25/2021 8:00:00 PM 18.43 65.174 0.659 8.41 0.99 9.6
6/25/2021 8:15:00 PM 18.39 65.102 0.658 8.39 1.59 9.43
6/25/2021 8:30:00 PM 18.35 65.03 0.658 8.37 2.55 9.26
6/25/2021 8:45:00 PM 18.3 64.94 0.658 8.35 1.28 9.11
6/25/2021 9:00:00 PM 18.26 64.868 0.658 8.34 2.2 8.95
6/25/2021 9:15:00 PM 18.22 64.796 0.658 8.32 1.97 8.81
6/25/2021 9:30:00 PM 18.17 64.706 0.658 8.31 2.73 8.67
6/25/2021 9:45:00 PM 18.13 64.634 0.658 8.3 2.12 8.54
6/25/2021 10:00:00 PM 18.08 64.544 0.658 8.3 2.8 8.42
6/25/2021 10:15:00 PM 18.03 64.454 0.658 8.27 2.21 8.34
6/25/2021 10:30:00 PM 17.99 64.382 0.658 8.25 2.98 8.24
6/25/2021 10:45:00 PM 17.94 64.292 0.658 8.24 2.76 8.17
6/25/2021 11:00:00 PM 17.88 64.184 0.658 8.23 2.51 8.1
6/25/2021 11:15:00 PM 17.83 64.094 0.658 8.22 3.89 8.03
6/25/2021 11:30:00 PM 17.77 63.986 0.658 8.21 2.95 8
6/25/2021 11:45:00 PM 17.72 63.896 0.658 8.19 2.25 7.96
6/26/2021 12:00:00 AM 17.67 63.806 0.659 8.18 4.67 7.92
6/26/2021 12:15:00 AM 17.63 63.734 0.659 8.17 2.75 7.89
6/26/2021 12:30:00 AM 17.58 63.644 0.659 8.17 2.29 7.85
6/26/2021 12:45:00 AM 17.54 63.572 0.659 8.16 3.63 7.82
6/26/2021 1:00:00 AM 17.5 63.5 0.66 8.16 3.75 7.79
6/26/2021 1:15:00 AM 17.46 63.428 0.66 8.15 4.22 7.76
6/26/2021 1:30:00 AM 17.43 63.374 0.66 8.14 3.54 7.73
6/26/2021 1:45:00 AM 17.4 63.32 0.661 8.13 3.1 7.71
6/26/2021 2:00:00 AM 17.37 63.266 0.661 8.12 3.01 7.69
6/26/2021 2:15:00 AM 17.34 63.212 0.66 8.12 2.28 7.67
6/26/2021 2:30:00 AM 17.3 63.14 0.66 8.12 3.84 7.65
6/26/2021 2:45:00 AM 17.27 63.086 0.66 8.12 3.2 7.62
6/26/2021 3:00:00 AM 17.25 63.05 0.661 8.1 5.5 7.61
6/26/2021 3:15:00 AM 17.23 63.014 0.661 8.1 1.92 7.59
6/26/2021 3:30:00 AM 17.21 62.978 0.661 8.11 3.51 7.56
6/26/2021 3:45:00 AM 17.2 62.96 0.662 8.1 2.71 7.56
6/26/2021 4:00:00 AM 17.18 62.924 0.662 8.1 2.59 7.55
6/26/2021 4:15:00 AM 17.16 62.888 0.661 8.1 447.4 7.52
6/26/2021 4:30:00 AM 17.15 62.87 0.662 8.09 2.96 7.52
6/26/2021 4:45:00 AM 17.14 62.852 0.662 8.09 2.56 7.52
6/26/2021 5:00:00 AM 17.12 62.816 0.662 8.09 2.36 7.51
6/26/2021 5:15:00 AM 17.1 62.78 0.662 8.08 15.19 7.5
6/26/2021 5:30:00 AM 17.09 62.762 0.662 8.08 2.32 7.5
6/26/2021 5:45:00 AM 17.07 62.726 0.662 8.08 2.6 7.51
6/26/2021 6:00:00 AM 17.05 62.69 0.661 8.07 5.72 7.51
6/26/2021 6:15:00 AM 17.03 62.654 0.662 8.07 2.01 7.54
6/26/2021 6:30:00 AM 17.01 62.618 0.662 8.07 2.58 7.6
6/26/2021 6:45:00 AM 16.99 62.582 0.662 8.07 2.16 7.67
6/26/2021 7:00:00 AM 16.99 62.582 0.662 8.07 1.49 7.79
6/26/2021 7:15:00 AM 16.99 62.582 0.662 8.09 2.22 7.94
6/26/2021 7:30:00 AM 17.01 62.618 0.662 8.08 2.57 8.14
6/26/2021 7:45:00 AM 17.03 62.654 0.661 8.1 2.51 8.32
6/26/2021 8:00:00 AM 17.04 62.672 0.661 8.12 1.56 8.44
6/26/2021 8:15:00 AM 17.07 62.726 0.661 8.13 1.53 8.57
6/26/2021 8:30:00 AM 17.13 62.834 0.66 8.15 1.08 8.84
6/26/2021 8:45:00 AM 17.22 62.996 0.66 8.17 1.46 9.16
6/26/2021 9:00:00 AM 17.32 63.176 0.659 8.21 1.29 9.44
6/26/2021 9:15:00 AM 17.43 63.374 0.659 8.23 1.54 9.75
6/26/2021 9:30:00 AM 17.51 63.518 0.658 8.26 1.27 10.01
6/26/2021 9:45:00 AM 17.55 63.59 0.658 8.28 1.19 10.11
6/26/2021 10:00:00 AM 17.57 63.626 0.658 8.28 1.01 10.13
6/26/2021 10:15:00 AM 17.58 63.644 0.658 8.29 1.37 10.09
6/26/2021 10:30:00 AM 17.66 63.788 0.657 8.31 0.96 10.27
6/26/2021 10:45:00 AM 17.77 63.986 0.657 8.33 1.19 10.5
6/26/2021 11:00:00 AM 17.92 64.256 0.657 8.36 1.33 10.73
6/26/2021 11:15:00 AM 18.13 64.634 0.657 8.39 1.78 11.14
6/26/2021 11:30:00 AM 18.28 64.904 0.657 8.42 2.45 11.38
6/26/2021 11:45:00 AM 18.44 65.192 0.657 8.45 1.47 11.57
6/26/2021 12:00:00 PM 18.55 65.39 0.656 8.46 0.75 11.69
6/26/2021 12:15:00 PM 18.73 65.714 0.656 8.49 1.63 11.85
6/26/2021 12:30:00 PM 18.79 65.82201 0.657 8.51 1.28 11.9
6/26/2021 12:45:00 PM 18.81 65.858 0.656 8.51 1.16 11.87
6/26/2021 1:00:00 PM 18.81 65.858 0.656 8.51 1.56 11.74
6/26/2021 1:15:00 PM 18.79 65.82201 0.657 8.5 1.25 11.65
6/26/2021 1:30:00 PM 18.87 65.966 0.656 8.51 1.11 11.69
6/26/2021 1:45:00 PM 18.99 66.182 0.656 8.53 0.81 11.89
6/26/2021 2:00:00 PM 19.03 66.254 0.656 8.54 1.25 11.94
6/26/2021 2:15:00 PM 18.98 66.164 0.656 8.53 1.28 11.75
6/26/2021 2:30:00 PM 18.95 66.11 0.655 8.52 2.12 11.59
6/26/2021 2:45:00 PM 18.89 66.002 0.655 8.51 1.18 11.47
6/26/2021 3:00:00 PM 18.84 65.912 0.654 8.51 1.46 11.38
6/26/2021 3:15:00 PM 18.8 65.84 0.654 8.51 1.19 11.35
6/26/2021 3:30:00 PM 18.81 65.858 0.653 8.51 1.7 11.38
6/26/2021 3:45:00 PM 18.87 65.966 0.652 8.52 1.69 11.56
6/26/2021 4:00:00 PM 18.9 66.02 0.651 8.54 2.68 11.7
6/26/2021 4:15:00 PM 18.93 66.074 0.651 8.56 1.47 11.74
6/26/2021 4:30:00 PM 19.03 66.254 0.651 8.58 1.25 11.84
6/26/2021 4:45:00 PM 19.09 66.362 0.65 8.58 1.39 11.88
6/26/2021 5:00:00 PM 19.13 66.434 0.651 8.58 2.13 11.83
6/26/2021 5:15:00 PM 19.18 66.524 0.651 8.58 1.9 11.77
6/26/2021 5:30:00 PM 19.19 66.542 0.65 8.58 1.63 11.64
6/26/2021 5:45:00 PM 19.19 66.542 0.651 8.58 1.78 11.5
6/26/2021 6:00:00 PM 19.17 66.506 0.651 8.57 1.33 11.38
6/26/2021 6:15:00 PM 19.16 66.488 0.651 8.56 1.35 11.24
6/26/2021 6:30:00 PM 19.13 66.434 0.651 8.54 1.32 11.01
6/26/2021 6:45:00 PM 19.11 66.398 0.652 8.52 2.22 10.79
6/26/2021 7:00:00 PM 19.07 66.326 0.652 8.49 2.12 10.52
6/26/2021 7:15:00 PM 19.02 66.236 0.652 8.48 1.8 10.28
6/26/2021 7:30:00 PM 18.98 66.164 0.652 8.46 2.38 10.04
6/26/2021 7:45:00 PM 18.94 66.092 0.653 8.44 1.75 9.82
6/26/2021 8:00:00 PM 18.91 66.038 0.653 8.41 1.91 9.61
6/26/2021 8:15:00 PM 18.87 65.966 0.653 8.39 1.73 9.42
6/26/2021 8:30:00 PM 18.84 65.912 0.653 8.37 2.07 9.21
6/26/2021 8:45:00 PM 18.81 65.858 0.654 8.35 1.62 9.02
6/26/2021 9:00:00 PM 18.78 65.804 0.654 8.33 1.47 8.83
6/26/2021 9:15:00 PM 18.76 65.768 0.654 8.31 4.12 8.67
6/26/2021 9:30:00 PM 18.72 65.696 0.654 8.29 4.66 8.52
6/26/2021 9:45:00 PM 18.69 65.642 0.654 8.27 2.66 8.39
6/26/2021 10:00:00 PM 18.65 65.57 0.654 8.26 2.76 8.3
6/26/2021 10:15:00 PM 18.62 65.516 0.654 8.25 4.81 8.21
6/26/2021 10:30:00 PM 18.58 65.444 0.654 8.23 5.44 8.14
6/26/2021 10:45:00 PM 18.54 65.372 0.653 8.22 3.41 8.07
6/26/2021 11:00:00 PM 18.5 65.3 0.654 8.2 4.52 8.01
6/26/2021 11:15:00 PM 18.47 65.246 0.655 8.18 2.95 7.95
6/26/2021 11:30:00 PM 18.43 65.174 0.655 8.17 4.76 7.9
6/26/2021 11:45:00 PM 18.4 65.12 0.655 8.17 4.89 7.86
6/27/2021 12:00:00 AM 18.37 65.066 0.655 8.17 3.24 7.83
6/27/2021 12:15:00 AM 18.35 65.03 0.656 8.15 3.78 7.77
6/27/2021 12:30:00 AM 18.33 64.994 0.656 8.15 2.79 7.74
6/27/2021 12:45:00 AM 18.31 64.958 0.656 8.13 3.04 7.72
6/27/2021 1:00:00 AM 18.29 64.922 0.655 8.14 5.14 7.68
6/27/2021 1:15:00 AM 18.27 64.886 0.656 8.14 5.21 7.66
6/27/2021 1:30:00 AM 18.25 64.85 0.656 8.13 3.9 7.63
6/27/2021 1:45:00 AM 18.22 64.796 0.656 8.12 4.47 7.61
6/27/2021 2:00:00 AM 18.2 64.76 0.656 8.12 3.93 7.58
6/27/2021 2:15:00 AM 18.17 64.706 0.657 8.11 3.61 7.56
6/27/2021 2:30:00 AM 18.15 64.67 0.657 8.11 4.04 7.53
6/27/2021 2:45:00 AM 18.13 64.634 0.657 8.09 3.57 7.52
6/27/2021 3:00:00 AM 18.1 64.58 0.657 8.09 3.87 7.48
6/27/2021 3:15:00 AM 18.08 64.544 0.657 8.1 3.3 7.46
6/27/2021 3:30:00 AM 18.05 64.49 0.658 8.09 3.63 7.45
6/27/2021 3:45:00 AM 18.02 64.436 0.658 8.09 3.17 7.42
6/27/2021 4:00:00 AM 17.99 64.382 0.658 8.09 4.15 7.4
6/27/2021 4:15:00 AM 17.96 64.328 0.659 8.08 5.63 7.38
6/27/2021 4:30:00 AM 17.93 64.274 0.659 8.08 4.27 7.36
6/27/2021 4:45:00 AM 17.9 64.22 0.659 8.07 6.79 7.34
6/27/2021 5:00:00 AM 17.88 64.184 0.659 8.07 2.59 7.34
6/27/2021 5:15:00 AM 17.86 64.148 0.66 8.07 3.76 7.32
6/27/2021 5:30:00 AM 17.83 64.094 0.66 8.05 5.37 7.31
6/27/2021 5:45:00 AM 17.82 64.076 0.66 8.05 2.85 7.31
6/27/2021 6:00:00 AM 17.8 64.04 0.66 8.04 3.68 7.32
6/27/2021 6:15:00 AM 17.78 64.004 0.66 8.04 2.41 7.33
6/27/2021 6:30:00 AM 17.76 63.968 0.66 8.05 2.58 7.35
6/27/2021 6:45:00 AM 17.75 63.95 0.66 8.04 5.29 7.41
6/27/2021 7:00:00 AM 17.74 63.932 0.661 8.04 3.61 7.49
6/27/2021 7:15:00 AM 17.73 63.914 0.661 8.04 3.87 7.6
6/27/2021 7:30:00 AM 17.73 63.914 0.66 8.05 2.28 7.72
6/27/2021 7:45:00 AM 17.73 63.914 0.661 8.06 3.35 7.85
6/27/2021 8:00:00 AM 17.74 63.932 0.661 8.07 2.98 8
6/27/2021 8:15:00 AM 17.77 63.986 0.66 8.08 1.8 8.18
6/27/2021 8:30:00 AM 17.8 64.04 0.66 8.09 3.84 8.42
6/27/2021 8:45:00 AM 17.83 64.094 0.659 8.11 2.05 8.62
6/27/2021 9:00:00 AM 17.89 64.202 0.659 8.14 2.74 8.85
6/27/2021 9:15:00 AM 18.01 64.418 0.659 8.17 2.08 9.23
6/27/2021 9:30:00 AM 18.11 64.598 0.658 8.19 1.44 9.56
6/27/2021 9:45:00 AM 18.21 64.778 0.658 8.23 1.88 9.82
6/27/2021 10:00:00 AM 18.35 65.03 0.657 8.26 1.79 10.1
6/27/2021 10:15:00 AM 18.53 65.354 0.657 8.31 1.47 10.5
6/27/2021 10:30:00 AM 18.72 65.696 0.656 8.36 1.45 10.83
6/27/2021 10:45:00 AM 18.88 65.984 0.655 8.37 1.5 11.05
6/27/2021 11:00:00 AM 19 66.2 0.655 8.19 2.21 11.25
6/27/2021 11:15:00 AM 19.06 66.308 0.655 8.43 1.75 11.31
6/27/2021 11:30:00 AM 19.12 66.416 0.655 8.45 1.38 11.37
6/27/2021 11:45:00 AM 19.22 66.596 0.654 8.47 1.39 11.47
6/27/2021 12:00:00 PM 19.4 66.92 0.654 8.48 1.33 11.68
6/27/2021 12:15:00 PM 19.63 67.334 0.653 8.51 1.21 11.97
6/27/2021 12:30:00 PM 19.81 67.658 0.653 8.54 1.36 12.07
6/27/2021 12:45:00 PM 19.98 67.964 0.653 8.56 1.65 12.22
6/27/2021 1:00:00 PM 20.12 68.216 0.653 8.59 1.26 12.32
6/27/2021 1:15:00 PM 20.17 68.306 0.652 8.6 2.07 12.31
6/27/2021 1:30:00 PM 20.26 68.468 0.652 8.61 1.93 12.34
6/27/2021 1:45:00 PM 20.39 68.702 0.652 8.61 1.89 12.46
6/27/2021 2:00:00 PM 20.53 68.954 0.652 8.63 1.37 12.57
6/27/2021 2:15:00 PM 20.58 69.044 0.652 8.63 2.04 12.56
6/27/2021 2:30:00 PM 20.59 69.062 0.652 8.63 1.73 12.51
6/27/2021 2:45:00 PM 20.62 69.116 0.652 8.63 1.47 12.42
6/27/2021 3:00:00 PM 20.59 69.062 0.651 8.62 3.23 12.37
6/27/2021 3:15:00 PM 20.53 68.954 0.651 8.62 1.89 12.21
6/27/2021 3:30:00 PM 20.51 68.918 0.651 8.61 1.44 12.11
6/27/2021 3:45:00 PM 20.51 68.918 0.651 8.61 2.53 12.01
6/27/2021 4:00:00 PM 20.49 68.882 0.651 8.61 1.74 12.01
6/27/2021 4:15:00 PM 20.51 68.918 0.651 8.62 2.08 11.96
6/27/2021 4:30:00 PM 20.54 68.972 0.651 8.61 1.83 11.91
6/27/2021 4:45:00 PM 20.55 68.99 0.651 8.61 1.59 11.8
6/27/2021 5:00:00 PM 20.52 68.936 0.651 8.59 1.92 11.6
6/27/2021 5:15:00 PM 20.49 68.882 0.652 8.58 3.04 11.38
6/27/2021 5:30:00 PM 20.46 68.828 0.652 8.57 1.62 11.15
6/27/2021 5:45:00 PM 20.41 68.738 0.652 8.56 1.64 10.93
6/27/2021 6:00:00 PM 20.37 68.666 0.654 8.56 1.44 10.74
6/27/2021 6:15:00 PM 20.34 68.612 0.653 8.53 1.77 10.57
6/27/2021 6:30:00 PM 20.31 68.558 0.653 8.52 1.77 10.4
6/27/2021 6:45:00 PM 20.28 68.504 0.653 8.5 1.68 10.25
6/27/2021 7:00:00 PM 20.26 68.468 0.653 8.49 1.93 10.09
6/27/2021 7:15:00 PM 20.23 68.414 0.653 8.49 2.58 9.93
6/27/2021 7:30:00 PM 20.2 68.36 0.653 8.47 1.55 9.72
6/27/2021 7:45:00 PM 20.16 68.288 0.653 8.45 1.6 9.53
6/27/2021 8:00:00 PM 20.14 68.252 0.653 8.43 1.64 9.37
6/27/2021 8:15:00 PM 20.11 68.198 0.654 8.42 4.49 9.19
6/27/2021 8:30:00 PM 20.08 68.144 0.652 8.38 2.23 9
6/27/2021 8:45:00 PM 20.05 68.09 0.651 8.37 1.98 8.8
6/27/2021 9:00:00 PM 20.01 68.018 0.654 8.35 3.21 8.64
6/27/2021 9:15:00 PM 19.98 67.964 0.654 8.33 3.45 8.45
6/27/2021 9:30:00 PM 19.94 67.892 0.654 8.3 4.25 8.31
6/27/2021 9:45:00 PM 19.9 67.82 0.654 8.29 3.28 8.19
6/27/2021 10:00:00 PM 19.87 67.766 0.654 8.27 3.76 8.08
6/27/2021 10:15:00 PM 19.83 67.694 0.654 8.26 2.98 8
6/27/2021 10:30:00 PM 19.78 67.604 0.655 8.24 3.58 7.9
6/27/2021 10:45:00 PM 19.74 67.532 0.655 8.22 2.86 7.82
6/27/2021 11:00:00 PM 19.69 67.442 0.655 8.22 4.81 7.76
6/27/2021 11:15:00 PM 19.64 67.352 0.655 8.21 3.5 7.69
6/27/2021 11:30:00 PM 19.59 67.262 0.655 8.19 5.58 7.64
6/27/2021 11:45:00 PM 19.55 67.19 0.655 8.19 4.89 7.59
6/28/2021 12:00:00 AM 19.51 67.118 0.655 8.18 2.96 7.53
6/28/2021 12:15:00 AM 19.47 67.046 0.655 8.17 3.85 7.5
6/28/2021 12:30:00 AM 19.43 66.974 0.656 8.16 2.5 7.45
6/28/2021 12:45:00 AM 19.39 66.902 0.656 8.15 5.14 7.42
6/28/2021 1:00:00 AM 19.35 66.83 0.656 8.14 2.51 7.37
6/28/2021 1:15:00 AM 19.31 66.758 0.656 8.13 4.95 7.33
6/28/2021 1:30:00 AM 19.27 66.686 0.657 8.13 4.63 7.3
6/28/2021 1:45:00 AM 19.23 66.614 0.656 8.13 3.94 7.26
6/28/2021 2:00:00 AM 19.2 66.56 0.656 8.12 3.49 7.22
6/28/2021 2:15:00 AM 19.16 66.488 0.657 8.12 5.22 7.17
6/28/2021 2:30:00 AM 19.13 66.434 0.657 8.12 3.87 7.14
6/28/2021 2:45:00 AM 19.1 66.38 0.658 8.1 2.06 7.1
6/28/2021 3:00:00 AM 19.06 66.308 0.658 8.09 5.81 7.08
6/28/2021 3:15:00 AM 19.03 66.254 0.658 8.09 4.76 7.07
6/28/2021 3:30:00 AM 18.99 66.182 0.659 8.08 3.97 7.05
6/28/2021 3:45:00 AM 18.95 66.11 0.658 8.08 6.14 7.05
6/28/2021 4:00:00 AM 18.91 66.038 0.658 8.07 3.93 7.03
6/28/2021 4:15:00 AM 18.87 65.966 0.659 8.07 3.21 7.03
6/28/2021 4:30:00 AM 18.83 65.894 0.659 8.05 3.63 7.02
6/28/2021 4:45:00 AM 18.78 65.804 0.659 8.05 3.94 7.02
6/28/2021 5:00:00 AM 18.74 65.732 0.659 8.05 2.99 7.02
6/28/2021 5:15:00 AM 18.7 65.66 0.659 8.05 3.94 7.03
6/28/2021 5:30:00 AM 18.66 65.588 0.659 8.04 4.32 7.03
6/28/2021 5:45:00 AM 18.62 65.516 0.659 8.04 3.76 7.04
6/28/2021 6:00:00 AM 18.58 65.444 0.658 8.04 4.17 7.07
6/28/2021 6:15:00 AM 18.55 65.39 0.659 8.04 3.37 7.09
6/28/2021 6:30:00 AM 18.53 65.354 0.659 8.03 2.73 7.13
6/28/2021 6:45:00 AM 18.5 65.3 0.659 8.03 2.52 7.16
6/28/2021 7:00:00 AM 18.48 65.264 0.659 8.03 2.07 7.19
6/28/2021 7:15:00 AM 18.46 65.228 0.659 8.04 2.15 7.23
6/28/2021 7:30:00 AM 18.45 65.21 0.659 8.03 6.39 7.32
6/28/2021 7:45:00 AM 18.44 65.192 0.658 8.04 3.95 7.46
6/28/2021 8:00:00 AM 18.46 65.228 0.658 8.05 2.55 7.68
6/28/2021 8:15:00 AM 18.52 65.336 0.658 8.08 1.97 8.03
6/28/2021 8:30:00 AM 18.6 65.48 0.658 8.1 2.32 8.45
6/28/2021 8:45:00 AM 18.67 65.606 0.657 8.13 1.29 8.75
6/28/2021 9:00:00 AM 18.7 65.66 0.657 8.15 1.85 8.89
6/28/2021 9:15:00 AM 18.77 65.786 0.657 8.17 9.76 9.15
6/28/2021 9:30:00 AM 18.83 65.894 0.657 8.2 1.59 9.42
6/28/2021 9:45:00 AM 18.87 65.966 0.657 8.23 1.9 9.55
6/28/2021 10:00:00 AM 18.92 66.056 0.656 8.25 1.23 9.73
6/28/2021 10:15:00 AM 19 66.2 0.655 8.27 1.72 9.93
6/28/2021 10:30:00 AM 19.12 66.416 0.654 8.29 1.47 10.22
6/28/2021 10:45:00 AM 19.31 66.758 0.653 8.33 1.31 10.62
6/28/2021 11:00:00 AM 19.48 67.064 0.653 8.37 1.58 10.92
6/28/2021 11:15:00 AM 19.66 67.388 0.652 8.4 1.11 11.18
6/28/2021 11:30:00 AM 19.85 67.73 0.652 8.44 1.75 11.42
6/28/2021 11:45:00 AM 20.01 68.018 0.651 8.46 1.41 11.59
6/28/2021 12:00:00 PM 20.13 68.234 0.65 8.49 1.35 11.72
6/28/2021 12:15:00 PM 20.28 68.504 0.65 8.51 1.12 11.84
6/28/2021 12:30:00 PM 20.45 68.81 0.65 8.54 1.13 12.03
6/28/2021 12:45:00 PM 20.63 69.134 0.65 8.56 1.37 12.12
6/28/2021 1:00:00 PM 20.86 69.548 0.65 8.59 2.72 12.35
6/28/2021 1:15:00 PM 21.03 69.854 0.651 8.61 1.48 12.4
6/28/2021 1:30:00 PM 21.08 69.944 0.652 8.61 1.5 12.33
6/28/2021 1:45:00 PM 21.09 69.962 0.653 8.62 1.39 12.17
6/28/2021 2:00:00 PM 21.04 69.872 0.653 8.6 1.31 12.03
6/28/2021 2:15:00 PM 20.99 69.782 0.652 8.59 1 11.87
6/28/2021 2:30:00 PM 20.95 69.71 0.651 8.58 1.53 11.82
6/28/2021 2:45:00 PM 20.94 69.692 0.651 8.59 2.9 11.85
6/28/2021 3:00:00 PM 20.99 69.782 0.651 8.6 1.18 11.88
6/28/2021 3:15:00 PM 20.99 69.782 0.65 8.6 1.22 11.86
6/28/2021 3:30:00 PM 21.05 69.89 0.65 8.61 1.82 11.9
6/28/2021 3:45:00 PM 21.11 69.998 0.651 8.62 2.53 12.03
6/28/2021 4:00:00 PM 21.09 69.962 0.651 8.63 1.85 11.92
6/28/2021 4:15:00 PM 21.05 69.89 0.651 8.62 1.78 11.85
6/28/2021 4:30:00 PM 21.03 69.854 0.651 8.6 1.52 11.65
6/28/2021 4:45:00 PM 20.99 69.782 0.652 8.59 2.11 11.49
6/28/2021 5:00:00 PM 20.97 69.746 0.652 8.58 1.73 11.41
6/28/2021 5:15:00 PM 20.94 69.692 0.652 8.58 1.58 11.27
6/28/2021 5:30:00 PM 20.92 69.656 0.652 8.57 1.44 11.15
6/28/2021 5:45:00 PM 20.93 69.674 0.653 8.57 1.47 11.08
6/28/2021 6:00:00 PM 20.95 69.71 0.653 8.56 1.64 11.01
6/28/2021 6:15:00 PM 20.95 69.71 0.653 8.55 1.62 10.84
6/28/2021 6:30:00 PM 20.91 69.638 0.654 8.53 1.63 10.57
6/28/2021 6:45:00 PM 20.86 69.548 0.654 8.51 2.23 10.32
6/28/2021 7:00:00 PM 20.81 69.458 0.656 8.49 1.6 10.09
6/28/2021 7:15:00 PM 20.76 69.368 0.656 8.47 1.76 9.87
6/28/2021 7:30:00 PM 20.71 69.278 0.656 8.44 2.38 9.59
6/28/2021 7:45:00 PM 20.66 69.188 0.657 8.42 1.66 9.39
6/28/2021 8:00:00 PM 20.62 69.116 0.656 8.39 1.86 9.2
6/28/2021 8:15:00 PM 20.59 69.062 0.658 8.38 1.76 8.99
6/28/2021 8:30:00 PM 20.56 69.008 0.656 8.35 1.84 8.78
6/28/2021 8:45:00 PM 20.53 68.954 0.657 8.32 2.33 8.59
6/28/2021 9:00:00 PM 20.5 68.9 0.657 8.31 2.25 8.43
6/28/2021 9:15:00 PM 20.46 68.828 0.657 8.29 3.1 8.27
6/28/2021 9:30:00 PM 20.42 68.756 0.657 8.27 3.98 8.13
6/28/2021 9:45:00 PM 20.39 68.702 0.657 8.25 5.48 8.01
6/28/2021 10:00:00 PM 20.34 68.612 0.656 8.24 6.6 7.9
6/28/2021 10:15:00 PM 20.3 68.54 0.657 8.23 4.46 7.81
6/28/2021 10:30:00 PM 20.25 68.45 0.657 8.22 8.63 7.72
6/28/2021 10:45:00 PM 20.21 68.378 0.657 8.21 4.01 7.65
6/28/2021 11:00:00 PM 20.16 68.288 0.657 8.2 4.18 7.58
6/28/2021 11:15:00 PM 20.12 68.216 0.656 8.19 4.15 7.53
6/28/2021 11:30:00 PM 20.08 68.144 0.657 8.18 3.2 7.47
6/28/2021 11:45:00 PM 20.03 68.054 0.657 8.19 4.12 7.44
6/29/2021 12:00:00 AM 19.98 67.964 0.657 8.18 4.32 7.39
6/29/2021 12:15:00 AM 19.94 67.892 0.657 8.16 4.64 7.35
6/29/2021 12:30:00 AM 19.89 67.802 0.657 8.16 4.08 7.33
6/29/2021 12:45:00 AM 19.85 67.73 0.657 8.15 3.43 7.3
6/29/2021 1:00:00 AM 19.81 67.658 0.657 8.14 4.06 7.26
6/29/2021 1:15:00 AM 19.76 67.568 0.658 8.13 3.9 7.24
6/29/2021 1:30:00 AM 19.72 67.496 0.658 8.12 5.04 7.22
6/29/2021 1:45:00 AM 19.68 67.424 0.659 8.12 5.29 7.2
6/29/2021 2:00:00 AM 19.63 67.334 0.659 8.11 5.01 7.18
6/29/2021 2:15:00 AM 19.59 67.262 0.659 8.11 4.71 7.15
6/29/2021 2:30:00 AM 19.55 67.19 0.66 8.1 4.63 7.14
6/29/2021 2:45:00 AM 19.51 67.118 0.661 8.1 5.98 7.13
6/29/2021 3:00:00 AM 19.47 67.046 0.662 8.09 3.75 7.11
6/29/2021 3:15:00 AM 19.43 66.974 0.662 8.08 3.7 7.1
6/29/2021 3:30:00 AM 19.39 66.902 0.663 8.08 2.96 7.09
6/29/2021 3:45:00 AM 19.35 66.83 0.663 8.07 3.89 7.09
6/29/2021 4:00:00 AM 19.3 66.74 0.664 8.07 4.35 7.06
6/29/2021 4:15:00 AM 19.26 66.668 0.664 8.06 7.16 7.05
6/29/2021 4:30:00 AM 19.22 66.596 0.664 8.06 4.21 7.05
6/29/2021 4:45:00 AM 19.18 66.524 0.664 8.05 7.06 7.02
6/29/2021 5:00:00 AM 19.15 66.47 0.665 8.05 3.74 7.01
6/29/2021 5:15:00 AM 19.12 66.416 0.665 8.04 4.3 6.98
6/29/2021 5:30:00 AM 19.08 66.344 0.666 8.04 6.87 6.97
6/29/2021 5:45:00 AM 19.05 66.29 0.666 8.03 4.24 6.96
6/29/2021 6:00:00 AM 19.02 66.236 0.666 8.03 2.87 6.97
6/29/2021 6:15:00 AM 18.99 66.182 0.666 8.03 2.88 6.98
6/29/2021 6:30:00 AM 18.96 66.128 0.666 8.03 2.41 7.04
6/29/2021 6:45:00 AM 18.93 66.074 0.666 8.03 1.9 7.1
6/29/2021 7:00:00 AM 18.91 66.038 0.666 8.03 3.63 7.19
6/29/2021 7:15:00 AM 18.9 66.02 0.666 8.03 21.65 7.3
6/29/2021 7:30:00 AM 18.9 66.02 0.666 8.04 8.07 7.46
6/29/2021 7:45:00 AM 18.91 66.038 0.666 8.04 3.62 7.63
6/29/2021 8:00:00 AM 18.93 66.074 0.665 8.07 11.2 7.85
6/29/2021 8:15:00 AM 18.96 66.128 0.665 8.09 1.73 8.11
6/29/2021 8:30:00 AM 19.01 66.218 0.665 8.12 5.51 8.37
6/29/2021 8:45:00 AM 19.08 66.344 0.664 8.13 2.29 8.66
6/29/2021 9:00:00 AM 19.17 66.506 0.663 8.17 3.57 8.97
6/29/2021 9:15:00 AM 19.26 66.668 0.663 8.19 1.51 9.26
6/29/2021 9:30:00 AM 19.37 66.866 0.663 8.23 1.36 9.54
6/29/2021 9:45:00 AM 19.49 67.082 0.662 8.26 1.29 9.81
6/29/2021 10:00:00 AM 19.61 67.298 0.662 8.29 2.21 10.05
6/29/2021 10:15:00 AM 19.74 67.532 0.661 8.32 2.22 10.26
6/29/2021 10:30:00 AM 19.86 67.748 0.661 8.35 1.87 10.47
6/29/2021 10:45:00 AM 20 68 0.66 8.38 3.56 10.71
6/29/2021 11:00:00 AM 20.14 68.252 0.659 8.42 2.54 10.93
6/29/2021 11:15:00 AM 20.28 68.504 0.658 8.44 2.88 11.16
6/29/2021 11:30:00 AM 20.42 68.756 0.656 8.47 1.97 11.39
6/29/2021 11:45:00 AM 20.56 69.008 0.656 8.5 1.52 11.57
6/29/2021 12:00:00 PM 20.69 69.242 0.656 8.52 1.94 11.75
6/29/2021 12:15:00 PM 20.84 69.512 0.655 8.54 1.56 11.89
6/29/2021 12:30:00 PM 20.98 69.764 0.655 8.56 1.5 12
6/29/2021 12:45:00 PM 21.13 70.034 0.655 8.58 1.33 12.14
6/29/2021 1:00:00 PM 21.27 70.286 0.654 8.59 1.29 12.28
6/29/2021 1:15:00 PM 21.37 70.466 0.653 8.61 1.22 12.36
6/29/2021 1:30:00 PM 21.48 70.664 0.653 8.62 1.07 12.39
6/29/2021 1:45:00 PM 21.54 70.772 0.653 8.64 1.08 12.35
6/29/2021 2:00:00 PM 21.62 70.916 0.653 8.63 1.46 12.29
6/29/2021 2:15:00 PM 21.7 71.06 0.654 8.64 1.41 12.32
6/29/2021 2:30:00 PM 21.79 71.222 0.655 8.65 1.66 12.35
6/29/2021 2:45:00 PM 21.82 71.276 0.655 8.65 1.51 12.23
6/29/2021 3:00:00 PM 21.87 71.366 0.655 8.65 1.13 12.3
6/29/2021 3:15:00 PM 21.9 71.42 0.655 8.65 1.52 12.25
6/29/2021 3:30:00 PM 21.99 71.582 0.655 8.66 1.24 12.34
6/29/2021 3:45:00 PM 22.06 71.708 0.656 8.67 1.67 12.36
6/29/2021 4:00:00 PM 22.11 71.798 0.655 8.68 1.38 12.36
6/29/2021 4:15:00 PM 22.13 71.834 0.654 8.68 2 12.29
6/29/2021 4:30:00 PM 22.11 71.798 0.657 8.67 1.13 12.17
6/29/2021 4:45:00 PM 22.07 71.726 0.658 8.66 6.87 11.95
6/29/2021 5:00:00 PM 22.07 71.726 0.659 8.64 1.63 11.82
6/29/2021 5:15:00 PM 22.05 71.69 0.659 8.64 2.1 11.66
6/29/2021 5:30:00 PM 21.96 71.528 0.661 8.62 1.62 11.37
6/29/2021 5:45:00 PM 21.87 71.366 0.659 8.59 2.48 11.09
6/29/2021 6:00:00 PM 21.79 71.222 0.659 8.56 1.95 10.82
6/29/2021 6:15:00 PM 21.7 71.06 0.659 8.55 1.41 10.61
6/29/2021 6:30:00 PM 21.59 70.862 0.657 8.54 2.38 10.39
6/29/2021 6:45:00 PM 21.48 70.664 0.657 8.51 1.7 10.18
6/29/2021 7:00:00 PM 21.38 70.484 0.656 8.49 1.59 9.94
6/29/2021 7:15:00 PM 21.28 70.304 0.656 8.47 1.86 9.68
6/29/2021 7:30:00 PM 21.19 70.142 0.656 8.44 3.13 9.44
6/29/2021 7:45:00 PM 21.12 70.016 0.656 8.42 1.92 9.22
6/29/2021 8:00:00 PM 21.05 69.89 0.656 8.39 2.02 9.01
6/29/2021 8:15:00 PM 20.99 69.782 0.656 8.36 1.66 8.8
6/29/2021 8:30:00 PM 20.94 69.692 0.656 8.34 1.56 8.61
6/29/2021 8:45:00 PM 20.88 69.584 0.656 8.31 2.13 8.44
6/29/2021 9:00:00 PM 20.84 69.512 0.656 8.3 2.47 8.26
6/29/2021 9:15:00 PM 20.79 69.422 0.655 8.29 3.04 8.11
6/29/2021 9:30:00 PM 20.75 69.35 0.656 8.25 2.92 7.98
6/29/2021 9:45:00 PM 20.7 69.26 0.656 8.25 4.07 7.86
6/29/2021 10:00:00 PM 20.65 69.17 0.656 8.24 1.95 7.75
6/29/2021 10:15:00 PM 20.61 69.098 0.656 8.22 3.7 7.67
6/29/2021 10:30:00 PM 20.56 69.008 0.656 8.21 3.15 7.6
6/29/2021 10:45:00 PM 20.52 68.936 0.656 8.21 2.95 7.54
6/29/2021 11:00:00 PM 20.47 68.846 0.656 8.2 4.86 7.47
6/29/2021 11:15:00 PM 20.42 68.756 0.656 8.19 2.59 7.42
6/29/2021 11:30:00 PM 20.38 68.684 0.656 8.17 3.79 7.35
6/29/2021 11:45:00 PM 20.33 68.594 0.656 8.17 3.23 7.3
6/30/2021 12:00:00 AM 20.29 68.522 0.656 8.15 2.2 7.25
6/30/2021 12:15:00 AM 20.25 68.45 0.657 8.15 2.95 7.2
6/30/2021 12:30:00 AM 20.22 68.396 0.658 8.14 4.55 7.16
6/30/2021 12:45:00 AM 20.2 68.36 0.659 8.13 2.42 7.09
6/30/2021 1:00:00 AM 20.19 68.342 0.66 8.12 4.6 7.03
6/30/2021 1:15:00 AM 20.18 68.324 0.661 8.11 3.53 6.98
6/30/2021 1:30:00 AM 20.15 68.27 0.662 8.11 2.85 6.95
6/30/2021 1:45:00 AM 20.12 68.216 0.663 8.09 3.52 6.92
6/30/2021 2:00:00 AM 20.08 68.144 0.664 8.09 2.89 6.89
6/30/2021 2:15:00 AM 20.03 68.054 0.663 8.07 3.7 6.88
6/30/2021 2:30:00 AM 19.96 67.92799 0.662 8.06 3.64 6.9
6/30/2021 2:45:00 AM 19.89 67.802 0.661 8.06 4.48 6.92
6/30/2021 3:00:00 AM 19.83 67.694 0.66 8.05 2.95 6.92
6/30/2021 3:15:00 AM 19.77 67.586 0.66 8.05 4.16 6.94
6/30/2021 3:30:00 AM 19.71 67.478 0.66 8.05 3.43 6.94
6/30/2021 3:45:00 AM 19.66 67.388 0.66 8.05 2.9 6.94
6/30/2021 4:00:00 AM 19.61 67.298 0.659 8.05 3.62 6.92
6/30/2021 4:15:00 AM 19.56 67.208 0.659 7.96 4.73 6.91
6/30/2021 4:30:00 AM 19.51 67.118 0.659 8.03 2.96 6.9
6/30/2021 4:45:00 AM 19.46 67.028 0.659 8.04 3.46 6.9
6/30/2021 5:00:00 AM 19.42 66.956 0.659 8.04 3.43 6.9
6/30/2021 5:15:00 AM 19.38 66.884 0.659 8.03 2.57 6.89
6/30/2021 5:30:00 AM 19.35 66.83 0.66 8.03 1.69 6.88
6/30/2021 5:45:00 AM 19.31 66.758 0.66 8.03 2.97 6.86
6/30/2021 6:00:00 AM 19.27 66.686 0.66 8.02 2.22 6.86
6/30/2021 6:15:00 AM 19.23 66.614 0.66 8.03 3.2 6.86
6/30/2021 6:30:00 AM 19.2 66.56 0.661 8.03 2.61 6.88
6/30/2021 6:45:00 AM 19.17 66.506 0.661 8.02 2.16 6.93
6/30/2021 7:00:00 AM 19.14 66.452 0.661 8.03 1.63 7.03
6/30/2021 7:15:00 AM 19.12 66.416 0.66 8.03 7.48 7.15
6/30/2021 7:30:00 AM 19.11 66.398 0.66 8.04 15.91 7.25
6/30/2021 7:45:00 AM 19.11 66.398 0.66 8.05 3.02 7.46
6/30/2021 8:00:00 AM 19.13 66.434 0.66 8.06 2.17 7.68
6/30/2021 8:15:00 AM 19.16 66.488 0.659 8.08 3.9 7.92
6/30/2021 8:30:00 AM 19.21 66.578 0.659 8.1 3.46 8.18
6/30/2021 8:45:00 AM 19.27 66.686 0.659 8.13 1.28 8.47
6/30/2021 9:00:00 AM 19.34 66.812 0.658 8.17 4.33 8.75
6/30/2021 9:15:00 AM 19.44 66.992 0.658 8.19 2.17 9.03
6/30/2021 9:30:00 AM 19.56 67.208 0.657 8.22 2.71 9.33
6/30/2021 9:45:00 AM 19.67 67.406 0.656 8.26 3.4 9.64
6/30/2021 10:00:00 AM 19.79 67.622 0.655 8.29 3.32 9.95
6/30/2021 10:15:00 AM 19.92 67.856 0.654 8.32 1.15 10.23
6/30/2021 10:30:00 AM 20.05 68.09 0.654 8.36 2.89 10.49
6/30/2021 10:45:00 AM 20.19 68.342 0.653 8.38 1.43 10.71
6/30/2021 11:00:00 AM 20.32 68.576 0.653 8.42 1.54 10.92
6/30/2021 11:15:00 AM 20.48 68.864 0.652 8.45 1.81 11.12
6/30/2021 11:30:00 AM 20.63 69.134 0.652 8.48 1.85 11.29
6/30/2021 11:45:00 AM 20.72 69.296 0.652 8.49 2.97 11.36
6/30/2021 12:00:00 PM 20.83 69.494 0.652 8.51 1.74 11.4
6/30/2021 12:15:00 PM 20.94 69.692 0.652 8.52 1.82 11.47
6/30/2021 12:30:00 PM 21.01 69.818 0.652 8.54 1.94 11.5
6/30/2021 12:45:00 PM 21.15 70.07 0.651 8.56 1.41 11.6
6/30/2021 1:00:00 PM 21.31 70.358 0.651 8.57 4.65 11.81
6/30/2021 1:15:00 PM 21.45 70.61 0.65 8.59 1.94 11.96
6/30/2021 1:30:00 PM 21.57 70.826 0.651 8.6 1.83 12
6/30/2021 1:45:00 PM 21.73 71.114 0.65 8.63 2.53 12.15
6/30/2021 2:00:00 PM 21.81 71.258 0.65 8.64 1.77 12.22
6/30/2021 2:15:00 PM 21.87 71.366 0.65 8.64 2.62 12.14
6/30/2021 2:30:00 PM 21.89 71.402 0.651 8.64 1.71 12.12
6/30/2021 2:45:00 PM 21.94 71.492 0.65 8.65 2.89 12.13
6/30/2021 3:00:00 PM 21.99 71.582 0.65 8.64 2.37 12.1
6/30/2021 3:15:00 PM 22.05 71.69 0.65 8.65 2.11 12.12
6/30/2021 3:30:00 PM 22.04 71.672 0.65 8.65 3.76 12.05
6/30/2021 3:45:00 PM 22.02 71.636 0.65 8.64 1.9 11.92
6/30/2021 4:00:00 PM 22.01 71.618 0.65 8.64 2.22 11.86
6/30/2021 4:15:00 PM 21.99 71.582 0.65 8.64 1.89 11.82
6/30/2021 4:30:00 PM 21.94 71.492 0.65 8.63 1.72 11.69
6/30/2021 4:45:00 PM 21.87 71.366 0.65 8.62 1.63 11.48
6/30/2021 5:00:00 PM 21.82 71.276 0.65 8.61 3.76 11.32
6/30/2021 5:15:00 PM 21.74 71.132 0.651 8.59 7.86 11.1
6/30/2021 5:30:00 PM 21.65 70.97 0.651 8.58 2.06 10.89
6/30/2021 5:45:00 PM 21.58 70.844 0.651 8.53 4.27 10.64
6/30/2021 6:00:00 PM 21.49 70.682 0.651 8.53 3.6 10.41
6/30/2021 6:15:00 PM 21.43 70.574 0.652 8.52 2.44 10.2
6/30/2021 6:30:00 PM 21.36 70.448 0.652 8.49 2.97 9.94
6/30/2021 6:45:00 PM 21.3 70.34 0.652 8.47 1.61 9.65
6/30/2021 7:00:00 PM 21.23 70.214 0.651 8.44 3.67 9.27
6/30/2021 7:15:00 PM 21.17 70.106 0.649 8.4 2.88 8.96
6/30/2021 7:30:00 PM 21.13 70.034 0.648 8.37 3.89 8.69
6/30/2021 7:45:00 PM 21.09 69.962 0.643 8.35 6.37 8.45
6/30/2021 8:00:00 PM 21.05 69.89 0.64 8.32 5.47 8.25
6/30/2021 8:15:00 PM 21.01 69.818 0.641 8.3 4.59 8.09
6/30/2021 8:30:00 PM 20.98 69.764 0.641 8.28 3.84 7.92
6/30/2021 8:45:00 PM 20.94 69.692 0.64 8.26 3.5 7.79
6/30/2021 9:00:00 PM 20.9 69.62 0.641 8.24 4.78 7.69
6/30/2021 9:15:00 PM 20.85 69.53 0.642 8.23 5.79 7.6
6/30/2021 9:30:00 PM 20.8 69.44 0.642 8.22 4.22 7.49
6/30/2021 9:45:00 PM 20.75 69.35 0.642 8.2 6.59 7.4
6/30/2021 10:00:00 PM 20.71 69.278 0.641 8.19 4.36 7.31
6/30/2021 10:15:00 PM 20.66 69.188 0.642 8.17 7.29 7.27
6/30/2021 10:30:00 PM 20.62 69.116 0.643 8.17 4.97 7.22
6/30/2021 10:45:00 PM 20.57 69.026 0.644 8.16 5.69 7.15
6/30/2021 11:00:00 PM 20.54 68.972 0.645 8.15 8.33 7.1
6/30/2021 11:15:00 PM 20.5 68.9 0.646 8.15 4.24 7.02
6/30/2021 11:30:00 PM 20.47 68.846 0.646 8.14 5.59 6.94
6/30/2021 11:45:00 PM 20.44 68.792 0.646 8.12 7.37 6.88
7/1/2021 12:00:00 AM 20.43 68.774 0.647 8.11 9.44 6.77
7/1/2021 12:15:00 AM 20.43 68.774 0.648 8.1 8.74 6.69
7/1/2021 12:30:00 AM 20.42 68.756 0.649 8.08 6.27 6.6
7/1/2021 12:45:00 AM 20.4 68.72 0.649 8.07 6.24 6.55
7/1/2021 1:00:00 AM 20.38 68.684 0.65 8.06 4 6.47
7/1/2021 1:15:00 AM 20.35 68.63 0.651 8.06 5.24 6.42
7/1/2021 1:30:00 AM 20.33 68.594 0.651 8.04 20.57 6.38
7/1/2021 1:45:00 AM 20.3 68.54 0.651 8.04 4.44 6.32
7/1/2021 2:00:00 AM 20.29 68.522 0.648 8.03 5.21 6.25
7/1/2021 2:15:00 AM 20.29 68.522 0.641 8.02 6.42 6.13
7/1/2021 2:30:00 AM 20.33 68.594 0.629 8.01 5.76 5.97
7/1/2021 2:45:00 AM 20.4 68.72 0.616 7.99 11.71 5.84
7/1/2021 3:00:00 AM 20.45 68.81 0.605 7.97 6.19 5.73
7/1/2021 3:15:00 AM 20.47 68.846 0.6 7.94 4.75 5.64
7/1/2021 3:30:00 AM 20.44 68.792 0.599 7.52 7.89 5.65
7/1/2021 3:45:00 AM 20.38 68.684 0.603 7.9 5.62 5.69
7/1/2021 4:00:00 AM 20.3 68.54 0.611 7.89 7.75 5.72
7/1/2021 4:15:00 AM 20.21 68.378 0.619 7.89 7.67 5.77
7/1/2021 4:30:00 AM 20.13 68.234 0.626 7.89 5.99 5.82
7/1/2021 4:45:00 AM 20.07 68.126 0.632 7.89 5.07 5.84
7/1/2021 5:00:00 AM 20.02 68.036 0.635 7.89 4.68 5.84
7/1/2021 5:15:00 AM 19.99 67.982 0.637 7.89 4.82 5.83
7/1/2021 5:30:00 AM 19.98 67.964 0.638 7.89 7.34 5.8
7/1/2021 5:45:00 AM 19.98 67.964 0.638 7.89 3.67 5.78
7/1/2021 6:00:00 AM 19.98 67.964 0.637 7.89 3.05 5.77
7/1/2021 6:15:00 AM 20 68 0.636 7.89 2.91 5.72
7/1/2021 6:30:00 AM 20.02 68.036 0.634 7.88 2.81 5.68
7/1/2021 6:45:00 AM 20.04 68.07201 0.63 7.89 2.71 5.66
7/1/2021 7:00:00 AM 20.08 68.144 0.627 7.89 2.05 5.66
7/1/2021 7:15:00 AM 20.12 68.216 0.623 7.89 3.39 5.64
7/1/2021 7:30:00 AM 20.16 68.288 0.62 7.87 3.25 5.7
7/1/2021 7:45:00 AM 20.21 68.378 0.619 7.87 4.38 5.79
7/1/2021 8:00:00 AM 20.26 68.468 0.619 7.88 2.09 5.97
7/1/2021 8:15:00 AM 20.3 68.54 0.621 7.89 2.96 6.08
7/1/2021 8:30:00 AM 20.32 68.576 0.623 7.9 1.82 6.14
7/1/2021 8:45:00 AM 20.33 68.594 0.625 7.91 2.78 6.19
7/1/2021 9:00:00 AM 20.32 68.576 0.627 7.91 2.8 6.27
7/1/2021 9:15:00 AM 20.3 68.54 0.63 7.91 2.32 6.28
7/1/2021 9:30:00 AM 20.27 68.486 0.632 7.91 2.09 6.3
7/1/2021 9:45:00 AM 20.24 68.432 0.631 7.92 2.71 6.42
7/1/2021 10:00:00 AM 20.18 68.324 0.628 7.93 2.45 6.45
7/1/2021 10:15:00 AM 20.1 68.18 0.626 7.92 2.25 6.53
7/1/2021 10:30:00 AM 20.02 68.036 0.623 7.93 2.89 6.7
7/1/2021 10:45:00 AM 19.94 67.892 0.619 7.94 2.3 6.91
7/1/2021 11:00:00 AM 19.89 67.802 0.615 7.94 2.79 7.06
7/1/2021 11:15:00 AM 19.86 67.748 0.611 7.95 2.32 7.15
7/1/2021 11:30:00 AM 19.9 67.82 0.607 7.96 2.23 7.4
7/1/2021 11:45:00 AM 20 68 0.601 7.98 2.55 7.75
7/1/2021 12:00:00 PM 20.1 68.18 0.595 8.02 2.36 8.22
7/1/2021 12:15:00 PM 20.13 68.234 0.588 8.05 2 8.42
7/1/2021 12:30:00 PM 20.12 68.216 0.581 8.06 1.89 8.44
7/1/2021 12:45:00 PM 20.09 68.162 0.575 8.05 1.81 8.29
7/1/2021 1:00:00 PM 20.05 68.09 0.569 8.04 2.31 8.1
7/1/2021 1:15:00 PM 19.98 67.964 0.555 8.02 2.83 7.76
7/1/2021 1:30:00 PM 19.92 67.856 0.544 8 2.41 7.49
7/1/2021 1:45:00 PM 19.86 67.748 0.538 7.99 5.73 7.37
7/1/2021 2:00:00 PM 19.81 67.658 0.531 7.97 9.03 7.26
7/1/2021 2:15:00 PM 19.81 67.658 0.527 7.96 14.44 7.32
7/1/2021 2:30:00 PM 19.83 67.694 0.525 7.96 13.69 7.55
7/1/2021 2:45:00 PM 19.83 67.694 0.524 7.96 10.79 7.74
7/1/2021 3:00:00 PM 19.83 67.694 0.522 7.96 11.85 7.78
7/1/2021 3:15:00 PM 19.85 67.73 0.518 7.96 13.84 7.64
7/1/2021 3:30:00 PM 19.87 67.766 0.516 7.95 10.18 7.6
7/1/2021 3:45:00 PM 19.87 67.766 0.521 7.96 13.91 7.82
7/1/2021 4:00:00 PM 19.83 67.694 0.528 7.95 8.64 7.94
7/1/2021 4:15:00 PM 19.79 67.622 0.534 7.96 4.91 7.96
7/1/2021 4:30:00 PM 19.79 67.622 0.534 7.97 7.65 7.9
7/1/2021 4:45:00 PM 19.81 67.658 0.529 7.97 7.24 7.78
7/1/2021 5:00:00 PM 19.81 67.658 0.524 7.98 12.14 7.58
7/1/2021 5:15:00 PM 19.79 67.622 0.526 7.97 11.67 7.52
7/1/2021 5:30:00 PM 19.73 67.514 0.534 7.96 9.65 7.56
7/1/2021 5:45:00 PM 19.66 67.388 0.544 7.94 11.39 7.71
7/1/2021 6:00:00 PM 19.61 67.298 0.552 7.95 9.19 7.83
7/1/2021 6:15:00 PM 19.58 67.244 0.557 7.95 7 7.87
7/1/2021 6:30:00 PM 19.6 67.28 0.553 7.97 12.05 7.81
7/1/2021 6:45:00 PM 19.71 67.478 0.534 7.97 25.09 7.63
7/1/2021 7:00:00 PM 19.81 67.658 0.518 7.98 50.76 7.44
7/1/2021 7:15:00 PM 19.85 67.73 0.516 7.96 57.65 7.28
7/1/2021 7:30:00 PM 19.8 67.64 0.529 7.94 60.1 7.17
7/1/2021 7:45:00 PM 19.78 67.604 0.544 7.93 71.69 7.11
7/1/2021 8:00:00 PM 19.82 67.676 0.552 7.93 70.18 7.05
7/1/2021 8:15:00 PM 19.89 67.802 0.548 7.93 65.54 7
7/1/2021 8:30:00 PM 20.03 68.054 0.527 7.93 54.3 6.96
7/1/2021 8:45:00 PM 20.18 68.324 0.502 7.94 59.4 6.93
7/1/2021 9:00:00 PM 20.33 68.594 0.479 7.93 54.08 6.78
7/1/2021 9:15:00 PM 20.49 68.882 0.451 7.93 59.34 6.68
7/1/2021 9:30:00 PM 20.64 69.152 0.424 7.9 45.76 6.57
7/1/2021 9:45:00 PM 20.77 69.386 0.395 7.89 46.46 6.48
7/1/2021 10:00:00 PM 20.89 69.602 0.371 7.88 38.59 6.41
7/1/2021 10:15:00 PM 20.99 69.782 0.351 7.86 44.76 6.35
7/1/2021 10:30:00 PM 21.04 69.872 0.338 7.85 41.02 6.33
7/1/2021 10:45:00 PM 21.08 69.944 0.327 7.84 36.64 6.34
7/1/2021 11:00:00 PM 21.11 69.998 0.317 7.85 32.98 6.32
7/1/2021 11:15:00 PM 21.11 69.998 0.314 7.85 34.08 6.33
7/1/2021 11:30:00 PM 21.06 69.908 0.316 7.85 29.19 6.35
7/1/2021 11:45:00 PM 20.99 69.782 0.321 7.85 35.57 6.36
7/2/2021 12:00:00 AM 20.91 69.638 0.328 7.83 33.02 6.41
7/2/2021 12:15:00 AM 20.81 69.458 0.336 7.83 29.02 6.44
7/2/2021 12:30:00 AM 20.72 69.296 0.346 7.81 29.99 6.47
7/2/2021 12:45:00 AM 20.63 69.134 0.356 7.8 32.59 6.49
7/2/2021 1:00:00 AM 20.54 68.972 0.365 7.8 34.73 6.55
7/2/2021 1:15:00 AM 20.46 68.828 0.372 7.79 41.33 6.54
7/2/2021 1:30:00 AM 20.41 68.738 0.377 7.79 35.36 6.56
7/2/2021 1:45:00 AM 20.35 68.63 0.382 7.79 35.45 6.6
7/2/2021 2:00:00 AM 20.28 68.504 0.387 7.79 35.27 6.62
7/2/2021 2:15:00 AM 20.21 68.378 0.393 7.79 35.59 6.67
7/2/2021 2:30:00 AM 20.12 68.216 0.4 7.79 42.43 6.7
7/2/2021 2:45:00 AM 20.04 68.07201 0.407 7.8 62.67 6.71
7/2/2021 3:00:00 AM 19.97 67.946 0.41 7.8 44.56 6.76
7/2/2021 3:15:00 AM 19.92 67.856 0.411 7.8 48.21 6.77
7/2/2021 3:30:00 AM 19.91 67.838 0.41 7.8 56.75 6.8
7/2/2021 3:45:00 AM 19.91 67.838 0.407 7.8 45.76 6.8
7/2/2021 4:00:00 AM 19.93 67.874 0.404 7.8 40.51 6.77
7/2/2021 4:15:00 AM 19.95 67.91 0.404 7.81 35.03 6.72
7/2/2021 4:30:00 AM 19.97 67.946 0.409 7.8 41.57 6.66
7/2/2021 4:45:00 AM 19.97 67.946 0.416 7.8 34.98 6.51
7/2/2021 5:00:00 AM 19.97 67.946 0.424 7.8 38.67 6.46
7/2/2021 5:15:00 AM 19.95 67.91 0.431 7.79 38.65 6.42
7/2/2021 5:30:00 AM 19.92 67.856 0.435 7.79 33.12 6.3
7/2/2021 5:45:00 AM 19.88 67.784 0.438 7.8 42.98 6.18
7/2/2021 6:00:00 AM 19.84 67.712 0.437 7.79 51.29 6.33
7/2/2021 6:15:00 AM 19.79 67.622 0.435 7.8 179.2 6.34
7/2/2021 6:30:00 AM 19.74 67.532 0.43 7.78 41.75 6.01
7/2/2021 6:45:00 AM 19.7 67.46 0.424 7.79 96.64 6.16
7/2/2021 7:00:00 AM 19.66 67.388 0.418 7.78 61.73 6.15
7/2/2021 7:15:00 AM 19.62 67.316 0.411 7.78 140 6.26
7/2/2021 7:30:00 AM 19.59 67.262 0.406 7.78 47.66 6.1
7/2/2021 7:45:00 AM 19.56 67.208 0.401 7.78 46.53 5.85
7/2/2021 8:00:00 AM 19.53 67.154 0.395 7.78 40.21 6.38
7/2/2021 8:15:00 AM 19.5 67.1 0.392 7.77 29.01 5.48
7/2/2021 8:30:00 AM 19.46 67.028 0.394 7.77 22.13 5.51
7/2/2021 8:45:00 AM 19.41 66.938 0.4 7.77 28.96 5.43
7/2/2021 9:00:00 AM 19.37 66.866 0.407 7.78 30.12 5.23
7/2/2021 9:15:00 AM 19.34 66.812 0.414 7.8 20.63 4.41
7/2/2021 9:30:00 AM 19.29 66.722 0.42 7.8 16.71 4.13
7/2/2021 9:45:00 AM 19.25 66.65 0.426 7.81 29.4 4.44
7/2/2021 10:00:00 AM 19.22 66.596 0.433 7.82 39.82 4.29
7/2/2021 10:15:00 AM 19.21 66.578 0.439 7.83 93.99 4.11
7/2/2021 10:30:00 AM 19.18 66.524 0.445 7.84 107 4.69
7/2/2021 10:45:00 AM 19.16 66.488 0.451 7.87 76.42 3.77
7/2/2021 11:00:00 AM 19.14 66.452 0.456 7.88 53.35 3.68
7/2/2021 11:15:00 AM 19.14 66.452 0.461 7.9 44.36 4.25
7/2/2021 11:30:00 AM 19.13 66.434 0.464 7.92 62.26 4.42
7/2/2021 11:45:00 AM 19.14 66.452 0.468 7.94 106.7 4.38
7/2/2021 12:00:00 PM 19.16 66.488 0.472 7.95 150.2 4.03
7/2/2021 12:15:00 PM 19.21 66.578 0.474 7.98 185.3 3.88
7/2/2021 12:30:00 PM 19.3 66.74 0.477 8.01 164.7 3.72
7/2/2021 12:45:00 PM 19.3 66.74 0.48 8.03 127.1 3.57
7/2/2021 1:00:00 PM 19.35 66.83 0.484 8.04 165.1 3.06
7/2/2021 1:15:00 PM 19.41 66.938 0.487 8.07 96.88 2.66
7/2/2021 1:30:00 PM 19.47 67.046 0.489 8.09 114.2 2.89
7/2/2021 1:45:00 PM 19.44 66.992 0.492 8.11 30.08 1.74
7/2/2021 2:00:00 PM 19.39 66.902 0.493 8.1 51.71 1.14
7/2/2021 2:15:00 PM 19.38 66.884 0.495 8.11 40.44 0.8
7/2/2021 2:30:00 PM 19.43 66.974 0.499 8.11 31.09 0.78
7/2/2021 2:45:00 PM 19.53 67.154 0.502 8.13 56.01 3.1
7/2/2021 3:00:00 PM 19.63 67.334 0.506 8.16 356.6 9.6
7/2/2021 3:15:00 PM 19.68 67.424 0.498 8.18 137.1 9.68
7/2/2021 3:30:00 PM 19.65 67.37 0.514 8.19 165.4 9.6
7/2/2021 3:45:00 PM 19.61 67.298 0.518 8.17 64.55 9.51
7/2/2021 4:00:00 PM 19.56 67.208 0.522 8.17 96.54 9.41
7/2/2021 4:15:00 PM 19.47 67.046 0.525 8.15 135.5 9.27
7/2/2021 4:30:00 PM 19.38 66.884 0.529 8.14 151.1 9.16
7/2/2021 4:45:00 PM 19.35 66.83 0.532 8.14 188.6 9.15
7/2/2021 5:00:00 PM 19.37 66.866 0.536 8.15 239.1 9.24
7/2/2021 5:15:00 PM 19.38 66.884 0.539 8.15 296.1 9.27
7/2/2021 5:30:00 PM 19.42 66.956 0.542 8.16 298.7 9.31
7/2/2021 5:45:00 PM 19.44 66.992 0.546 8.17 362.7 9.31
7/2/2021 6:00:00 PM 19.42 66.956 0.549 8.17 510.3 9.26
7/2/2021 6:15:00 PM 19.36 66.848 0.552 8.17 588.5 9.13
7/2/2021 6:30:00 PM 19.28 66.704 0.555 8.16 631.8 8.98
7/2/2021 6:45:00 PM 19.21 66.578 0.558 8.15 662 8.88
7/2/2021 7:00:00 PM 19.12 66.416 0.56 8.13 703.1 8.75
7/2/2021 7:15:00 PM 19.06 66.308 0.562 8.12 787.9 8.66
7/2/2021 7:30:00 PM 19.01 66.218 0.565 8.11 926.8 8.56
7/2/2021 7:45:00 PM 18.96 66.128 0.567 8.12 1006 8.45
7/2/2021 8:00:00 PM 18.91 66.038 0.57 8.11 993.5 8.36
7/2/2021 8:15:00 PM 18.86 65.948 0.572 8.11 938.9 8.3
7/2/2021 8:30:00 PM 18.82 65.876 0.575 8.1 804 8.21
7/2/2021 8:45:00 PM 18.78 65.804 0.577 8.09 881.7 8.12
7/2/2021 9:00:00 PM 18.74 65.732 0.579 8.09 926 8.06
7/2/2021 9:15:00 PM 18.7 65.66 0.581 8.08 912.3 7.99
7/2/2021 9:30:00 PM 18.64 65.552 0.583 8.07 1000 7.93
7/2/2021 9:45:00 PM 18.59 65.462 0.585 8.06 1049 7.88
7/2/2021 10:00:00 PM 18.52 65.336 0.586 8.06 300 7.84
7/2/2021 10:15:00 PM 18.45 65.21 0.588 8.06 312.8 7.8
7/2/2021 10:30:00 PM 18.39 65.102 0.59 8.05 270 7.77
7/2/2021 10:45:00 PM 18.32 64.976 0.593 8.04 371.6 7.7
7/2/2021 11:00:00 PM 18.26 64.868 0.595 8.05 500.9 7.68
7/2/2021 11:15:00 PM 18.2 64.76 0.597 8.03 239.5 7.66
7/2/2021 11:30:00 PM 18.14 64.652 0.599 8.04 371.3 7.24
7/2/2021 11:45:00 PM 18.09 64.562 0.601 8.03 514.9 6.76
7/3/2021 12:00:00 AM 18.05 64.49 0.603 8.02 826.7 7.51
7/3/2021 12:15:00 AM 18 64.4 0.604 8.02 963 7.25
7/3/2021 12:30:00 AM 17.96 64.328 0.605 8.03 1440 7.43
7/3/2021 12:45:00 AM 17.91 64.238 0.606 8.03 1767 6.45
7/3/2021 1:00:00 AM 17.86 64.148 0.607 8.03 1970 6.71
7/3/2021 1:15:00 AM 17.81 64.058 0.608 8.03 1884 7.06
7/3/2021 1:30:00 AM 17.76 63.968 0.609 8.02 1665 6.88
7/3/2021 1:45:00 AM 17.72 63.896 0.608 8.03 1979 7.13
7/3/2021 2:00:00 AM 17.67 63.806 0.609 8.02 105.8 6.38
7/3/2021 2:15:00 AM 17.63 63.734 0.609 8.03 30.44 7.39
7/3/2021 2:30:00 AM 17.59 63.662 0.611 8.03 32.14 7.46
7/3/2021 2:45:00 AM 17.55 63.59 0.611 8.02 136 7.59
7/3/2021 3:00:00 AM 17.5 63.5 0.611 8.02 52.82 7.58
7/3/2021 3:15:00 AM 17.46 63.428 0.612 8.01 33.23 7.59
7/3/2021 3:30:00 AM 17.42 63.356 0.612 8.01 47.43 7.56
7/3/2021 3:45:00 AM 17.37 63.266 0.612 8.02 35.97 7.55
7/3/2021 4:00:00 AM 17.33 63.194 0.613 8.01 37.65 7.51
7/3/2021 4:15:00 AM 17.29 63.122 0.613 8.02 37.91 7.48
7/3/2021 4:30:00 AM 17.26 63.068 0.614 8.02 42.33 7.31
7/3/2021 4:45:00 AM 17.23 63.014 0.614 8.02 47.24 7.1
7/3/2021 5:00:00 AM 17.2 62.96 0.615 8.01 81.31 7.43
7/3/2021 5:15:00 AM 17.18 62.924 0.616 8.01 142.7 7.53
7/3/2021 5:30:00 AM 17.16 62.888 0.616 8.01 222.7 7.54
7/3/2021 5:45:00 AM 17.14 62.852 0.617 8.01 279.4 7.61
7/3/2021 6:00:00 AM 17.12 62.816 0.617 8 148.9 7.45
7/3/2021 6:15:00 AM 17.1 62.78 0.618 8.01 225 7.42
7/3/2021 6:30:00 AM 17.08 62.744 0.618 8.01 146.8 7.35
7/3/2021 6:45:00 AM 17.07 62.726 0.618 8.01 1331 7.69
7/3/2021 7:00:00 AM 17.07 62.726 0.618 8.02 1485 7.71
7/3/2021 7:15:00 AM 17.07 62.726 0.618 8.02 2111 7.69
7/3/2021 7:30:00 AM 17.07 62.726 0.619 8.01 1961 7.81
7/3/2021 7:45:00 AM 17.08 62.744 0.619 8.02 2295 8
7/3/2021 8:00:00 AM 17.1 62.78 0.619 8.01 2175 8.12
7/3/2021 8:15:00 AM 17.14 62.852 0.619 8.04 2191 8.29
7/3/2021 8:30:00 AM 17.18 62.924 0.619 8.06 1994 8.45
7/3/2021 8:45:00 AM 17.23 63.014 0.619 8.08 1102 8.52
7/3/2021 9:00:00 AM 17.3 63.14 0.62 8.11 707.4 8.74
7/3/2021 9:15:00 AM 17.39 63.302 0.62 8.12 1024 8.94
7/3/2021 9:30:00 AM 17.48 63.464 0.621 8.15 252.5 9.12
7/3/2021 9:45:00 AM 17.51 63.518 0.621 8.15 196.5 9.13
7/3/2021 10:00:00 AM 17.53 63.554 0.622 8.17 738.1 9.11
7/3/2021 10:15:00 AM 17.63 63.734 0.622 8.18 561.7 9.07
7/3/2021 10:30:00 AM 17.72 63.896 0.623 8.19 648.2 9.14
7/3/2021 10:45:00 AM 17.87 64.166 0.624 8.21 519.5 9.17
7/3/2021 11:00:00 AM 18.03 64.454 0.624 8.24 658.5 9.73
7/3/2021 11:15:00 AM 18.03 64.454 0.624 8.25 645.5 9.43
7/3/2021 11:30:00 AM 18.02 64.436 0.625 8.25 761.6 9.63
7/3/2021 11:45:00 AM 18.17 64.706 0.625 8.27 927.5 10.05
7/3/2021 12:00:00 PM 18.26 64.868 0.626 8.29 979.1 10.18
7/3/2021 12:15:00 PM 18.39 65.102 0.626 8.31 940.1 10.36
7/3/2021 12:30:00 PM 18.47 65.246 0.626 8.31 1038 10.37
7/3/2021 12:45:00 PM 18.6 65.48 0.627 8.33 1098 9.29
7/3/2021 1:00:00 PM 18.67 65.606 0.627 8.35 1081 10.5
7/3/2021 1:15:00 PM 18.74 65.732 0.628 8.36 1048 9.94
7/3/2021 1:30:00 PM 18.82 65.876 0.628 8.37 1160 9.19
7/3/2021 1:45:00 PM 18.87 65.966 0.628 8.38 1257 9.28
7/3/2021 2:00:00 PM 18.87 65.966 0.629 8.38 1190 8.59
7/3/2021 2:15:00 PM 18.9 66.02 0.629 8.38 1122 8.69
7/3/2021 2:30:00 PM 18.98 66.164 0.629 8.39 1183 9.28
7/3/2021 2:45:00 PM 18.98 66.164 0.629 8.4 1238 10.28
7/3/2021 3:00:00 PM 19.01 66.218 0.63 8.4 1133 10.11
7/3/2021 3:15:00 PM 19.01 66.218 0.63 8.4 1442 10.11
7/3/2021 3:30:00 PM 18.86 65.948 0.631 8.38 1726 9.29
7/3/2021 3:45:00 PM 18.78 65.804 0.631 8.37 1309 10.18
7/3/2021 4:00:00 PM 18.71 65.67799 0.631 8.36 1206 9.55
7/3/2021 4:15:00 PM 18.65 65.57 0.631 8.36 1180 9.47
7/3/2021 4:30:00 PM 18.66 65.588 0.631 8.37 1180 9.74
7/3/2021 4:45:00 PM 18.68 65.624 0.631 8.37 926.2 10.15
7/3/2021 5:00:00 PM 18.67 65.606 0.632 8.38 1049 10.14
7/3/2021 5:15:00 PM 18.65 65.57 0.632 8.37 1001 10.03
7/3/2021 5:30:00 PM 18.63 65.534 0.632 8.36 1449 9.43
7/3/2021 5:45:00 PM 18.56 65.408 0.632 8.35 213.3 9.56
7/3/2021 6:00:00 PM 18.49 65.282 0.633 8.33 828 8.89
7/3/2021 6:15:00 PM 18.43 65.174 0.633 8.32 1168 9.08
7/3/2021 6:30:00 PM 18.41 65.138 0.633 8.31 624.1 8.88
7/3/2021 6:45:00 PM 18.4 65.12 0.634 8.31 937 9.41
7/3/2021 7:00:00 PM 18.38 65.084 0.634 8.3 659.7 8.94
7/3/2021 7:15:00 PM 18.36 65.048 0.634 8.29 2751 8.61
7/3/2021 7:30:00 PM 18.32 64.976 0.634 8.28 555.1 8.98
7/3/2021 7:45:00 PM 18.28 64.904 0.635 8.27 925.7 8.87
7/3/2021 8:00:00 PM 18.23 64.814 0.635 8.26 801.6 8.98
7/3/2021 8:15:00 PM 18.18 64.724 0.635 8.25 3455 8.43
7/3/2021 8:30:00 PM 18.13 64.634 0.636 8.24 29.81 7.67
7/3/2021 8:45:00 PM 18.08 64.544 0.636 8.23 443.8 8.53
7/3/2021 9:00:00 PM 18.02 64.436 0.636 8.22 8.28 8.42
7/3/2021 9:15:00 PM 17.97 64.346 0.636 8.21 3455 8.13
7/3/2021 9:30:00 PM 17.92 64.256 0.637 8.2 102.2 8.23
7/3/2021 9:45:00 PM 17.88 64.184 0.637 8.18 99.2 8.17
7/3/2021 10:00:00 PM 17.85 64.13 0.637 8.18 8.88 8.1
7/3/2021 10:15:00 PM 17.82 64.076 0.638 8.18 8.18 8.09
7/3/2021 10:30:00 PM 17.78 64.004 0.639 8.18 12.01 8.02
7/3/2021 10:45:00 PM 17.75 63.95 0.639 8.17 11.52 7.98
7/3/2021 11:00:00 PM 17.73 63.914 0.639 8.16 43 7.92
7/3/2021 11:15:00 PM 17.7 63.86 0.639 8.15 10.88 7.96
7/3/2021 11:30:00 PM 17.68 63.824 0.639 8.14 52.05 7.88
7/3/2021 11:45:00 PM 17.65 63.77 0.639 8.15 26.45 7.83
7/4/2021 12:00:00 AM 17.61 63.698 0.639 8.14 44.59 7.91
7/4/2021 12:15:00 AM 17.57 63.626 0.64 8.13 9.65 7.89
7/4/2021 12:30:00 AM 17.53 63.554 0.64 8.12 9.4 7.74
7/4/2021 12:45:00 AM 17.49 63.482 0.64 8.12 10.42 7.68
7/4/2021 1:00:00 AM 17.45 63.41 0.64 8.12 9.5 7.81
7/4/2021 1:15:00 AM 17.41 63.338 0.641 8.11 9.97 7.84
7/4/2021 1:30:00 AM 17.36 63.248 0.641 8.1 11.58 7.72
7/4/2021 1:45:00 AM 17.33 63.194 0.642 8.1 10.56 7.49
7/4/2021 2:00:00 AM 17.3 63.14 0.642 8.1 10.19 7.37
7/4/2021 2:15:00 AM 17.27 63.086 0.642 8.08 9.6 7.45
7/4/2021 2:30:00 AM 17.24 63.032 0.643 8.09 9.82 7.4
7/4/2021 2:45:00 AM 17.22 62.996 0.643 8.09 9.06 7.14
7/4/2021 3:00:00 AM 17.2 62.96 0.644 8.09 8.72 6.56
7/4/2021 3:15:00 AM 17.18 62.924 0.644 8.09 11.91 7.1
7/4/2021 3:30:00 AM 17.17 62.906 0.641 8.08 10.07 5.77
7/4/2021 4:00:00 AM 17.14 62.852 0.644 8.06 31.74 7.15
7/4/2021 4:15:00 AM 17.13 62.834 0.645 8.07 13.2 7.59
7/4/2021 4:30:00 AM 17.11 62.798 0.645 8.06 13 7.16
7/4/2021 4:45:00 AM 17.1 62.78 0.645 8.06 8.01 6.4
7/4/2021 5:00:00 AM 17.08 62.744 0.645 8.05 9.26 7.32
7/4/2021 5:15:00 AM 17.07 62.726 0.645 8.05 9.62 6.96
7/4/2021 5:30:00 AM 17.04 62.672 0.645 8.04 10.07 7.45
7/4/2021 5:45:00 AM 17.02 62.636 0.645 8.03 8.78 6.69
7/4/2021 6:00:00 AM 16.99 62.582 0.645 8.04 7.02 6.98
7/4/2021 6:15:00 AM 16.97 62.546 0.644 8.04 7.56 6.71
7/4/2021 6:30:00 AM 16.95 62.51 0.645 8.03 16.63 7.02
7/4/2021 6:45:00 AM 16.93 62.474 0.645 8.03 6.73 7.22
7/4/2021 7:00:00 AM 16.92 62.456 0.643 8.04 4.63 7.28
7/4/2021 7:15:00 AM 16.91 62.438 0.645 8.04 6.5 7.48
7/4/2021 7:30:00 AM 16.92 62.456 0.645 8.04 4.97 7.01
7/4/2021 7:45:00 AM 16.94 62.492 0.645 8.06 2.98 6.88
7/4/2021 8:00:00 AM 16.95 62.51 0.645 8.07 24.96 7.33
7/4/2021 8:15:00 AM 16.95 62.51 0.645 8.08 4.72 7.48
7/4/2021 8:30:00 AM 17 62.6 0.644 8.08 19.16 7.59
7/4/2021 8:45:00 AM 17.11 62.798 0.648 8.1 2.34 7.58
7/4/2021 9:00:00 AM 17.3 63.14 0.655 8.13 2.06 7.98
7/4/2021 9:15:00 AM 17.47 63.446 0.662 8.14 2.52 8.06
7/4/2021 9:30:00 AM 17.62 63.716 0.667 8.16 1.72 8.71
7/4/2021 9:45:00 AM 17.76 63.968 0.67 8.18 7.67 8.98
7/4/2021 10:00:00 AM 17.91 64.238 0.671 8.21 29.87 9.04
7/4/2021 10:15:00 AM 18.05 64.49 0.672 8.22 8.66 9.21
7/4/2021 10:30:00 AM 18.19 64.742 0.673 8.24 36.77 9.33
7/4/2021 10:45:00 AM 18.24 64.832 0.673 8.26 5.12 9.28
7/4/2021 11:00:00 AM 18.33 64.994 0.673 8.26 10.32 9.39
7/4/2021 11:15:00 AM 18.39 65.102 0.674 8.27 43.85 9.26
7/4/2021 11:30:00 AM 18.52 65.336 0.675 8.29 5.66 9.27
7/4/2021 11:45:00 AM 18.6 65.48 0.675 8.29 3.54 9.62
7/4/2021 12:00:00 PM 18.78 65.804 0.674 8.31 2.92 9.98
7/4/2021 12:15:00 PM 18.95 66.11 0.674 8.33 2.65 10.25
7/4/2021 12:30:00 PM 19 66.2 0.671 8.34 9.41 10.02
7/4/2021 12:45:00 PM 19.07 66.326 0.666 8.36 1.57 9.3
7/4/2021 1:00:00 PM 19.16 66.488 0.659 8.38 2.7 9.46
7/4/2021 1:15:00 PM 19.16 66.488 0.653 8.38 1.38 10.09
7/4/2021 1:30:00 PM 19.28 66.704 0.649 8.4 1.87 10.57
7/4/2021 1:45:00 PM 19.33 66.794 0.646 8.41 2.13 9.22
7/4/2021 2:00:00 PM 19.37 66.866 0.645 8.42 1.77 10.93
7/4/2021 2:15:00 PM 19.56 67.208 0.644 8.44 2.11 11.17
7/4/2021 2:30:00 PM 19.66 67.388 0.644 8.45 8.18 10.91
7/4/2021 2:45:00 PM 19.67 67.406 0.644 8.44 2.96 10.53
7/4/2021 3:00:00 PM 19.63 67.334 0.643 8.43 2.26 9.35
7/4/2021 3:15:00 PM 19.6 67.28 0.643 8.43 2.92 9.72
7/4/2021 3:30:00 PM 19.62 67.316 0.643 8.44 2.53 10.6
7/4/2021 3:45:00 PM 19.61 67.298 0.642 8.43 2.24 10.68
7/4/2021 4:00:00 PM 19.62 67.316 0.642 8.43 3.26 9.85
7/4/2021 4:15:00 PM 19.67 67.406 0.642 8.44 2.24 10.53
7/4/2021 4:30:00 PM 19.68 67.424 0.643 8.45 9.36 10.72
7/4/2021 4:45:00 PM 19.68 67.424 0.643 8.44 3.02 10.65
7/4/2021 5:00:00 PM 19.65 67.37 0.644 8.44 3.47 10.59
7/4/2021 5:15:00 PM 19.62 67.316 0.643 8.43 2.69 9.53
7/4/2021 5:30:00 PM 19.55 67.19 0.643 8.42 2.75 10.1
7/4/2021 5:45:00 PM 19.49 67.082 0.643 8.41 2.92 9.01
7/4/2021 6:00:00 PM 19.44 66.992 0.643 8.4 6.37 9.61
7/4/2021 6:15:00 PM 19.39 66.902 0.644 8.39 4.48 8.58
7/4/2021 6:30:00 PM 19.33 66.794 0.645 8.37 3.6 9.5
7/4/2021 6:45:00 PM 19.26 66.668 0.646 8.35 3.33 9.71
7/4/2021 7:00:00 PM 19.18 66.524 0.647 8.34 4.81 9.13
7/4/2021 7:15:00 PM 19.1 66.38 0.648 8.33 3.91 8.93
7/4/2021 7:30:00 PM 19.02 66.236 0.649 8.31 3.46 8.85
7/4/2021 7:45:00 PM 18.96 66.128 0.649 8.3 4.07 8.77
7/4/2021 8:00:00 PM 18.9 66.02 0.649 8.28 3.78 7.89
7/4/2021 8:15:00 PM 18.85 65.93 0.649 8.27 7.63 8.19
7/4/2021 8:30:00 PM 18.81 65.858 0.648 8.26 8.03 7.46
7/4/2021 8:45:00 PM 18.77 65.786 0.647 8.25 8.71 7.36
7/4/2021 9:00:00 PM 18.72 65.696 0.648 8.24 5 8.14
7/4/2021 9:15:00 PM 18.67 65.606 0.648 8.22 4.56 8.24
7/4/2021 9:30:00 PM 18.62 65.516 0.648 8.2 7.06 8.18
7/4/2021 9:45:00 PM 18.56 65.408 0.648 8.19 6.52 7.49
7/4/2021 10:00:00 PM 18.5 65.3 0.648 8.19 7.31 7.43
7/4/2021 10:15:00 PM 18.44 65.192 0.648 8.17 6.62 7.08
7/4/2021 10:30:00 PM 18.38 65.084 0.648 8.16 6.16 6.66
7/4/2021 10:45:00 PM 18.32 64.976 0.648 8.15 6.31 7.13
7/4/2021 11:00:00 PM 18.27 64.886 0.648 8.15 7.44 7.17
7/4/2021 11:15:00 PM 18.23 64.814 0.648 8.14 8.32 7.1
7/4/2021 11:30:00 PM 18.19 64.742 0.648 8.14 7.61 7.62
7/4/2021 11:45:00 PM 18.16 64.688 0.648 8.15 7.75 7.65
7/5/2021 12:00:00 AM 18.13 64.634 0.647 8.13 9.01 7.65
7/5/2021 12:15:00 AM 18.1 64.58 0.647 8.12 8.69 7.66
7/5/2021 12:30:00 AM 18.07 64.526 0.647 8.12 8.69 7.67
7/5/2021 12:45:00 AM 18.03 64.454 0.647 8.12 43.61 6.91
7/5/2021 1:00:00 AM 17.99 64.382 0.648 8.11 8.3 7.38
7/5/2021 1:15:00 AM 17.95 64.31 0.648 8.11 10.34 7.57
7/5/2021 1:30:00 AM 17.91 64.238 0.648 8.11 14.57 7.55
7/5/2021 1:45:00 AM 17.86 64.148 0.648 8.1 8.15 7.6
7/5/2021 2:00:00 AM 17.82 64.076 0.648 8.1 9.87 7.59
7/5/2021 2:15:00 AM 17.78 64.004 0.648 8.09 9.8 7.54
7/5/2021 2:30:00 AM 17.74 63.932 0.648 8.08 9.35 7.53
7/5/2021 2:45:00 AM 17.7 63.86 0.648 8.08 11.02 7.45
7/5/2021 3:00:00 AM 17.67 63.806 0.648 8.08 51.75 7.24
7/5/2021 3:15:00 AM 17.63 63.734 0.648 8.08 9.8 6.34
7/5/2021 3:30:00 AM 17.59 63.662 0.647 8.06 10.86 6.68
7/5/2021 3:45:00 AM 17.56 63.608 0.648 8.07 32.39 7.27
7/5/2021 4:00:00 AM 17.52 63.536 0.647 8.07 14.22 7.06
7/5/2021 4:15:00 AM 17.49 63.482 0.646 8.07 38.74 7.04
7/5/2021 4:30:00 AM 17.45 63.41 0.647 8.06 13.13 7.09
7/5/2021 4:45:00 AM 17.42 63.356 0.647 8.05 8.59 6.98
7/5/2021 5:00:00 AM 17.39 63.302 0.644 8.06 7.16 6.62
7/5/2021 5:15:00 AM 17.35 63.23 0.645 8.06 23.15 6.87
7/5/2021 5:30:00 AM 17.32 63.176 0.646 8.04 16.35 6.24
7/5/2021 5:45:00 AM 17.29 63.122 0.645 8.05 9.96 6.34
7/5/2021 6:00:00 AM 17.25 63.05 0.645 8.04 45.91 6.55
7/5/2021 6:15:00 AM 17.23 63.014 0.645 8.04 9.79 6.47
7/5/2021 6:30:00 AM 17.2 62.96 0.646 8.04 12.95 6.5
7/5/2021 6:45:00 AM 17.18 62.924 0.646 8.04 11.13 6.83
7/5/2021 7:00:00 AM 17.17 62.906 0.645 8.04 10.56 7.34
7/5/2021 7:15:00 AM 17.16 62.888 0.645 8.05 7.99 7.29
7/5/2021 7:30:00 AM 17.17 62.906 0.645 8.04 12.07 7.32
7/5/2021 7:45:00 AM 17.19 62.942 0.645 8.06 28.03 5.92
7/5/2021 8:00:00 AM 17.22 62.996 0.644 8.07 14.69 4.21
7/5/2021 8:15:00 AM 17.27 63.086 0.644 8.08 11.64 4.9
7/5/2021 8:30:00 AM 17.33 63.194 0.644 8.1 6.54 4.65
7/5/2021 8:45:00 AM 17.41 63.338 0.643 8.12 6.12 5.75
7/5/2021 9:00:00 AM 17.49 63.482 0.643 8.13 5.05 6.04
7/5/2021 9:15:00 AM 17.59 63.662 0.643 8.16 3.99 5.52
7/5/2021 9:30:00 AM 17.69 63.842 0.642 8.18 4.32 5.18
7/5/2021 9:45:00 AM 17.8 64.04 0.642 8.19 137.5 5.84
7/5/2021 10:00:00 AM 17.93 64.274 0.641 8.22 6.43 6.67
7/5/2021 10:15:00 AM 18.05 64.49 0.641 8.24 31.32 7.17
7/5/2021 10:30:00 AM 18.18 64.724 0.641 8.26 216.1 7.17
7/5/2021 10:45:00 AM 18.31 64.958 0.641 8.28 3.26 7.44
7/5/2021 11:00:00 AM 18.44 65.192 0.64 8.3 2.97 6.68
7/5/2021 11:15:00 AM 18.58 65.444 0.64 8.32 2.66 5.82
7/5/2021 11:30:00 AM 18.72 65.696 0.64 8.33 15.59 5.69
7/5/2021 11:45:00 AM 18.86 65.948 0.64 8.35 2.72 4.87
7/5/2021 12:00:00 PM 19 66.2 0.64 8.37 2.53 4.3
7/5/2021 12:15:00 PM 19.14 66.452 0.639 8.38 6.71 4.36
7/5/2021 12:30:00 PM 19.23 66.614 0.639 8.39 5.96 2.94
7/5/2021 12:45:00 PM 19.3 66.74 0.639 8.4 6.8 2.54
7/5/2021 1:00:00 PM 19.43 66.974 0.64 8.41 7.26 2.5
7/5/2021 1:15:00 PM 19.53 67.154 0.639 8.42 7.47 2.65
7/5/2021 1:30:00 PM 19.6 67.28 0.64 8.44 4.38 3.19
7/5/2021 1:45:00 PM 19.65 67.37 0.64 8.44 9.06 2.71
7/5/2021 2:00:00 PM 19.72 67.496 0.639 8.44 23.44 3.19
7/5/2021 2:15:00 PM 19.79 67.622 0.64 8.46 79.18 3.35
7/5/2021 2:30:00 PM 19.86 67.748 0.639 8.46 3.16 3.34
7/5/2021 2:45:00 PM 19.87 67.766 0.639 8.46 2.49 2.57
7/5/2021 3:00:00 PM 19.94 67.892 0.64 8.47 3.4 2.46
7/5/2021 3:15:00 PM 19.99 67.982 0.64 8.48 4.86 3.83
7/5/2021 3:30:00 PM 20.07 68.126 0.639 8.49 4.56 3.04
7/5/2021 3:45:00 PM 20.15 68.27 0.64 8.5 82.47 3.11
7/5/2021 4:00:00 PM 20.22 68.396 0.64 8.5 33.25 2.75
7/5/2021 4:15:00 PM 20.24 68.432 0.641 8.51 67.05 3.29
7/5/2021 4:30:00 PM 20.24 68.432 0.641 8.51 20.28 2.79
7/5/2021 4:45:00 PM 20.23 68.414 0.642 8.51 10.11 2.33
7/5/2021 5:00:00 PM 20.2 68.36 0.642 8.49 22.31 1.85
7/5/2021 5:15:00 PM 20.17 68.306 0.643 8.49 16.94 1.59
7/5/2021 5:30:00 PM 20.12 68.216 0.643 8.48 11.87 2.92
7/5/2021 5:45:00 PM 20.06 68.108 0.644 8.47 48.89 1.75
7/5/2021 6:00:00 PM 19.99 67.982 0.643 8.46 390.7 1.95
7/5/2021 6:15:00 PM 19.92 67.856 0.644 8.45 428.3 1.76
7/5/2021 6:30:00 PM 19.86 67.748 0.645 8.43 353.1 1.41
7/5/2021 6:45:00 PM 19.8 67.64 0.645 8.42 99.1 1.77
7/5/2021 7:00:00 PM 19.74 67.532 0.645 8.4 107.8 1.17
7/5/2021 7:15:00 PM 19.68 67.424 0.645 8.38 135.7 0.96
7/5/2021 7:30:00 PM 19.62 67.316 0.646 8.37 100 1.24
7/5/2021 7:45:00 PM 19.56 67.208 0.647 8.35 98.86 0.78
7/5/2021 8:00:00 PM 19.51 67.118 0.648 8.33 94.4 0.62
7/5/2021 8:15:00 PM 19.47 67.046 0.648 8.32 40.33 0.72
7/5/2021 8:30:00 PM 19.43 66.974 0.647 8.3 53.47 0.46
7/5/2021 8:45:00 PM 19.4 66.92 0.647 8.28 46.28 0.58
7/5/2021 9:00:00 PM 19.36 66.848 0.647 8.25 64.92 0.41
7/5/2021 9:15:00 PM 19.32 66.776 0.647 8.23 18.57 0.62
7/5/2021 9:30:00 PM 19.28 66.704 0.648 8.21 576.6 0.45
7/5/2021 9:45:00 PM 19.23 66.614 0.648 8.2 7.24 0.24
7/5/2021 10:00:00 PM 19.19 66.542 0.648 8.17 7.09 0.11
7/5/2021 10:15:00 PM 19.14 66.452 0.648 8.16 5.92 0.05
7/5/2021 10:30:00 PM 19.1 66.38 0.647 8.14 9.95 0.12
7/5/2021 10:45:00 PM 19.06 66.308 0.646 8.12 7.07 0
7/5/2021 11:00:00 PM 19.02 66.236 0.646 8.12 4.31 0
7/5/2021 11:15:00 PM 18.98 66.164 0.646 8.09 8.07 0
7/5/2021 11:30:00 PM 18.94 66.092 0.645 8.09 94.69 0.01
7/5/2021 11:45:00 PM 18.9 66.02 0.645 8.08 8.34 0.01
7/6/2021 12:00:00 AM 18.86 65.948 0.645 8.07 6.87 0
7/6/2021 12:15:00 AM 18.82 65.876 0.644 8.06 8.89 0
7/6/2021 12:30:00 AM 18.79 65.82201 0.643 8.05 8.06 0
7/6/2021 12:45:00 AM 18.76 65.768 0.643 8.05 7.56 0
7/6/2021 1:00:00 AM 18.72 65.696 0.643 8.04 8.36 0
7/6/2021 1:15:00 AM 18.68 65.624 0.642 8.03 7.74 0
7/6/2021 1:30:00 AM 18.65 65.57 0.64 8.02 7.52 0
7/6/2021 1:45:00 AM 18.61 65.498 0.641 8.02 9.57 0
7/6/2021 2:00:00 AM 18.57 65.426 0.641 8.01 8.92 0
7/6/2021 2:15:00 AM 18.53 65.354 0.641 8 12.6 0
7/6/2021 2:30:00 AM 18.5 65.3 0.641 8 7.39 0
7/6/2021 2:45:00 AM 18.46 65.228 0.641 8 8.97 0
7/6/2021 3:00:00 AM 18.42 65.156 0.641 8 7.63 0
7/6/2021 3:15:00 AM 18.38 65.084 0.641 8 9.72 0
7/6/2021 3:30:00 AM 18.35 65.03 0.641 7.99 8.89 0
7/6/2021 3:45:00 AM 18.32 64.976 0.641 8 6.04 0
7/6/2021 4:00:00 AM 18.29 64.922 0.641 8 7.97 0
7/6/2021 4:15:00 AM 18.26 64.868 0.641 8 9.04 0
7/6/2021 4:30:00 AM 18.23 64.814 0.641 7.99 9.62 0
7/6/2021 4:45:00 AM 18.2 64.76 0.642 7.99 8.05 0
7/6/2021 5:00:00 AM 18.17 64.706 0.642 7.99 7.74 0
7/6/2021 5:15:00 AM 18.15 64.67 0.642 7.99 9.14 0
7/6/2021 5:30:00 AM 18.12 64.616 0.642 7.98 8.06 0
7/6/2021 5:45:00 AM 18.09 64.562 0.642 7.98 10.12 0
7/6/2021 6:00:00 AM 18.07 64.526 0.642 7.99 9.18 0
7/6/2021 6:15:00 AM 18.05 64.49 0.643 7.98 11.74 0
7/6/2021 6:30:00 AM 18.03 64.454 0.643 7.99 7.03 0
7/6/2021 6:45:00 AM 18.01 64.418 0.644 7.98 7.2 0
7/6/2021 7:00:00 AM 18 64.4 0.644 7.99 7.55 0
7/6/2021 7:15:00 AM 18 64.4 0.644 7.99 4.51 0
7/6/2021 7:30:00 AM 18 64.4 0.643 8 5.31 0
7/6/2021 7:45:00 AM 18.01 64.418 0.644 8.01 3.93 0
7/6/2021 8:00:00 AM 18.03 64.454 0.643 8.02 8.15 0
7/6/2021 8:15:00 AM 18.07 64.526 0.643 8.02 3.97 0
7/6/2021 8:30:00 AM 18.12 64.616 0.643 8.05 3.68 0
7/6/2021 8:45:00 AM 18.19 64.742 0.643 8.07 4.1 0
7/6/2021 9:00:00 AM 18.27 64.886 0.642 8.1 4.19 0
7/6/2021 9:15:00 AM 18.37 65.066 0.642 8.12 4.7 0
7/6/2021 9:30:00 AM 18.48 65.264 0.642 8.15 3.24 0
7/6/2021 9:45:00 AM 18.61 65.498 0.641 8.17 3.44 0
7/6/2021 10:00:00 AM 18.75 65.75 0.641 8.21 5.42 0
7/6/2021 10:15:00 AM 18.91 66.038 0.641 8.24 20.72 0
7/6/2021 10:30:00 AM 19.05 66.29 0.641 8.27 2.44 0
7/6/2021 10:45:00 AM 19.21 66.578 0.642 8.3 2.68 0
7/6/2021 11:00:00 AM 19.34 66.812 0.643 8.32 5.29 0
7/6/2021 11:15:00 AM 19.49 67.082 0.645 8.34 3.28 0
7/6/2021 11:30:00 AM 19.62 67.316 0.645 8.35 3.08 0
7/6/2021 11:45:00 AM 19.76 67.568 0.646 8.37 3.61 0
7/6/2021 12:00:00 PM 19.88 67.784 0.647 8.38 3.32 0
7/6/2021 12:15:00 PM 20.01 68.018 0.647 8.4 4.05 0.01
7/6/2021 12:30:00 PM 20.14 68.252 0.647 8.41 4.18 0
7/6/2021 12:45:00 PM 20.27 68.486 0.646 8.43 4.29 0
7/6/2021 1:00:00 PM 20.41 68.738 0.644 8.45 6.55 0.01
7/6/2021 1:15:00 PM 20.54 68.972 0.643 8.47 4.24 0
7/6/2021 1:30:00 PM 20.64 69.152 0.641 8.48 3.93 0.01
7/6/2021 1:45:00 PM 20.74 69.332 0.641 8.49 3.44 0
7/6/2021 2:00:00 PM 20.82 69.476 0.641 8.5 4.4 0
7/6/2021 2:15:00 PM 20.89 69.602 0.641 8.51 4.15 0
7/6/2021 2:30:00 PM 20.94 69.692 0.641 8.51 3.44 0
7/6/2021 2:45:00 PM 21.01 69.818 0.641 8.52 5.04 0
7/6/2021 3:00:00 PM 21.07 69.926 0.64 8.52 3.71 0
7/6/2021 3:15:00 PM 21.06 69.908 0.64 8.52 3.75 0
7/6/2021 3:30:00 PM 21.11 69.998 0.64 8.52 4.03 0
7/6/2021 3:45:00 PM 21.12 70.016 0.641 8.53 3.72 0
7/6/2021 4:00:00 PM 21.08 69.944 0.641 8.53 4.2 0
7/6/2021 4:15:00 PM 21.03 69.854 0.641 8.52 2.81 0
7/6/2021 4:30:00 PM 21 69.8 0.641 8.51 3.3 0
7/6/2021 4:45:00 PM 20.95 69.71 0.64 8.5 3.84 0
7/6/2021 5:00:00 PM 20.86 69.548 0.641 8.48 4.85 0
7/6/2021 5:15:00 PM 20.82 69.476 0.64 8.47 4.18 0
7/6/2021 5:30:00 PM 20.79 69.422 0.64 8.47 3.72 0
7/6/2021 5:45:00 PM 20.73 69.314 0.64 8.47 4.81 0
7/6/2021 6:00:00 PM 20.7 69.26 0.64 8.46 6.04 0
7/6/2021 6:15:00 PM 20.68 69.224 0.64 8.46 5.15 0
7/6/2021 6:30:00 PM 20.64 69.152 0.641 8.45 5.02 0
7/6/2021 6:45:00 PM 20.6 69.08 0.641 8.44 6.26 0
7/6/2021 7:00:00 PM 20.54 68.972 0.642 8.42 4.54 0
7/6/2021 7:15:00 PM 20.48 68.864 0.642 8.4 5.27 0
7/6/2021 7:30:00 PM 20.43 68.774 0.642 8.38 5.99 0
7/6/2021 7:45:00 PM 20.37 68.666 0.642 8.35 6.7 0
7/6/2021 8:00:00 PM 20.3 68.54 0.642 8.35 5.56 0
7/6/2021 8:15:00 PM 20.25 68.45 0.643 8.33 5.39 0
7/6/2021 8:30:00 PM 20.2 68.36 0.643 8.31 5.48 0
7/6/2021 8:45:00 PM 20.14 68.252 0.643 8.3 5.82 0
7/6/2021 9:00:00 PM 20.09 68.162 0.644 8.28 6.24 0
7/6/2021 9:15:00 PM 20.03 68.054 0.644 8.27 7.43 0
7/6/2021 9:30:00 PM 19.98 67.964 0.644 8.24 9.67 0
7/6/2021 9:45:00 PM 19.94 67.892 0.644 8.23 8.66 0
7/6/2021 10:00:00 PM 19.89 67.802 0.645 8.2 13.17 0
7/6/2021 10:15:00 PM 19.84 67.712 0.645 8.2 12.2 0
7/6/2021 10:30:00 PM 19.79 67.622 0.645 8.17 8.88 0
7/6/2021 10:45:00 PM 19.74 67.532 0.646 8.18 13.21 0
7/6/2021 11:00:00 PM 19.7 67.46 0.646 8.16 19.9 0
7/6/2021 11:15:00 PM 19.66 67.388 0.646 8.15 8.47 0
7/6/2021 11:30:00 PM 19.62 67.316 0.646 8.13 10.23 0
7/6/2021 11:45:00 PM 19.57 67.226 0.647 8.13 9.17 0
7/7/2021 12:00:00 AM 19.53 67.154 0.647 8.09 11.02 0
7/7/2021 12:15:00 AM 19.49 67.082 0.647 8.07 10.92 0.01
7/7/2021 12:30:00 AM 19.45 67.01 0.648 8.09 12.54 0.01
7/7/2021 12:45:00 AM 19.41 66.938 0.648 8.1 13.02 0.01
7/7/2021 1:00:00 AM 19.37 66.866 0.648 8.1 11.89 0.01
7/7/2021 1:15:00 AM 19.33 66.794 0.648 8.09 13.34 0.02
7/7/2021 1:30:00 AM 19.3 66.74 0.648 8.09 14.25 0.01
7/7/2021 1:45:00 AM 19.26 66.668 0.649 8.1 14.62 0.01
7/7/2021 2:00:00 AM 19.23 66.614 0.65 8.08 12.58 0.01
7/7/2021 2:15:00 AM 19.2 66.56 0.65 8.08 13.36 0.01
7/7/2021 2:30:00 AM 19.16 66.488 0.651 8.07 12.8 0.02
7/7/2021 2:45:00 AM 19.13 66.434 0.651 8.06 14 0.01
7/7/2021 3:00:00 AM 19.09 66.362 0.652 8.06 14.49 0.01
7/7/2021 3:15:00 AM 19.06 66.308 0.652 8.06 17.25 0.01
7/7/2021 3:30:00 AM 19.02 66.236 0.652 8.05 12.93 0.01
7/7/2021 3:45:00 AM 18.99 66.182 0.651 8.05 12.9 0
7/7/2021 4:00:00 AM 18.96 66.128 0.651 8.05 15.89 0
7/7/2021 4:15:00 AM 18.93 66.074 0.652 8.04 18.97 0
7/7/2021 4:30:00 AM 18.89 66.002 0.652 8.03 17.63 0
7/7/2021 4:45:00 AM 18.86 65.948 0.652 8.02 23.38 0
7/7/2021 5:00:00 AM 18.83 65.894 0.652 8.02 21.5 0
7/7/2021 5:15:00 AM 18.79 65.82201 0.652 8.01 22.16 0
7/7/2021 5:30:00 AM 18.76 65.768 0.653 8.03 22.57 0
7/7/2021 5:45:00 AM 18.72 65.696 0.653 8.02 13.01 0.83
7/7/2021 6:00:00 AM 18.69 65.642 0.652 8.02 9.44 3.19
7/7/2021 6:15:00 AM 18.66 65.588 0.652 8.01 6.96 4.73
7/7/2021 6:30:00 AM 18.63 65.534 0.652 8.01 7.33 4.98
7/7/2021 6:45:00 AM 18.61 65.498 0.652 8.01 5.43 4.78
7/7/2021 7:00:00 AM 18.59 65.462 0.652 8.02 6.22 4.28
7/7/2021 7:15:00 AM 18.58 65.444 0.651 8.02 5.63 4.71
7/7/2021 7:30:00 AM 18.58 65.444 0.651 8.01 5.62 4.68
7/7/2021 7:45:00 AM 18.58 65.444 0.651 8.03 4.97 5.17
7/7/2021 8:00:00 AM 18.61 65.498 0.65 8.04 6.31 4.95
7/7/2021 8:15:00 AM 18.64 65.552 0.65 8.06 5.2 4.78
7/7/2021 8:30:00 AM 18.69 65.642 0.65 8.07 5.1 4.57
7/7/2021 8:45:00 AM 18.75 65.75 0.649 8.08 4.66 4.17
7/7/2021 9:00:00 AM 18.83 65.894 0.65 8.09 5.9 3.33
7/7/2021 9:15:00 AM 18.92 66.056 0.649 8.11 4.44 2.17
7/7/2021 9:30:00 AM 19.03 66.254 0.649 8.14 4.87 1.19
7/7/2021 9:45:00 AM 19.15 66.47 0.649 8.16 4.19 0.69
7/7/2021 10:00:00 AM 19.27 66.686 0.648 8.19 4.27 0.39
7/7/2021 10:15:00 AM 19.4 66.92 0.648 8.21 4.42 0.61
7/7/2021 10:30:00 AM 19.53 67.154 0.647 8.23 5.2 0.7
7/7/2021 10:45:00 AM 19.67 67.406 0.647 8.26 13.49 0.28
7/7/2021 11:00:00 AM 19.82 67.676 0.646 8.28 3.66 0.77
7/7/2021 11:15:00 AM 19.96 67.92799 0.646 8.29 10.16 1.31
7/7/2021 11:30:00 AM 20.1 68.18 0.646 8.32 3.07 5.45
7/7/2021 11:45:00 AM 20.24 68.432 0.645 8.35 2.46 2.01
7/7/2021 12:00:00 PM 20.39 68.702 0.645 8.36 1.79 1.02
7/7/2021 12:15:00 PM 20.52 68.936 0.644 8.38 2.83 0.76
7/7/2021 12:30:00 PM 20.64 69.152 0.645 8.39 2.12 0.51
7/7/2021 12:45:00 PM 20.74 69.332 0.644 8.41 2.43 0.36
7/7/2021 1:00:00 PM 20.82 69.476 0.644 8.42 2.73 0.21
7/7/2021 1:15:00 PM 20.89 69.602 0.644 8.43 3.4 0.1
7/7/2021 1:30:00 PM 20.92 69.656 0.644 8.43 2.51 0.05
7/7/2021 1:45:00 PM 20.91 69.638 0.644 8.44 3.48 0.02
7/7/2021 2:00:00 PM 20.98 69.764 0.645 8.44 1.64 0
7/7/2021 2:15:00 PM 20.96 69.728 0.646 8.46 1.95 0
7/7/2021 2:30:00 PM 21.01 69.818 0.646 8.45 2.17 0
7/7/2021 2:45:00 PM 21.06 69.908 0.646 8.47 1.49 0
7/7/2021 3:00:00 PM 21.1 69.98 0.649 8.47 1.73 0
7/7/2021 3:15:00 PM 21.11 69.998 0.649 8.42 2.55 0
7/7/2021 3:30:00 PM 21.14 70.052 0.65 8.24 4.43 0
7/7/2021 3:45:00 PM 21.2 70.16 0.65 7.98 3.1 0.02
7/7/2021 4:00:00 PM 21.21 70.17799 0.65 8.04 3.87 0.13
7/7/2021 4:15:00 PM 21.22 70.196 0.65 7.5 3.76 0.13
7/7/2021 4:30:00 PM 21.24 70.232 0.651 7.79 4.21 0.14
7/7/2021 4:45:00 PM 21.25 70.25 0.651 8.06 5.26 0.12
7/7/2021 5:00:00 PM 21.24 70.232 0.651 8.23 6.75 0.1
7/7/2021 5:15:00 PM 21.22 70.196 0.651 8.32 17.51 0.06
7/7/2021 5:30:00 PM 21.15 70.07 0.651 8.34 19.93 0.06
7/7/2021 5:45:00 PM 21.07 69.926 0.652 8.36 24.19 0.06
7/7/2021 6:00:00 PM 20.97 69.746 0.651 8.36 24.99 0.02
7/7/2021 6:15:00 PM 20.87 69.566 0.553 8.35 27.5 0
7/7/2021 6:30:00 PM 20.78 69.404 0.604 8.35 30.71 0
7/7/2021 6:45:00 PM 20.69 69.242 0.624 8.34 33.43 0
7/7/2021 7:00:00 PM 20.59 69.062 0.649 8.34 37.25 0
7/7/2021 7:15:00 PM 20.5 68.9 0.649 8.32 43.7 0
7/7/2021 7:30:00 PM 20.42 68.756 0.65 8.31 6.72 0.4
7/7/2021 7:45:00 PM 20.36 68.648 0.65 8.29 119.3 0.46
7/7/2021 8:00:00 PM 20.31 68.558 0.651 8.28 279 0.49
7/7/2021 8:15:00 PM 20.27 68.486 0.651 8.26 1109 0.8
7/7/2021 8:30:00 PM 20.22 68.396 0.651 8.25 565.8 1.28
7/7/2021 8:45:00 PM 20.19 68.342 0.651 8.23 40.3 1.25
7/7/2021 9:00:00 PM 20.15 68.27 0.651 8.23 341.3 1.45
7/7/2021 9:15:00 PM 20.12 68.216 0.652 8.22 702.2 1.63
7/7/2021 9:30:00 PM 20.09 68.162 0.652 8.21 75.26 1.3
7/7/2021 9:45:00 PM 20.05 68.09 0.652 8.19 566 2.96
7/7/2021 10:00:00 PM 20.01 68.018 0.652 8.18 1850 5.89
7/7/2021 10:15:00 PM 19.97 67.946 0.652 8.18 1239 6.06
7/7/2021 10:30:00 PM 19.94 67.892 0.651 8.18 454.9 4.74
7/7/2021 10:45:00 PM 19.9 67.82 0.651 8.17 130.5 5.53
7/7/2021 11:00:00 PM 19.87 67.766 0.651 8.17 177.5 4.72
7/7/2021 11:15:00 PM 19.84 67.712 0.649 8.16 69.26 3.98
7/7/2021 11:30:00 PM 19.8 67.64 0.649 8.15 360.6 3.84
7/7/2021 11:45:00 PM 19.77 67.586 0.647 8.15 29.88 4.66
7/8/2021 12:00:00 AM 19.75 67.55 0.649 8.13 54.24 4.86
7/8/2021 12:15:00 AM 19.72 67.496 0.649 8.12 113.4 5.39
7/8/2021 12:30:00 AM 19.7 67.46 0.649 8.12 441.2 5.48
7/8/2021 12:45:00 AM 19.67 67.406 0.65 8.11 361.1 5.05
7/8/2021 1:00:00 AM 19.65 67.37 0.654 8.1 437.3 4.74
7/8/2021 1:15:00 AM 19.62 67.316 0.654 8.1 329 5.31
7/8/2021 1:30:00 AM 19.59 67.262 0.655 8.1 893.4 5.1
7/8/2021 1:45:00 AM 19.57 67.226 0.656 8.09 523.4 7.02
7/8/2021 2:00:00 AM 19.53 67.154 0.656 8.08 528.4 7.15
7/8/2021 2:15:00 AM 19.5 67.1 0.656 8.07 481.8 7.18
7/8/2021 2:30:00 AM 19.47 67.046 0.656 8.07 903.3 7.11
7/8/2021 2:45:00 AM 19.44 66.992 0.657 8.07 1683 6.97
7/8/2021 3:00:00 AM 19.4 66.92 0.658 8.06 954.3 7.1
7/8/2021 3:15:00 AM 19.36 66.848 0.658 8.06 200.9 5.78
7/8/2021 3:30:00 AM 19.33 66.794 0.646 8.05 15.83 6.07
7/8/2021 3:45:00 AM 19.29 66.722 0.66 8.04 30.6 5.22
7/8/2021 4:00:00 AM 19.26 66.668 0.659 8.03 302.5 5.37
7/8/2021 4:15:00 AM 19.22 66.596 0.653 8.04 1430 6.19
7/8/2021 4:30:00 AM 19.19 66.542 0.662 8.04 255.4 5.23
7/8/2021 4:45:00 AM 19.16 66.488 0.662 8.03 666.6 5.35
7/8/2021 5:00:00 AM 19.13 66.434 0.662 8.03 1541 5.42
7/8/2021 5:15:00 AM 19.1 66.38 0.663 8.03 1694 5.22
7/8/2021 5:30:00 AM 19.07 66.326 0.663 8.03 2150 5.35
7/8/2021 5:45:00 AM 19.04 66.272 0.663 8.03 2474 5.23
7/8/2021 6:00:00 AM 19.01 66.218 0.664 8.02 2874 5.34
7/8/2021 6:15:00 AM 18.99 66.182 0.664 8.01 2982 6.56
7/8/2021 6:30:00 AM 18.97 66.146 0.664 8.01 2442 7.07
7/8/2021 6:45:00 AM 18.95 66.11 0.664 8.03 809.8 7.09
7/8/2021 7:00:00 AM 18.93 66.074 0.664 8.03 272.1 5.18
7/8/2021 7:15:00 AM 18.92 66.056 0.663 8.02 1298 5.93
7/8/2021 7:30:00 AM 18.9 66.02 0.663 8.03 1996 7.09
7/8/2021 7:45:00 AM 18.89 66.002 0.662 8.04 1806 7.27
7/8/2021 8:00:00 AM 18.89 66.002 0.662 8.04 1772 7.35
7/8/2021 8:15:00 AM 18.9 66.02 0.66 8.05 2434 7.33
7/8/2021 8:30:00 AM 18.9 66.02 0.66 8.06 610.1 7.58
7/8/2021 8:45:00 AM 18.91 66.038 0.659 8.07 421.1 7.58
7/8/2021 9:00:00 AM 18.91 66.038 0.659 8.09 1068 7.48
7/8/2021 9:15:00 AM 18.94 66.092 0.659 8.1 1758 7.7
7/8/2021 9:30:00 AM 19.02 66.236 0.658 8.12 1186 8.34
7/8/2021 9:45:00 AM 19.1 66.38 0.658 8.16 831.7 8.63
7/8/2021 10:00:00 AM 19.13 66.434 0.657 8.18 727.5 8.64
7/8/2021 10:15:00 AM 19.16 66.488 0.656 8.18 608 9.16
7/8/2021 10:30:00 AM 19.18 66.524 0.656 8.21 1446 9.15
7/8/2021 10:45:00 AM 19.16 66.488 0.655 8.22 2891 9.25
7/8/2021 11:00:00 AM 19.15 66.47 0.655 8.22 2139 9.06
7/8/2021 11:15:00 AM 19.16 66.488 0.654 8.22 573 9.11
7/8/2021 11:30:00 AM 19.16 66.488 0.654 8.23 877.1 9.2
7/8/2021 11:45:00 AM 19.17 66.506 0.654 8.23 1060 9.42
7/8/2021 12:00:00 PM 19.18 66.524 0.653 8.24 977.6 9.48
7/8/2021 12:15:00 PM 19.2 66.56 0.653 8.25 954.1 9.58
7/8/2021 12:30:00 PM 19.22 66.596 0.653 8.27 1268 9.48
7/8/2021 12:45:00 PM 19.25 66.65 0.652 8.29 1215 9.83
7/8/2021 1:00:00 PM 19.27 66.686 0.652 8.3 1670 9.94
7/8/2021 1:15:00 PM 19.31 66.758 0.652 8.32 1749 10.03
7/8/2021 1:30:00 PM 19.35 66.83 0.651 8.32 1706 10.11
7/8/2021 1:45:00 PM 19.42 66.956 0.651 8.35 1625 10.46
7/8/2021 2:00:00 PM 19.51 67.118 0.65 8.38 1571 10.7
7/8/2021 2:15:00 PM 19.56 67.208 0.65 8.4 1318 10.78
7/8/2021 2:30:00 PM 19.62 67.316 0.649 8.41 1574 10.85
7/8/2021 2:45:00 PM 19.7 67.46 0.649 8.44 1419 10.98
7/8/2021 3:00:00 PM 19.76 67.568 0.648 8.45 1594 10.93
7/8/2021 3:15:00 PM 19.78 67.604 0.648 8.46 1698 11.09
7/8/2021 3:30:00 PM 19.78 67.604 0.648 8.46 1566 11.08
7/8/2021 3:45:00 PM 19.73 67.514 0.648 8.45 1517 10.8
7/8/2021 4:00:00 PM 19.67 67.406 0.648 8.42 1762 10.45
7/8/2021 4:15:00 PM 19.61 67.298 0.647 8.4 2424 10.1
7/8/2021 4:30:00 PM 19.57 67.226 0.643 8.37 3455 9.68
7/8/2021 4:45:00 PM 19.5 67.1 0.643 8.32 1877 9.34
7/8/2021 5:00:00 PM 19.44 66.992 0.641 8.3 2402 9.01
7/8/2021 5:15:00 PM 19.38 66.884 0.641 8.27 3058 8.84
7/8/2021 5:30:00 PM 19.37 66.866 0.635 8.25 3455 8.67
7/8/2021 5:45:00 PM 19.34 66.812 0.633 8.22 2441 8.55
7/8/2021 6:00:00 PM 19.29 66.722 0.632 8.21 1929 8.42
7/8/2021 6:15:00 PM 19.26 66.668 0.629 8.18 1844 8.37
7/8/2021 6:30:00 PM 19.23 66.614 0.627 8.18 1925 8.33
7/8/2021 6:45:00 PM 19.2 66.56 0.625 8.18 1845 8.32
7/8/2021 7:00:00 PM 19.18 66.524 0.622 8.16 1849 8.28
7/8/2021 7:15:00 PM 19.16 66.488 0.62 8.16 1893 8.29
7/8/2021 7:30:00 PM 19.14 66.452 0.618 8.15 1964 8.26
7/8/2021 7:45:00 PM 19.1 66.38 0.62 8.14 1955 8.23
7/8/2021 8:00:00 PM 19.06 66.308 0.622 8.14 1967 8.17
7/8/2021 8:15:00 PM 19.03 66.254 0.622 8.13 1939 8.1
7/8/2021 8:30:00 PM 19 66.2 0.622 8.12 1980 8.01
7/8/2021 8:45:00 PM 18.97 66.146 0.62 8.1 1997 7.93
7/8/2021 9:00:00 PM 18.93 66.074 0.619 8.11 2074 7.87
7/8/2021 9:15:00 PM 18.9 66.02 0.619 8.1 2069 7.83
7/8/2021 9:30:00 PM 18.88 65.984 0.62 8.08 2110 7.75
7/8/2021 9:45:00 PM 18.86 65.948 0.621 8.07 2070 7.75
7/8/2021 10:00:00 PM 18.85 65.93 0.62 8.08 2145 7.69
7/8/2021 10:15:00 PM 18.86 65.948 0.617 8.08 2095 7.54
7/8/2021 10:30:00 PM 18.93 66.074 0.601 8.07 2171 6.91
7/8/2021 10:45:00 PM 19.07 66.326 0.569 8.06 2125 6.98
7/8/2021 11:00:00 PM 19.25 66.65 0.547 8.05 2250 7.03
7/8/2021 11:15:00 PM 19.34 66.812 0.534 8.03 2230 6.32
7/8/2021 11:30:00 PM 19.3 66.74 0.538 7.99 2271 6.65
7/8/2021 11:45:00 PM 19.18 66.524 0.553 7.95 2457 6.89
7/9/2021 12:00:00 AM 19.1 66.38 0.563 7.96 2552 7.06
7/9/2021 12:15:00 AM 19.11 66.398 0.571 7.95 2299 6.47
7/9/2021 12:30:00 AM 19.19 66.542 0.573 7.96 3153 6.39
7/9/2021 12:45:00 AM 19.31 66.758 0.57 7.96 3190 6.7
7/9/2021 1:00:00 AM 19.45 67.01 0.568 7.97 3455 6.74
7/9/2021 1:15:00 AM 19.58 67.244 0.567 7.95 3455 6.34
7/9/2021 1:30:00 AM 19.67 67.406 0.569 7.95 3455 6.47
7/9/2021 1:45:00 AM 19.74 67.532 0.571 7.95 3455 6.47
7/9/2021 2:00:00 AM 19.79 67.622 0.568 7.95 3455 6.43
7/9/2021 2:15:00 AM 19.84 67.712 0.557 7.94 3455 6.32
7/9/2021 2:30:00 AM 19.89 67.802 0.536 7.93 3455 5.65
7/9/2021 2:45:00 AM 19.95 67.91 0.517 7.9 3455 5.94
7/9/2021 3:00:00 AM 19.99 67.982 0.495 7.9 3455 5.99
7/9/2021 3:15:00 AM 20.03 68.054 0.472 7.88 3455 5.54
7/9/2021 3:30:00 AM 20.08 68.144 0.449 7.87 3454 5.61
7/9/2021 3:45:00 AM 20.11 68.198 0.429 7.84 3455 5.66
7/9/2021 4:00:00 AM 20.14 68.252 0.418 7.83 3455 5.73
7/9/2021 4:15:00 AM 20.15 68.27 0.404 7.8 3454 6.06
7/9/2021 4:30:00 AM 20.14 68.252 0.404 7.79 3454 6.32
7/9/2021 4:45:00 AM 20.12 68.216 0.403 7.79 3454 6.35
7/9/2021 5:00:00 AM 20.09 68.162 0.404 7.76 3455 6.2
7/9/2021 5:15:00 AM 20.04 68.07201 0.408 7.75 3455 6.4
7/9/2021 5:30:00 AM 19.99 67.982 0.412 7.76 3455 6.44
7/9/2021 5:45:00 AM 19.93 67.874 0.418 7.75 3455 6.46
7/9/2021 6:00:00 AM 19.88 67.784 0.424 7.75 3455 6.5
7/9/2021 6:15:00 AM 19.83 67.694 0.43 7.75 3455 6.52
7/9/2021 6:30:00 AM 19.78 67.604 0.436 7.75 3455 6.56
7/9/2021 6:45:00 AM 19.74 67.532 0.442 7.76 3455 6.61
7/9/2021 7:00:00 AM 19.7 67.46 0.448 7.77 3455 6.66
7/9/2021 7:15:00 AM 19.67 67.406 0.453 7.77 3455 6.73
7/9/2021 7:30:00 AM 19.64 67.352 0.458 7.78 3455 6.81
7/9/2021 7:45:00 AM 19.61 67.298 0.463 7.8 3455 6.88
7/9/2021 8:00:00 AM 19.58 67.244 0.467 7.79 3455 6.95
7/9/2021 8:15:00 AM 19.57 67.226 0.47 7.8 3455 7.08
7/9/2021 8:30:00 AM 19.57 67.226 0.473 7.81 3455 7.25
7/9/2021 8:45:00 AM 19.58 67.244 0.475 7.83 3455 7.44
7/9/2021 9:00:00 AM 19.58 67.244 0.478 7.85 3455 7.57
7/9/2021 9:15:00 AM 19.58 67.244 0.48 7.85 3455 7.67
7/9/2021 9:30:00 AM 19.64 67.352 0.483 7.88 3455 7.93
7/9/2021 9:45:00 AM 19.69 67.442 0.485 7.92 3455 8.1
7/9/2021 10:00:00 AM 19.71 67.478 0.488 7.92 3455 8.24
7/9/2021 10:15:00 AM 19.72 67.496 0.491 7.93 3455 8.35
7/9/2021 10:30:00 AM 19.67 67.406 0.494 7.94 3455 8.34
7/9/2021 10:45:00 AM 19.72 67.496 0.497 7.94 3455 8.46
7/9/2021 11:00:00 AM 19.78 67.604 0.5 7.97 3455 8.63
7/9/2021 11:15:00 AM 19.83 67.694 0.503 7.98 3455 8.8
7/9/2021 11:30:00 AM 19.95 67.91 0.507 7.99 3455 9.05
7/9/2021 11:45:00 AM 20.04 68.07201 0.51 8.02 3455 9.24
7/9/2021 12:00:00 PM 20.15 68.27 0.514 8.03 3455 9.41
7/9/2021 12:15:00 PM 20.29 68.522 0.518 8.06 3455 9.67
7/9/2021 12:30:00 PM 20.32 68.576 0.521 8.09 3455 9.78
7/9/2021 12:45:00 PM 20.33 68.594 0.524 8.1 3455 9.85
7/9/2021 1:00:00 PM 20.37 68.666 0.528 8.13 3455 9.98
7/9/2021 1:15:00 PM 20.32 68.576 0.531 8.15 3455 9.92
7/9/2021 1:30:00 PM 20.25 68.45 0.533 8.15 3455 9.79
7/9/2021 1:45:00 PM 20.33 68.594 0.535 8.15 3455 9.91
7/9/2021 2:00:00 PM 20.47 68.846 0.537 8.18 3455 10.14
7/9/2021 2:15:00 PM 20.47 68.846 0.538 8.2 3455 10.15
7/9/2021 2:30:00 PM 20.58 69.044 0.539 8.22 3455 10.34
7/9/2021 2:45:00 PM 20.75 69.35 0.54 8.24 3455 10.58
7/9/2021 3:00:00 PM 20.77 69.386 0.54 8.27 3455 10.59
7/9/2021 3:15:00 PM 20.74 69.332 0.541 8.27 3455 10.59
7/9/2021 3:30:00 PM 20.68 69.224 0.543 8.29 3455 10.54
7/9/2021 3:45:00 PM 20.65 69.17 0.544 8.29 3455 10.6
7/9/2021 4:00:00 PM 20.64 69.152 0.546 8.31 3455 10.62
7/9/2021 4:15:00 PM 20.61 69.098 0.547 8.3 3455 10.57
7/9/2021 4:30:00 PM 20.61 69.098 0.548 8.31 3455 10.57
7/9/2021 4:45:00 PM 20.61 69.098 0.549 8.32 3455 10.53
7/9/2021 5:00:00 PM 20.55 68.99 0.551 8.32 3455 10.32
7/9/2021 5:15:00 PM 20.44 68.792 0.55 8.3 3455 9.92
7/9/2021 5:30:00 PM 20.34 68.612 0.541 8.28 3455 9.5
7/9/2021 5:45:00 PM 20.24 68.432 0.539 8.25 3455 9.12
7/9/2021 6:00:00 PM 20.16 68.288 0.535 8.22 3455 8.93
7/9/2021 6:15:00 PM 20.14 68.252 0.529 8.21 3455 8.8
7/9/2021 6:30:00 PM 20.13 68.234 0.529 8.18 3455 8.62
7/9/2021 6:45:00 PM 20.13 68.234 0.533 8.16 3455 8.59
7/9/2021 7:00:00 PM 20.11 68.198 0.533 8.15 3455 8.51
7/9/2021 7:15:00 PM 20.12 68.216 0.527 8.13 3455 8.33
7/9/2021 7:30:00 PM 20.14 68.252 0.522 8.12 3455 8.23
7/9/2021 7:45:00 PM 20.12 68.216 0.527 8.1 3455 8.21
7/9/2021 8:00:00 PM 20.14 68.252 0.528 8.1 3455 8.15
7/9/2021 8:15:00 PM 20.2 68.36 0.524 8.11 3455 8.02
7/9/2021 8:30:00 PM 20.2 68.36 0.525 8.13 3455 7.92
7/9/2021 8:45:00 PM 20.14 68.252 0.531 8.13 3455 7.82
7/9/2021 9:00:00 PM 20.04 68.07201 0.536 8.13 3455 7.74
7/9/2021 9:15:00 PM 19.95 67.91 0.539 8.11 3455 7.68
7/9/2021 9:30:00 PM 19.86 67.748 0.547 8.1 3455 7.65
7/9/2021 9:45:00 PM 19.79 67.622 0.553 8.07 3455 7.62
7/9/2021 10:00:00 PM 19.73 67.514 0.557 8.05 3455 7.59
7/9/2021 10:15:00 PM 19.69 67.442 0.56 8.05 3455 7.56
7/9/2021 10:30:00 PM 19.66 67.388 0.563 8.04 3455 7.52
7/9/2021 10:45:00 PM 19.63 67.334 0.565 8.03 3455 7.48
7/9/2021 11:00:00 PM 19.61 67.298 0.566 8.02 3455 7.44
7/9/2021 11:15:00 PM 19.59 67.262 0.565 8.03 3455 7.38
7/9/2021 11:30:00 PM 19.62 67.316 0.559 8.02 3455 7.31
7/9/2021 11:45:00 PM 19.67 67.406 0.55 8.01 3455 7.24
7/10/2021 12:00:00 AM 19.74 67.532 0.542 8 3455 7.16
7/10/2021 12:15:00 AM 19.79 67.622 0.538 7.99 3455 7.1
7/10/2021 12:30:00 AM 19.79 67.622 0.539 7.97 3455 7.08
7/10/2021 12:45:00 AM 19.75 67.55 0.542 7.96 3455 7.08
7/10/2021 1:00:00 AM 19.68 67.424 0.546 7.94 3455 7.08
7/10/2021 1:15:00 AM 19.59 67.262 0.552 7.93 3455 7.1
7/10/2021 1:30:00 AM 19.47 67.046 0.558 7.92 3455 7.12
7/10/2021 1:45:00 AM 19.35 66.83 0.566 7.92 3455 7.15
7/10/2021 2:00:00 AM 19.23 66.614 0.573 7.91 3455 7.18
7/10/2021 2:15:00 AM 19.12 66.416 0.578 7.92 3455 7.2
7/10/2021 2:30:00 AM 19.03 66.254 0.582 7.92 3455 7.23
7/10/2021 2:45:00 AM 18.96 66.128 0.583 7.92 3455 7.23
7/10/2021 3:00:00 AM 18.9 66.02 0.583 7.93 3455 7.24
7/10/2021 3:15:00 AM 18.86 65.948 0.583 7.94 3455 7.25
7/10/2021 3:30:00 AM 18.83 65.894 0.585 7.94 3455 7.25
7/10/2021 3:45:00 AM 18.8 65.84 0.585 7.95 3455 7.25
7/10/2021 4:00:00 AM 18.78 65.804 0.585 7.95 3455 7.26
7/10/2021 4:15:00 AM 18.77 65.786 0.583 7.94 3455 7.25
7/10/2021 4:30:00 AM 18.76 65.768 0.581 7.94 3455 7.23
7/10/2021 4:45:00 AM 18.74 65.732 0.568 7.95 3455 7.22
7/10/2021 5:00:00 AM 18.73 65.714 0.577 7.96 3455 7.2
7/10/2021 5:15:00 AM 18.72 65.696 0.573 7.95 3455 7.17
7/10/2021 5:30:00 AM 18.71 65.67799 0.572 7.96 3455 7.14
7/10/2021 5:45:00 AM 18.7 65.66 0.572 7.95 3455 7.11
7/10/2021 6:00:00 AM 18.69 65.642 0.57 7.95 3455 7.11
7/10/2021 6:15:00 AM 18.67 65.606 0.57 7.95 3455 7.11
7/10/2021 6:30:00 AM 18.66 65.588 0.57 7.95 3455 7.12
7/10/2021 6:45:00 AM 18.65 65.57 0.57 7.94 3455 7.15
7/10/2021 7:00:00 AM 18.64 65.552 0.574 7.94 3455 7.18
7/10/2021 7:15:00 AM 18.63 65.534 0.574 7.94 3455 7.21
7/10/2021 7:30:00 AM 18.62 65.516 0.574 7.94 3455 7.26
7/10/2021 7:45:00 AM 18.62 65.516 0.574 7.95 3455 7.34
7/10/2021 8:00:00 AM 18.63 65.534 0.576 7.95 3455 7.43
7/10/2021 8:15:00 AM 18.66 65.588 0.576 7.96 3455 7.55
7/10/2021 8:30:00 AM 18.7 65.66 0.575 7.98 3455 7.7
7/10/2021 8:45:00 AM 18.75 65.75 0.573 7.98 3455 7.84
7/10/2021 9:00:00 AM 18.8 65.84 0.57 8 3455 7.99
7/10/2021 9:15:00 AM 18.87 65.966 0.566 8.01 3455 8.14
7/10/2021 9:30:00 AM 18.95 66.11 0.563 8.01 3455 8.31
7/10/2021 9:45:00 AM 19.02 66.236 0.557 8.03 3455 8.44
7/10/2021 10:00:00 AM 19.11 66.398 0.558 8.04 3455 8.6
7/10/2021 10:15:00 AM 19.2 66.56 0.556 8.06 3455 8.78
7/10/2021 10:30:00 AM 19.24 66.632 0.554 8.08 3455 8.9
7/10/2021 10:45:00 AM 19.27 66.686 0.554 8.07 3455 8.99
7/10/2021 11:00:00 AM 19.33 66.794 0.553 8.09 3455 9.11
7/10/2021 11:15:00 AM 19.4 66.92 0.554 8.1 3455 9.28
7/10/2021 11:30:00 AM 19.41 66.938 0.554 8.11 3455 9.33
7/10/2021 11:45:00 AM 19.41 66.938 0.556 8.11 3455 9.36
7/10/2021 12:00:00 PM 19.46 67.028 0.557 8.12 3455 9.48
7/10/2021 12:15:00 PM 19.43 66.974 0.559 8.13 3455 9.49
7/10/2021 12:30:00 PM 19.42 66.956 0.561 8.15 3455 9.53
7/10/2021 12:45:00 PM 19.43 66.974 0.563 8.16 3455 9.64
7/10/2021 1:00:00 PM 19.39 66.902 0.566 8.16 3455 9.59
7/10/2021 1:15:00 PM 19.35 66.83 0.568 8.15 3455 9.54
7/10/2021 1:30:00 PM 19.31 66.758 0.57 8.15 3455 9.5
7/10/2021 1:45:00 PM 19.27 66.686 0.574 8.16 3455 9.46
7/10/2021 2:00:00 PM 19.29 66.722 0.576 8.17 3455 9.6
7/10/2021 2:15:00 PM 19.33 66.794 0.579 8.19 3455 9.82
7/10/2021 2:30:00 PM 19.42 66.956 0.58 8.22 3455 10.03
7/10/2021 2:45:00 PM 19.63 67.334 0.582 8.25 3455 10.34
7/10/2021 3:00:00 PM 19.84 67.712 0.581 8.29 3455 10.59
7/10/2021 3:15:00 PM 20.02 68.036 0.583 8.32 3455 10.77
7/10/2021 3:30:00 PM 20.12 68.216 0.583 8.34 3455 10.82
7/10/2021 3:45:00 PM 20.17 68.306 0.581 8.35 3455 10.83
7/10/2021 4:00:00 PM 20.18 68.324 0.582 8.36 3455 10.85
7/10/2021 4:15:00 PM 20.16 68.288 0.581 8.35 3455 10.77
7/10/2021 4:30:00 PM 20.11 68.198 0.583 8.34 3455 10.69
7/10/2021 4:45:00 PM 20.05 68.09 0.583 8.34 3455 10.55
7/10/2021 5:00:00 PM 19.99 67.982 0.585 8.34 3455 10.43
7/10/2021 5:15:00 PM 19.95 67.91 0.586 8.33 3455 10.28
7/10/2021 5:30:00 PM 19.94 67.892 0.581 8.31 3455 10.09
7/10/2021 5:45:00 PM 19.95 67.91 0.604 8.3 3455 9.95
7/10/2021 6:00:00 PM 19.96 67.92799 0.612 8.3 3455 9.82
7/10/2021 6:15:00 PM 19.93 67.874 0.617 8.28 3455 9.66
7/10/2021 6:30:00 PM 19.91 67.838 0.617 8.27 3455 9.55
7/10/2021 6:45:00 PM 19.89 67.802 0.62 8.27 3455 9.46
7/10/2021 7:00:00 PM 19.88 67.784 0.621 8.25 3455 9.32
7/10/2021 7:15:00 PM 19.86 67.748 0.622 8.25 3455 9.22
7/10/2021 7:30:00 PM 19.83 67.694 0.617 8.23 3455 9.08
7/10/2021 7:45:00 PM 19.79 67.622 0.625 8.23 3455 8.96
7/10/2021 8:00:00 PM 19.76 67.568 0.621 8.2 3455 8.84
7/10/2021 8:15:00 PM 19.72 67.496 0.623 8.19 3455 8.72
7/10/2021 8:30:00 PM 19.67 67.406 0.625 8.18 3455 8.56
7/10/2021 8:45:00 PM 19.62 67.316 0.626 8.17 3455 8.47
7/10/2021 9:00:00 PM 19.58 67.244 0.628 8.16 3455 8.32
7/10/2021 9:15:00 PM 19.53 67.154 0.629 8.14 3455 8.21
7/10/2021 9:30:00 PM 19.48 67.064 0.628 8.13 3455 8.14
7/10/2021 9:45:00 PM 19.42 66.956 0.631 8.14 3455 8.06
7/10/2021 10:00:00 PM 19.35 66.83 0.628 8.11 3455 8
7/10/2021 10:15:00 PM 19.24 66.632 0.623 8.11 3455 7.95
7/10/2021 10:30:00 PM 19.14 66.452 0.621 8.06 3455 7.94
7/10/2021 10:45:00 PM 19.05 66.29 0.619 8.09 3455 7.7
7/10/2021 11:00:00 PM 18.98 66.164 0.616 8.1 3455 7.28
7/10/2021 11:15:00 PM 18.92 66.056 0.616 8.09 3455 7.48
7/10/2021 11:30:00 PM 18.86 65.948 0.616 8.09 3455 7.72
7/10/2021 11:45:00 PM 18.81 65.858 0.616 8.08 3455 7.69
7/11/2021 12:00:00 AM 18.76 65.768 0.616 8.09 3455 7.78
7/11/2021 12:15:00 AM 18.71 65.67799 0.617 8.09 3455 7.75
7/11/2021 12:30:00 AM 18.66 65.588 0.618 8.09 3455 7.73
7/11/2021 12:45:00 AM 18.62 65.516 0.619 8.08 3455 7.73
7/11/2021 1:00:00 AM 18.58 65.444 0.62 8.07 3455 7.7
7/11/2021 1:15:00 AM 18.54 65.372 0.621 8.08 3455 7.66
7/11/2021 1:30:00 AM 18.5 65.3 0.621 8.09 3455 7.67
7/11/2021 1:45:00 AM 18.45 65.21 0.622 8.06 3455 7.65
7/11/2021 2:00:00 AM 18.41 65.138 0.624 8.05 3455 7.64
7/11/2021 2:15:00 AM 18.37 65.066 0.624 8.06 3455 7.62
7/11/2021 2:30:00 AM 18.34 65.012 0.625 8.04 3455 7.62
7/11/2021 2:45:00 AM 18.3 64.94 0.626 8.05 3455 7.61
7/11/2021 3:00:00 AM 18.27 64.886 0.627 8.04 3455 7.62
7/11/2021 3:15:00 AM 18.24 64.832 0.625 8.04 3455 7.6
7/11/2021 3:30:00 AM 18.22 64.796 0.625 8.04 3455 7.59
7/11/2021 4:00:00 AM 18.19 64.742 0.628 8.02 3455 7.55
7/11/2021 4:15:00 AM 18.17 64.706 0.629 8.02 3455 7.57
7/11/2021 4:30:00 AM 18.15 64.67 0.629 8 3455 7.57
7/11/2021 4:45:00 AM 18.13 64.634 0.627 8.02 3455 7.54
7/11/2021 5:00:00 AM 18.12 64.616 0.629 8.01 3455 7.56
7/11/2021 5:15:00 AM 18.1 64.58 0.631 8.01 3455 7.56
7/11/2021 5:30:00 AM 18.08 64.544 0.626 8.02 3455 7.56
7/11/2021 5:45:00 AM 18.06 64.508 0.629 8.02 3455 7.55
7/11/2021 6:00:00 AM 18.04 64.472 0.629 8.01 3455 7.54
7/11/2021 6:15:00 AM 18.02 64.436 0.627 8.01 3455 7.54
7/11/2021 6:30:00 AM 18.01 64.418 0.603 8.01 3455 7.54
7/11/2021 6:45:00 AM 17.99 64.382 0.63 8.01 3455 7.58
7/11/2021 7:00:00 AM 17.98 64.364 0.569 8 3455 7.61
7/11/2021 7:15:00 AM 17.97 64.346 0.63 7.73 3455 7.66
7/11/2021 7:30:00 AM 17.96 64.328 0.631 8 3455 7.77
7/11/2021 7:45:00 AM 17.97 64.346 0.633 8.02 3455 7.81
7/11/2021 8:00:00 AM 17.97 64.346 0.575 8.02 3455 7.83
7/11/2021 8:15:00 AM 17.98 64.364 0.59 8.03 3455 7.99
7/11/2021 8:30:00 AM 17.98 64.364 0.572 8.04 3455 8.08
7/11/2021 8:45:00 AM 17.99 64.382 0.53 8.05 3455 8.13
7/11/2021 9:00:00 AM 18 64.4 0.573 8.06 3455 8.21
7/11/2021 9:15:00 AM 18.03 64.454 0.623 8.07 3455 8.43
7/11/2021 9:30:00 AM 18.05 64.49 0.626 8.08 3455 8.56
7/11/2021 9:45:00 AM 18.05 64.49 0.601 8.08 3455 8.63
7/11/2021 10:00:00 AM 18.08 64.544 0.606 8.1 3455 8.77
7/11/2021 10:15:00 AM 18.14 64.652 0.605 8.12 3455 9.03
7/11/2021 10:30:00 AM 18.15 64.67 0.618 8.13 3455 9.08
7/11/2021 10:45:00 AM 18.14 64.652 0.622 8.14 3455 9.04
7/11/2021 11:00:00 AM 18.14 64.652 0.557 8.14 3455 9.02
7/11/2021 11:15:00 AM 18.14 64.652 0.571 8.15 3455 9.02
7/11/2021 11:30:00 AM 18.14 64.652 0.607 8.15 3455 9
7/11/2021 11:45:00 AM 18.14 64.652 0.603 8.16 3455 9.05
7/11/2021 12:00:00 PM 18.14 64.652 0.59 8.17 3455 9.08
7/11/2021 12:15:00 PM 18.14 64.652 0.633 8.16 3455 9.1
7/11/2021 12:30:00 PM 18.18 64.724 0.633 8.18 3455 9.27
7/11/2021 12:45:00 PM 18.21 64.778 0.633 8.19 3455 9.41
7/11/2021 1:00:00 PM 18.23 64.814 0.633 8.19 3455 9.48
7/11/2021 1:15:00 PM 18.24 64.832 0.633 8.21 3455 9.52
7/11/2021 1:30:00 PM 18.29 64.922 0.582 8.23 3455 9.64
7/11/2021 1:45:00 PM 18.4 65.12 0.561 8.24 3455 9.94
7/11/2021 2:00:00 PM 18.56 65.408 0.632 8.26 3455 10.31
7/11/2021 2:15:00 PM 18.71 65.67799 0.633 8.3 3455 10.57
7/11/2021 2:30:00 PM 18.82 65.876 0.631 8.32 3455 10.76
7/11/2021 2:45:00 PM 18.88 65.984 0.632 8.35 3455 10.76
7/11/2021 3:00:00 PM 18.95 66.11 0.632 8.35 3455 10.74
7/11/2021 3:15:00 PM 18.92 66.056 0.631 8.36 3455 10.43
7/11/2021 3:30:00 PM 18.88 65.984 0.63 8.34 3455 10.3
7/11/2021 3:45:00 PM 18.9 66.02 0.63 8.33 3455 10.35
7/11/2021 4:00:00 PM 18.96 66.128 0.63 8.34 3455 10.43
7/11/2021 4:15:00 PM 18.99 66.182 0.631 8.35 3455 10.56
7/11/2021 4:30:00 PM 18.99 66.182 0.631 8.35 3455 10.59
7/11/2021 4:45:00 PM 19.02 66.236 0.631 8.36 3455 10.58
7/11/2021 5:00:00 PM 18.97 66.146 0.632 8.35 3455 10.45
7/11/2021 5:15:00 PM 18.91 66.038 0.632 8.34 3455 10.2
7/11/2021 5:30:00 PM 18.86 65.948 0.631 8.33 3455 10.02
7/11/2021 5:45:00 PM 18.83 65.894 0.631 8.32 3455 10.05
7/11/2021 6:00:00 PM 18.8 65.84 0.631 8.31 3455 9.95
7/11/2021 6:15:00 PM 18.78 65.804 0.631 8.31 3455 9.86
7/11/2021 6:30:00 PM 18.75 65.75 0.632 8.3 3455 9.86
7/11/2021 6:45:00 PM 18.68 65.624 0.633 8.28 3455 9.66
7/11/2021 7:00:00 PM 18.62 65.516 0.633 8.27 3455 9.5
7/11/2021 7:15:00 PM 18.58 65.444 0.633 8.26 3455 9.34
7/11/2021 7:30:00 PM 18.56 65.408 0.632 8.24 3455 9.21
7/11/2021 7:45:00 PM 18.54 65.372 0.631 8.22 3455 9.06
7/11/2021 8:00:00 PM 18.53 65.354 0.63 8.22 3455 8.92
7/11/2021 8:15:00 PM 18.53 65.354 0.547 8.2 3455 8.77
7/11/2021 8:30:00 PM 18.54 65.372 0.627 8.19 3455 8.6
7/11/2021 8:45:00 PM 18.55 65.39 0.626 8.18 3455 8.48
7/11/2021 9:00:00 PM 18.55 65.39 0.624 8.16 3455 8.35
7/11/2021 9:15:00 PM 18.59 65.462 0.615 8.16 3455 8.25
7/11/2021 9:30:00 PM 18.71 65.67799 0.597 8.16 3455 8.07
7/11/2021 9:45:00 PM 18.89 66.002 0.576 8.14 3455 7.94
7/11/2021 10:00:00 PM 19.02 66.236 0.565 8.11 3455 7.82
7/11/2021 10:15:00 PM 19.07 66.326 0.556 8.08 3455 7.83
7/11/2021 10:30:00 PM 19.03 66.254 0.557 8.08 3455 7.76
7/11/2021 10:45:00 PM 18.92 66.056 0.566 8.06 3455 7.83
7/11/2021 11:00:00 PM 18.84 65.912 0.571 8.05 3455 7.87
7/11/2021 11:15:00 PM 18.79 65.82201 0.574 8.04 3455 7.82
7/11/2021 11:30:00 PM 18.81 65.858 0.571 8.02 3455 7.74
7/11/2021 11:45:00 PM 18.88 65.984 0.568 8.01 3455 7.66
7/12/2021 12:00:00 AM 18.99 66.182 0.561 8.01 3455 7.57
7/12/2021 12:15:00 AM 19.11 66.398 0.551 8 3455 7.5
7/12/2021 12:30:00 AM 19.25 66.65 0.542 8 3455 7.4
7/12/2021 12:45:00 AM 19.4 66.92 0.534 8.01 3455 7.31
7/12/2021 1:00:00 AM 19.5 67.1 0.534 7.99 3455 7.25
7/12/2021 1:15:00 AM 19.54 67.172 0.54 8 3455 7.22
7/12/2021 1:30:00 AM 19.53 67.154 0.547 7.99 3455 7.21
7/12/2021 1:45:00 AM 19.5 67.1 0.553 7.98 3455 7.19
7/12/2021 2:00:00 AM 19.46 67.028 0.556 7.97 3455 7.19
7/12/2021 2:15:00 AM 19.42 66.956 0.557 7.96 3455 7.18
7/12/2021 2:30:00 AM 19.39 66.902 0.555 7.95 3455 7.17
7/12/2021 2:45:00 AM 19.38 66.884 0.549 7.94 3455 7.18
7/12/2021 3:00:00 AM 19.38 66.884 0.536 7.93 3455 7.17
7/12/2021 3:15:00 AM 19.44 66.992 0.506 7.92 3455 7.1
7/12/2021 3:30:00 AM 19.6 67.28 0.461 7.9 3455 6.94
7/12/2021 3:45:00 AM 19.7 67.46 0.434 7.85 3455 6.82
7/12/2021 4:00:00 AM 19.83 67.694 0.425 7.82 3455 6.68
7/12/2021 4:15:00 AM 20.05 68.09 0.42 7.81 3455 6.61
7/12/2021 4:30:00 AM 20.29 68.522 0.42 7.8 3455 6.57
7/12/2021 4:45:00 AM 20.48 68.864 0.41 7.81 3455 6.54
7/12/2021 5:00:00 AM 20.63 69.134 0.376 7.82 3455 6.47
7/12/2021 5:15:00 AM 20.76 69.368 0.327 7.8 3455 6.41
7/12/2021 5:30:00 AM 20.85 69.53 0.288 7.8 3455 6.34
7/12/2021 5:45:00 AM 20.89 69.602 0.267 7.8 3455 6.48
7/12/2021 6:00:00 AM 20.89 69.602 0.262 7.78 3455 6.47
7/12/2021 6:15:00 AM 20.86 69.548 0.265 7.77 3455 6.37
7/12/2021 6:30:00 AM 20.81 69.458 0.274 7.74 3455 6.46
7/12/2021 6:45:00 AM 20.74 69.332 0.285 7.73 3455 6.49
7/12/2021 7:00:00 AM 20.67 69.206 0.296 7.72 3455 6.31
7/12/2021 7:15:00 AM 20.6 69.08 0.308 7.7 3455 6.4
7/12/2021 7:30:00 AM 20.53 68.954 0.317 7.7 3455 6.29
7/12/2021 7:45:00 AM 20.47 68.846 0.321 7.69 3455 6.39
7/12/2021 8:00:00 AM 20.39 68.702 0.325 7.69 3455 6.25
7/12/2021 8:15:00 AM 20.31 68.558 0.33 7.69 3455 6.55
7/12/2021 8:30:00 AM 20.23 68.414 0.333 7.68 3455 6.72
7/12/2021 8:45:00 AM 20.17 68.306 0.337 7.68 3455 6.82
7/12/2021 9:00:00 AM 20.11 68.198 0.342 7.67 3455 6.84
7/12/2021 9:15:00 AM 20.07 68.126 0.347 7.67 3455 6.8
7/12/2021 9:30:00 AM 20.03 68.054 0.352 7.68 3455 6.79
7/12/2021 9:45:00 AM 20.04 68.07201 0.331 7.67 3455 6.84
7/12/2021 10:00:00 AM 20.04 68.07201 0.362 7.69 3455 6.92
7/12/2021 10:15:00 AM 20.08 68.144 0.368 7.69 3455 6.99
7/12/2021 10:30:00 AM 20.15 68.27 0.373 7.7 3455 6.96
7/12/2021 10:45:00 AM 20.16 68.288 0.377 7.7 3455 7.02
7/12/2021 11:00:00 AM 20.24 68.432 0.382 7.69 3455 7.12
7/12/2021 11:15:00 AM 20.35 68.63 0.386 7.7 3455 6.98
7/12/2021 11:30:00 AM 20.44 68.792 0.392 7.71 3455 7.31
7/12/2021 11:45:00 AM 20.5 68.9 0.399 7.72 3455 7.43
7/12/2021 12:00:00 PM 20.56 69.008 0.405 7.73 3455 7.38
7/12/2021 12:15:00 PM 20.67 69.206 0.412 7.75 3455 7.52
7/12/2021 12:30:00 PM 20.75 69.35 0.419 7.76 3455 7.58
7/12/2021 12:45:00 PM 20.8 69.44 0.425 7.78 3455 7.56
7/12/2021 1:00:00 PM 20.89 69.602 0.431 7.79 3455 7.55
7/12/2021 1:15:00 PM 20.96 69.728 0.435 7.81 3455 7.02
7/12/2021 1:30:00 PM 21.02 69.836 0.439 7.82 3455 6.89
7/12/2021 1:45:00 PM 21.09 69.962 0.443 7.83 3455 6.95
7/12/2021 2:00:00 PM 21.17 70.106 0.446 7.85 3455 7.62
7/12/2021 2:15:00 PM 21.24 70.232 0.448 7.87 3455 7.4
7/12/2021 2:30:00 PM 21.25 70.25 0.451 7.88 3455 7.64
7/12/2021 2:45:00 PM 21.28 70.304 0.454 7.88 3455 7.76
7/12/2021 3:00:00 PM 21.32 70.376 0.456 7.88 3455 7.89
7/12/2021 3:15:00 PM 21.17 70.106 0.459 7.89 3455 7.9
7/12/2021 3:30:00 PM 21.04 69.872 0.463 7.88 3455 7.73
7/12/2021 3:45:00 PM 21 69.8 0.466 7.87 3455 7.46
7/12/2021 4:00:00 PM 21.02 69.836 0.47 7.86 3455 7.54
7/12/2021 4:15:00 PM 21.01 69.818 0.473 7.88 3455 7.4
7/12/2021 4:30:00 PM 21.01 69.818 0.476 7.84 3455 8.07
7/12/2021 4:45:00 PM 20.98 69.764 0.479 7.9 3455 8.02
7/12/2021 5:00:00 PM 20.93 69.674 0.482 7.9 3455 7.92
7/12/2021 5:15:00 PM 20.87 69.566 0.484 7.9 3455 7.81
7/12/2021 5:30:00 PM 20.81 69.458 0.487 7.89 3455 7.69
7/12/2021 5:45:00 PM 20.76 69.368 0.491 7.9 3455 7.64
7/12/2021 6:00:00 PM 20.73 69.314 0.494 7.9 3455 7.55
7/12/2021 6:15:00 PM 20.69 69.242 0.498 7.9 3455 7.55
7/12/2021 6:30:00 PM 20.66 69.188 0.501 7.89 3455 7.51
7/12/2021 6:45:00 PM 20.63 69.134 0.505 7.9 3455 7.49
7/12/2021 7:00:00 PM 20.61 69.098 0.508 7.9 3455 7.51
7/12/2021 7:15:00 PM 20.58 69.044 0.511 7.91 3455 7.42
7/12/2021 7:30:00 PM 20.55 68.99 0.515 7.9 3455 7.52
7/12/2021 7:45:00 PM 20.51 68.918 0.517 7.9 3455 7.54
7/12/2021 8:00:00 PM 20.48 68.864 0.521 7.91 3455 7.52
7/12/2021 8:15:00 PM 20.43 68.774 0.524 7.92 3455 7.44
7/12/2021 8:30:00 PM 20.38 68.684 0.526 7.91 3455 7.44
7/12/2021 8:45:00 PM 20.33 68.594 0.529 7.9 3455 7.43
7/12/2021 9:00:00 PM 20.28 68.504 0.532 7.9 3455 7.39
7/12/2021 9:15:00 PM 20.24 68.432 0.534 7.91 3455 7.36
7/12/2021 9:30:00 PM 20.19 68.342 0.537 7.91 3455 7.28
7/12/2021 9:45:00 PM 20.14 68.252 0.54 7.91 3455 7.24
7/12/2021 10:00:00 PM 20.1 68.18 0.543 7.9 3455 7.3
7/12/2021 10:15:00 PM 20.05 68.09 0.545 7.91 3455 7.26
7/12/2021 10:30:00 PM 20.02 68.036 0.548 7.91 3455 7.17
7/12/2021 10:45:00 PM 19.97 67.946 0.55 7.91 3455 7.22
7/12/2021 11:00:00 PM 19.93 67.874 0.552 7.91 3455 7.23
7/12/2021 11:15:00 PM 19.89 67.802 0.554 7.91 3455 7.24
7/12/2021 11:30:00 PM 19.85 67.73 0.556 7.91 3455 7.25
7/12/2021 11:45:00 PM 19.82 67.676 0.557 7.91 3455 7.25
7/13/2021 12:00:00 AM 19.79 67.622 0.558 7.91 3455 7.25
7/13/2021 12:15:00 AM 19.76 67.568 0.56 7.92 3455 7.23
7/13/2021 12:30:00 AM 19.73 67.514 0.562 7.92 3455 7.25
7/13/2021 12:45:00 AM 19.73 67.514 0.561 7.92 3455 7.33
7/13/2021 1:00:00 AM 19.75 67.55 0.555 7.94 3455 7.4
7/13/2021 1:15:00 AM 19.73 67.514 0.556 7.93 3455 7.4
7/13/2021 1:30:00 AM 19.71 67.478 0.556 7.94 3455 7.38
7/13/2021 1:45:00 AM 19.71 67.478 0.556 7.94 3455 7.35
7/13/2021 2:00:00 AM 19.68 67.424 0.557 7.92 3455 7.32
7/13/2021 2:15:00 AM 19.65 67.37 0.557 7.93 3455 7.33
7/13/2021 2:30:00 AM 19.63 67.334 0.557 7.91 3455 7.33
7/13/2021 2:45:00 AM 19.61 67.298 0.556 7.92 3455 7.32
7/13/2021 3:00:00 AM 19.6 67.28 0.557 7.91 3455 7.33
7/13/2021 3:15:00 AM 19.61 67.298 0.558 7.94 3455 7.32
7/13/2021 3:30:00 AM 19.6 67.28 0.557 7.94 3455 7.31
7/13/2021 3:45:00 AM 19.59 67.262 0.556 7.94 3455 7.23
7/13/2021 4:00:00 AM 19.55 67.19 0.555 7.95 3455 7.31
7/13/2021 4:15:00 AM 19.54 67.172 0.556 7.94 3455 7.28
7/13/2021 4:30:00 AM 19.54 67.172 0.554 7.94 3455 7.34
7/13/2021 4:45:00 AM 19.56 67.208 0.552 7.93 3455 7.34
7/13/2021 5:00:00 AM 19.64 67.352 0.535 7.93 3455 7.33
7/13/2021 5:15:00 AM 19.79 67.622 0.506 7.93 3455 7.28
7/13/2021 5:30:00 AM 19.9 67.82 0.485 7.91 3455 7.26
7/13/2021 5:45:00 AM 19.93 67.874 0.475 7.89 3455 7.24
7/13/2021 6:00:00 AM 19.84 67.712 0.481 7.83 3455 7.25
7/13/2021 6:15:00 AM 19.71 67.478 0.492 7.84 3455 7.25
7/13/2021 6:30:00 AM 19.67 67.406 0.497 7.83 3455 7.28
7/13/2021 6:45:00 AM 19.74 67.532 0.49 7.85 3455 7.28
7/13/2021 7:00:00 AM 19.89 67.802 0.479 7.84 3455 7.22
7/13/2021 7:15:00 AM 20.01 68.018 0.478 7.84 3455 7.14
7/13/2021 7:30:00 AM 20.08 68.144 0.471 7.83 3455 7.1
7/13/2021 7:45:00 AM 20.19 68.342 0.438 7.84 3455 7.01
7/13/2021 8:00:00 AM 20.37 68.666 0.392 7.83 3455 6.94
7/13/2021 8:15:00 AM 20.59 69.062 0.346 7.83 3455 6.88
7/13/2021 8:30:00 AM 20.76 69.368 0.315 7.79 3455 6.83
7/13/2021 8:45:00 AM 20.87 69.566 0.297 7.76 3455 6.8
7/13/2021 9:00:00 AM 20.92 69.656 0.291 7.75 3455 6.78
7/13/2021 9:15:00 AM 20.93 69.674 0.291 7.72 3455 6.76
7/13/2021 9:30:00 AM 20.9 69.62 0.296 7.7 3455 6.75
7/13/2021 9:45:00 AM 20.86 69.548 0.303 7.69 3455 6.75
7/13/2021 10:00:00 AM 20.8 69.44 0.312 7.67 3455 6.74
7/13/2021 10:15:00 AM 20.73 69.314 0.321 7.66 3455 6.74
7/13/2021 10:30:00 AM 20.65 69.17 0.331 7.66 3455 6.76
7/13/2021 10:45:00 AM 20.57 69.026 0.34 7.65 3455 6.8
7/13/2021 11:00:00 AM 20.5 68.9 0.338 7.63 3455 6.82
7/13/2021 11:15:00 AM 20.44 68.792 0.357 7.63 3455 6.84
7/13/2021 11:30:00 AM 20.39 68.702 0.365 7.65 3455 6.86
7/13/2021 11:45:00 AM 20.35 68.63 0.371 7.64 3455 6.9
7/13/2021 12:00:00 PM 20.32 68.576 0.376 7.64 3455 6.94
7/13/2021 12:15:00 PM 20.28 68.504 0.384 7.65 3455 6.99
7/13/2021 12:30:00 PM 20.25 68.45 0.39 7.66 3455 7.03
7/13/2021 12:45:00 PM 20.24 68.432 0.396 7.66 3455 7.07
7/13/2021 1:00:00 PM 20.24 68.432 0.4 7.68 3455 7.11
7/13/2021 1:15:00 PM 20.27 68.486 0.404 7.68 3455 7.19
7/13/2021 1:30:00 PM 20.32 68.576 0.408 7.69 3455 7.24
7/13/2021 1:45:00 PM 20.37 68.666 0.413 7.71 3455 7.32
7/13/2021 2:00:00 PM 20.37 68.666 0.417 7.71 3455 7.37
7/13/2021 2:15:00 PM 20.42 68.756 0.421 7.71 3455 7.41
7/13/2021 2:30:00 PM 20.45 68.81 0.424 7.73 3455 7.46
7/13/2021 2:45:00 PM 20.46 68.828 0.43 7.74 3455 7.51
7/13/2021 3:00:00 PM 20.5 68.9 0.43 7.75 3455 7.59
7/13/2021 3:15:00 PM 20.48 68.864 0.446 7.77 3455 7.61
7/13/2021 3:30:00 PM 20.5 68.9 0.453 7.78 3455 7.66
7/13/2021 3:45:00 PM 20.48 68.864 0.462 7.78 3455 7.69
7/13/2021 4:00:00 PM 20.53 68.954 0.47 7.79 284.5 7.8
7/13/2021 4:15:00 PM 20.56 69.008 0.477 7.81 344.9 7.87
7/13/2021 4:30:00 PM 20.58 69.044 0.484 7.82 665.4 7.93
7/13/2021 4:45:00 PM 20.56 69.008 0.489 7.84 435.4 7.93
7/13/2021 5:00:00 PM 20.55 68.99 0.495 7.83 245.6 7.94
7/13/2021 5:15:00 PM 20.52 68.936 0.499 7.84 164 7.94
7/13/2021 5:30:00 PM 20.5 68.9 0.503 7.85 124.8 7.95
7/13/2021 5:45:00 PM 20.47 68.846 0.506 7.87 251.8 7.97
7/13/2021 6:00:00 PM 20.44 68.792 0.509 7.88 727.5 7.95
7/13/2021 6:15:00 PM 20.42 68.756 0.511 7.89 862.9 7.94
7/13/2021 6:30:00 PM 20.38 68.684 0.513 7.89 373.1 7.94
7/13/2021 6:45:00 PM 20.35 68.63 0.515 7.88 443.6 7.92
7/13/2021 7:00:00 PM 20.32 68.576 0.517 7.88 387.4 7.91
7/13/2021 7:15:00 PM 20.29 68.522 0.518 7.89 245.2 7.89
7/13/2021 7:30:00 PM 20.25 68.45 0.523 7.89 342.3 7.86
7/13/2021 7:45:00 PM 20.21 68.378 0.526 7.91 298.7 7.81
7/13/2021 8:00:00 PM 20.16 68.288 0.528 7.91 357.4 7.77
7/13/2021 8:15:00 PM 20.1 68.18 0.531 7.9 383.1 7.73
7/13/2021 8:30:00 PM 20.05 68.09 0.533 7.9 356 7.7
7/13/2021 8:45:00 PM 20 68 0.535 7.89 184.1 7.67
7/13/2021 9:00:00 PM 19.95 67.91 0.537 7.89 267.9 7.65
7/13/2021 9:15:00 PM 19.91 67.838 0.539 7.88 604.3 7.63
7/13/2021 9:30:00 PM 19.86 67.748 0.542 7.89 344.1 7.61
7/13/2021 9:45:00 PM 19.82 67.676 0.545 7.89 337.2 7.58
7/13/2021 10:00:00 PM 19.78 67.604 0.545 7.88 715.2 7.58
7/13/2021 10:15:00 PM 19.74 67.532 0.551 7.88 745.8 7.56
7/13/2021 10:30:00 PM 19.7 67.46 0.552 7.87 566.7 7.56
7/13/2021 10:45:00 PM 19.66 67.388 0.554 7.86 675.9 7.54
7/13/2021 11:00:00 PM 19.62 67.316 0.556 7.87 354.7 7.53
7/13/2021 11:15:00 PM 19.58 67.244 0.553 7.87 253.8 7.52
7/13/2021 11:30:00 PM 19.54 67.172 0.559 7.87 259.3 7.52
7/13/2021 11:45:00 PM 19.5 67.1 0.561 7.86 310.1 7.48
7/14/2021 12:00:00 AM 19.47 67.046 0.562 7.87 692.9 7.5
7/14/2021 12:15:00 AM 19.42 66.956 0.564 7.86 462.6 7.51
7/14/2021 12:30:00 AM 19.39 66.902 0.566 7.86 987.3 7.5
7/14/2021 12:45:00 AM 19.35 66.83 0.568 7.86 715 7.5
7/14/2021 1:00:00 AM 19.3 66.74 0.57 7.86 715.8 7.5
7/14/2021 1:15:00 AM 19.26 66.668 0.572 7.86 400.4 7.52
7/14/2021 1:30:00 AM 19.25 66.65 0.579 7.85 213.9 7.54
7/14/2021 1:45:00 AM 19.28 66.704 0.589 7.85 219.3 7.55
7/14/2021 2:00:00 AM 19.29 66.722 0.595 7.85 284.8 7.53
7/14/2021 2:15:00 AM 19.29 66.722 0.571 7.86 24.16 7.51
7/14/2021 2:30:00 AM 19.28 66.704 0.569 7.86 379 7.52
7/14/2021 2:45:00 AM 19.27 66.686 0.569 7.85 63 7.51
7/14/2021 3:00:00 AM 19.25 66.65 0.561 7.87 44.82 7.53
7/14/2021 3:15:00 AM 19.24 66.632 0.603 7.86 23.23 7.51
7/14/2021 3:30:00 AM 19.22 66.596 0.602 7.86 24.35 7.51
7/14/2021 3:45:00 AM 19.2 66.56 0.593 7.85 26.4 7.51
7/14/2021 4:00:00 AM 19.19 66.542 0.605 7.86 24.89 7.48
7/14/2021 4:15:00 AM 19.18 66.524 0.593 7.86 31.31 7.48
7/14/2021 4:30:00 AM 19.18 66.524 0.601 7.86 27.06 7.48
7/14/2021 4:45:00 AM 19.17 66.506 0.601 7.86 30.26 7.46
7/14/2021 5:00:00 AM 19.16 66.488 0.603 7.87 30.98 7.48
7/14/2021 5:15:00 AM 19.15 66.47 0.564 7.87 34.69 7.5
7/14/2021 5:30:00 AM 19.13 66.434 0.616 7.87 32.06 7.5
7/14/2021 5:45:00 AM 19.08 66.344 0.614 7.87 21.93 7.51
7/14/2021 6:00:00 AM 19.02 66.236 0.609 7.86 26.95 7.53
7/14/2021 6:15:00 AM 18.95 66.11 0.604 7.87 72.26 7.56
7/14/2021 6:30:00 AM 18.89 66.002 0.601 7.87 31.12 7.57
7/14/2021 6:45:00 AM 18.84 65.912 0.6 7.88 40.01 7.61
7/14/2021 7:00:00 AM 18.81 65.858 0.597 7.89 122.5 7.63
7/14/2021 7:15:00 AM 18.79 65.82201 0.572 7.9 21.25 7.68
7/14/2021 7:30:00 AM 18.77 65.786 0.597 7.9 26.6 7.73
7/14/2021 7:45:00 AM 18.76 65.768 0.591 7.91 27.6 7.8
7/14/2021 8:00:00 AM 18.76 65.768 0.59 7.91 22.27 7.87
7/14/2021 8:15:00 AM 18.73 65.714 0.603 7.93 23.05 7.9
7/14/2021 8:30:00 AM 18.75 65.75 0.603 7.93 26.18 7.99
7/14/2021 8:45:00 AM 18.82 65.876 0.605 7.94 22.13 8.15
7/14/2021 9:00:00 AM 18.84 65.912 0.604 7.96 18.96 8.27
7/14/2021 9:15:00 AM 18.89 66.002 0.604 7.98 36.53 8.36
7/14/2021 9:30:00 AM 18.95 66.11 0.575 8 25.43 8.48
7/14/2021 9:45:00 AM 18.98 66.164 0.578 8.01 20.05 8.54
7/14/2021 10:00:00 AM 19.05 66.29 0.579 8.01 26.94 8.63
7/14/2021 10:15:00 AM 19.12 66.416 0.577 8.03 19.81 8.73
7/14/2021 10:30:00 AM 19.17 66.506 0.578 8.05 22.2 8.79
7/14/2021 10:45:00 AM 19.18 66.524 0.579 8.06 33.49 8.85
7/14/2021 11:00:00 AM 19.2 66.56 0.579 8.06 30.4 8.86
7/14/2021 11:15:00 AM 19.25 66.65 0.61 8.07 35.71 8.91
7/14/2021 11:30:00 AM 19.29 66.722 0.611 8.07 21.15 8.93
7/14/2021 11:45:00 AM 19.37 66.866 0.611 8.08 25.81 9.03
7/14/2021 12:00:00 PM 19.4 66.92 0.612 7.98 18.2 9.05
7/14/2021 12:15:00 PM 19.5 67.1 0.613 8.06 21.53 9.15
7/14/2021 12:30:00 PM 19.55 67.19 0.613 8.08 23.29 9.25
7/14/2021 12:45:00 PM 19.66 67.388 0.614 8.1 20.71 9.37
7/14/2021 1:00:00 PM 19.76 67.568 0.614 8.12 28.43 9.47
7/14/2021 1:15:00 PM 19.8 67.64 0.613 8.12 25.01 9.49
7/14/2021 1:30:00 PM 19.9 67.82 0.61 8.14 18.88 9.56
7/14/2021 1:45:00 PM 19.92 67.856 0.583 8.15 16.94 9.57
7/14/2021 2:00:00 PM 19.98 67.964 0.613 8.16 16.8 9.61
7/14/2021 2:15:00 PM 20.1 68.18 0.605 8.17 15.85 9.68
7/14/2021 2:30:00 PM 20.05 68.09 0.613 8.17 15.38 9.67
7/14/2021 2:45:00 PM 19.99 67.982 0.562 8.18 16.03 9.59
7/14/2021 3:00:00 PM 19.91 67.838 0.554 8.17 17.33 9.48
7/14/2021 3:15:00 PM 19.85 67.73 0.565 8.17 18.43 9.34
7/14/2021 3:30:00 PM 19.8 67.64 0.57 8.16 17.09 9.29
7/14/2021 3:45:00 PM 19.77 67.586 0.612 8.16 25.05 9.33
7/14/2021 4:00:00 PM 19.76 67.568 0.614 8.16 17.47 9.32
7/14/2021 4:15:00 PM 19.83 67.694 0.615 8.18 20.28 9.4
7/14/2021 4:30:00 PM 19.93 67.874 0.61 8.19 30.4 9.46
7/14/2021 4:45:00 PM 19.98 67.964 0.615 8.2 34.54 9.48
7/14/2021 5:00:00 PM 20.06 68.108 0.615 8.2 33.17 9.5
7/14/2021 5:15:00 PM 20.08 68.144 0.615 8.2 34.57 9.46
7/14/2021 5:30:00 PM 20.06 68.108 0.615 8.2 28.77 9.4
7/14/2021 5:45:00 PM 19.99 67.982 0.587 8.2 54.77 9.31
7/14/2021 6:00:00 PM 19.91 67.838 0.616 8.19 29.44 9.21
7/14/2021 6:15:00 PM 19.81 67.658 0.615 8.18 24.86 9.09
7/14/2021 6:30:00 PM 19.75 67.55 0.617 8.17 17.77 9
7/14/2021 6:45:00 PM 19.71 67.478 0.617 8.17 41.32 8.93
7/14/2021 7:00:00 PM 19.69 67.442 0.615 8.16 21.66 8.86
7/14/2021 7:15:00 PM 19.68 67.424 0.616 8.16 26.23 8.8
7/14/2021 7:30:00 PM 19.68 67.424 0.614 8.15 22.61 8.7
7/14/2021 7:45:00 PM 19.66 67.388 0.614 8.15 70.72 8.62
7/14/2021 8:00:00 PM 19.63 67.334 0.616 8.13 49.28 8.53
7/14/2021 8:15:00 PM 19.6 67.28 0.616 8.13 41.53 8.43
7/14/2021 8:30:00 PM 19.55 67.19 0.616 8.11 68.4 8.35
7/14/2021 8:45:00 PM 19.52 67.136 0.615 8.1 48.72 8.26
7/14/2021 9:00:00 PM 19.5 67.1 0.612 8.09 29.14 8.17
7/14/2021 9:15:00 PM 19.48 67.064 0.61 8.08 53.12 8.07
7/14/2021 9:30:00 PM 19.45 67.01 0.609 8.04 48.73 8
7/14/2021 9:45:00 PM 19.41 66.938 0.609 8.06 40.2 7.95
7/14/2021 10:00:00 PM 19.37 66.866 0.61 8.05 56.29 7.91
7/14/2021 10:15:00 PM 19.31 66.758 0.611 8.04 146.2 7.9
7/14/2021 10:30:00 PM 19.26 66.668 0.611 8.03 114.1 7.87
7/14/2021 10:45:00 PM 19.21 66.578 0.615 8.02 121.9 7.85
7/14/2021 11:00:00 PM 19.16 66.488 0.616 8.02 338.7 7.82
7/14/2021 11:15:00 PM 19.11 66.398 0.613 8.01 808.3 7.82
7/14/2021 11:30:00 PM 19.06 66.308 0.602 8.01 865.2 7.81
7/14/2021 11:45:00 PM 19.01 66.218 0.612 8.01 1069 7.79
7/15/2021 12:00:00 AM 18.96 66.128 0.613 8.01 902.4 7.78
7/15/2021 12:15:00 AM 18.93 66.074 0.59 8.01 957.4 7.78
7/15/2021 12:30:00 AM 18.92 66.056 0.615 8.01 1057 7.78
7/15/2021 12:45:00 AM 18.94 66.092 0.593 8 1194 7.77
7/15/2021 1:00:00 AM 18.95 66.11 0.622 7.99 957.9 7.75
7/15/2021 1:15:00 AM 18.94 66.092 0.633 8 1160 7.74
7/15/2021 1:30:00 AM 18.93 66.074 0.636 7.99 1407 7.74
7/15/2021 1:45:00 AM 18.9 66.02 0.633 8 1564 7.73
7/15/2021 2:00:00 AM 18.88 65.984 0.636 7.99 1726 7.74
7/15/2021 2:15:00 AM 18.85 65.93 0.636 7.99 1309 7.71
7/15/2021 2:30:00 AM 18.82 65.876 0.61 7.98 1205 7.72
7/15/2021 2:45:00 AM 18.79 65.82201 0.633 7.98 1250 7.71
7/15/2021 3:00:00 AM 18.77 65.786 0.63 7.98 1216 7.71
7/15/2021 3:15:00 AM 18.75 65.75 0.638 7.98 29.98 7.71
7/15/2021 3:30:00 AM 18.72 65.696 0.636 7.97 42.63 7.72
7/15/2021 3:45:00 AM 18.69 65.642 0.562 7.98 216.2 7.72
7/15/2021 4:00:00 AM 18.66 65.588 0.574 7.97 393.8 7.71
7/15/2021 4:15:00 AM 18.64 65.552 0.639 7.97 467.8 7.7
7/15/2021 4:30:00 AM 18.62 65.516 0.64 7.97 1248 7.71
7/15/2021 4:45:00 AM 18.59 65.462 0.639 7.98 266.1 7.7
7/15/2021 5:00:00 AM 18.56 65.408 0.639 7.97 1336 7.69
7/15/2021 5:15:00 AM 18.52 65.336 0.637 7.97 1923 7.69
7/15/2021 5:30:00 AM 18.46 65.228 0.633 7.96 2950 7.69
7/15/2021 5:45:00 AM 18.41 65.138 0.63 7.97 3047 7.7
7/15/2021 6:00:00 AM 18.36 65.048 0.627 7.97 3164 7.71
7/15/2021 6:15:00 AM 18.32 64.976 0.625 7.96 3116 7.72
7/15/2021 6:30:00 AM 18.28 64.904 0.624 7.97 2761 7.73
7/15/2021 6:45:00 AM 18.25 64.85 0.623 7.97 3455 7.74
7/15/2021 7:00:00 AM 18.22 64.796 0.623 7.97 3266 7.81
7/15/2021 7:15:00 AM 18.2 64.76 0.623 7.96 3455 7.87
7/15/2021 7:30:00 AM 18.19 64.742 0.623 7.97 3455 7.92
7/15/2021 7:45:00 AM 18.18 64.724 0.623 7.97 2340 7.99
7/15/2021 8:00:00 AM 18.18 64.724 0.622 7.98 1696 8.07
7/15/2021 8:15:00 AM 18.19 64.742 0.623 7.99 2387 8.16
7/15/2021 8:30:00 AM 18.22 64.796 0.621 7.99 3455 8.25
7/15/2021 8:45:00 AM 18.26 64.868 0.621 7.99 3455 8.38
7/15/2021 9:00:00 AM 18.3 64.94 0.621 8.01 3455 8.49
7/15/2021 9:15:00 AM 18.37 65.066 0.62 8.03 3455 8.62
7/15/2021 9:30:00 AM 18.44 65.192 0.619 8.03 448.2 8.74
7/15/2021 9:45:00 AM 18.54 65.372 0.619 8.04 435.5 8.86
7/15/2021 10:00:00 AM 18.62 65.516 0.619 8.05 1077 8.96
7/15/2021 10:15:00 AM 18.69 65.642 0.619 8.07 258.7 9.03
7/15/2021 10:30:00 AM 18.76 65.768 0.618 8.08 1356 9.12
7/15/2021 10:45:00 AM 18.82 65.876 0.616 8.07 1136 9.22
7/15/2021 11:00:00 AM 18.89 66.002 0.616 8.08 2858 9.3
7/15/2021 11:15:00 AM 18.98 66.164 0.616 8.1 3107 9.42
7/15/2021 11:30:00 AM 19.05 66.29 0.616 8.11 2620 9.51
7/15/2021 11:45:00 AM 19.15 66.47 0.617 8.12 2633 9.6
7/15/2021 12:00:00 PM 19.25 66.65 0.618 8.14 1484 9.69
7/15/2021 12:15:00 PM 19.33 66.794 0.618 8.15 2355 9.73
7/15/2021 12:30:00 PM 19.43 66.974 0.618 8.15 2539 9.82
7/15/2021 12:45:00 PM 19.53 67.154 0.618 8.17 2562 9.89
7/15/2021 1:00:00 PM 19.61 67.298 0.618 8.19 2130 9.94
7/15/2021 1:15:00 PM 19.69 67.442 0.618 8.2 2447 9.99
7/15/2021 1:30:00 PM 19.79 67.622 0.618 8.21 2557 10.08
7/15/2021 1:45:00 PM 19.83 67.694 0.618 8.22 2529 10.12
7/15/2021 2:00:00 PM 19.87 67.766 0.618 8.23 1229 10.14
7/15/2021 2:15:00 PM 19.91 67.838 0.618 8.23 1016 10.17
7/15/2021 2:30:00 PM 19.97 67.946 0.617 8.24 709.2 10.2
7/15/2021 2:45:00 PM 20.01 68.018 0.616 8.25 913.1 10.23
7/15/2021 3:00:00 PM 20.09 68.162 0.615 8.26 918 10.26
7/15/2021 3:15:00 PM 20.16 68.288 0.615 8.27 910.2 10.29
7/15/2021 3:30:00 PM 20.15 68.27 0.615 8.27 1045 10.25
7/15/2021 3:45:00 PM 20.09 68.162 0.59 8.27 908.1 10.14
7/15/2021 4:00:00 PM 19.99 67.982 0.582 8.25 181.5 10
7/15/2021 4:15:00 PM 19.85 67.73 0.61 8.24 140.2 9.83
7/15/2021 4:30:00 PM 19.76 67.568 0.613 8.24 458.7 9.72
7/15/2021 4:45:00 PM 19.68 67.424 0.614 8.22 10.8 9.59
7/15/2021 5:00:00 PM 19.66 67.388 0.614 8.23 3455 9.6
7/15/2021 5:15:00 PM 19.65 67.37 0.618 8.23 3455 9.6
7/15/2021 5:30:00 PM 19.64 67.352 0.624 8.24 3455 9.6
7/15/2021 5:45:00 PM 19.63 67.334 0.622 8.23 3455 9.6
7/15/2021 6:00:00 PM 19.6 67.28 0.624 8.24 3455 9.52
7/15/2021 6:15:00 PM 19.56 67.208 0.624 8.25 3455 9.45
7/15/2021 6:30:00 PM 19.52 67.136 0.623 8.24 3455 9.37
7/15/2021 6:45:00 PM 19.48 67.064 0.621 8.23 1295 9.29
7/15/2021 7:00:00 PM 19.43 66.974 0.613 8.22 3339 9.18
7/15/2021 7:15:00 PM 19.38 66.884 0.614 8.21 437.7 9.06
7/15/2021 7:30:00 PM 19.32 66.776 0.616 8.2 1853 8.94
7/15/2021 7:45:00 PM 19.27 66.686 0.627 8.2 530.2 8.82
7/15/2021 8:00:00 PM 19.23 66.614 0.625 8.19 71.41 8.73
7/15/2021 8:15:00 PM 19.19 66.542 0.627 8.18 197.1 8.66
7/15/2021 8:30:00 PM 19.16 66.488 0.627 8.15 206.5 8.57
7/15/2021 8:45:00 PM 19.12 66.416 0.627 8.15 345 8.49
7/15/2021 9:00:00 PM 19.09 66.362 0.627 8.15 501.8 8.41
7/15/2021 9:15:00 PM 19.06 66.308 0.602 8.14 136.3 8.34
7/15/2021 9:30:00 PM 19.03 66.254 0.627 8.14 436.8 8.29
7/15/2021 9:45:00 PM 19.01 66.218 0.626 8.13 565.1 8.24
7/15/2021 10:00:00 PM 18.99 66.182 0.627 8.12 519.6 8.18
7/15/2021 10:15:00 PM 18.97 66.146 0.628 8.11 82.18 8.12
7/15/2021 10:30:00 PM 18.95 66.11 0.628 8.11 16.35 8.08
7/15/2021 10:45:00 PM 18.93 66.074 0.63 8.09 171.3 8.03
7/15/2021 11:00:00 PM 18.91 66.038 0.63 8.08 145.3 8
7/15/2021 11:15:00 PM 18.89 66.002 0.632 8.08 148.3 7.96
7/15/2021 11:30:00 PM 18.87 65.966 0.631 8.07 100.2 7.93
7/15/2021 11:45:00 PM 18.85 65.93 0.63 8.06 25.59 7.9
7/16/2021 12:00:00 AM 18.83 65.894 0.629 8.07 45.04 7.88
7/16/2021 12:15:00 AM 18.81 65.858 0.599 8.05 30.23 7.85
7/16/2021 12:30:00 AM 18.79 65.82201 0.591 8.04 31.49 7.84
7/16/2021 12:45:00 AM 18.77 65.786 0.63 8.03 37.84 7.82
7/16/2021 1:00:00 AM 18.75 65.75 0.597 8.04 46.33 7.79
7/16/2021 1:15:00 AM 18.72 65.696 0.628 8.03 43.48 7.77
7/16/2021 1:30:00 AM 18.7 65.66 0.628 8.03 34.36 7.75
7/16/2021 1:45:00 AM 18.67 65.606 0.63 8.03 237.6 7.74
7/16/2021 2:00:00 AM 18.65 65.57 0.631 8.03 32 7.73
7/16/2021 2:15:00 AM 18.62 65.516 0.628 8.02 28.78 7.71
7/16/2021 2:30:00 AM 18.6 65.48 0.622 8.01 29.23 7.68
7/16/2021 2:45:00 AM 18.58 65.444 0.62 8.01 53.97 7.69
7/16/2021 3:00:00 AM 18.56 65.408 0.628 8 58.72 7.68
7/16/2021 3:15:00 AM 18.54 65.372 0.628 8 3091 7.67
7/16/2021 3:30:00 AM 18.52 65.336 0.631 8 2420 7.66
7/16/2021 3:45:00 AM 18.51 65.318 0.631 8 3105 7.67
7/16/2021 4:00:00 AM 18.49 65.282 0.633 7.99 1598 7.66
7/16/2021 4:15:00 AM 18.47 65.246 0.632 7.99 19.18 7.65
7/16/2021 4:30:00 AM 18.45 65.21 0.631 7.99 17.95 7.65
7/16/2021 4:45:00 AM 18.43 65.174 0.631 7.99 17.84 7.66
7/16/2021 5:00:00 AM 18.41 65.138 0.63 7.99 26.34 7.67
7/16/2021 5:15:00 AM 18.39 65.102 0.627 7.99 226.4 7.66
7/16/2021 5:30:00 AM 18.37 65.066 0.63 7.99 29.98 7.66
7/16/2021 5:45:00 AM 18.35 65.03 0.631 7.99 18.28 7.63
7/16/2021 6:00:00 AM 18.33 64.994 0.618 7.97 18.38 7.66
7/16/2021 6:15:00 AM 18.31 64.958 0.632 7.97 92.14 7.66
7/16/2021 6:30:00 AM 18.29 64.922 0.632 7.98 16.1 7.69
7/16/2021 6:45:00 AM 18.27 64.886 0.632 7.98 15.26 7.72
7/16/2021 7:00:00 AM 18.26 64.868 0.623 8 15.34 7.75
7/16/2021 7:15:00 AM 18.25 64.85 0.63 7.99 15.15 7.8
7/16/2021 7:30:00 AM 18.25 64.85 0.625 7.99 309.7 7.85
7/16/2021 7:45:00 AM 18.25 64.85 0.613 8.01 12.06 7.94
7/16/2021 8:00:00 AM 18.26 64.868 0.615 8.01 35.11 8.02
7/16/2021 8:15:00 AM 18.29 64.922 0.594 8.02 13.59 8.14
7/16/2021 8:30:00 AM 18.33 64.994 0.615 8.03 12.95 8.26
7/16/2021 8:45:00 AM 18.38 65.084 0.618 8.04 10.4 8.38
7/16/2021 9:00:00 AM 18.44 65.192 0.624 8.06 8.86 8.52
7/16/2021 9:15:00 AM 18.52 65.336 0.63 8.07 8.37 8.65
7/16/2021 9:30:00 AM 18.6 65.48 0.624 8.09 12.05 8.77
7/16/2021 9:45:00 AM 18.68 65.624 0.629 8.1 155 8.89
7/16/2021 10:00:00 AM 18.77 65.786 0.628 8.11 201.7 9.01
7/16/2021 10:15:00 AM 18.85 65.93 0.619 8.13 67.64 9.1
7/16/2021 10:30:00 AM 18.93 66.074 0.624 8.14 7.9 9.22
7/16/2021 10:45:00 AM 19.03 66.254 0.59 8.15 8.25 9.33
7/16/2021 11:00:00 AM 19.14 66.452 0.607 8.17 7.86 9